Darstellungsparameter: Aktuell verwendete Einstellungen:
Skalierung der Graphiken ... ?
xyx+y,   Skalierungsfaktor:      Skalierung: Modus: x, Faktor: 1
Darstellungszeitraum ... ?
Vom - - bis: - -   Zeitraum: 23.03.2005 - 22.03.2010
Min/Max/Avg-Anzeige ... ?
Zeige MMA aktuell
Zeige MMA Monat
Zeige MMA alles
Zeige --A aktuell
Zeige --A Monat
Zeige --A alles
Keine MMA-Anzeige
MMA:
Average (ber die Originaldaten)
MMA-Basis: 23.03.2005 - 22.03.2010
Quicknavigation für Darstellung... ?
Tage:      1T, 2T, 3T, 5T -1T -2T -3T -5T +1T +2T +3T +5T
Wochen: 1W, 2W, 3W -1W -2W -3W +1W +2W +3W
Monate: 1M, 3M, 6M -1M -3M -6M +1M +3M +6M
Jahre:    1J, 3J, 5J, 10J -1J -3J -5J -10J +1J +3J +5J +10J
Nutze für die Darstellung ... ?
Originaldaten oder ...
Mittelwerte Minima Maxima auf...
Stundenbasis Tagesbasis Wochenbasis
Monatsbasis Jahresbasis      Datenbasis: Mittelwerte auf Tagesbasis
Darstellen als:
Statistik (Auto) Statistik J:M      Darstellung:
Zur Graphik,    zurück zur Übersicht aller Sensoren.
 
Tabellarische Datenbersicht: ?
 
Sensor: Nr:Datum:Temp:Abs-Feuchte:Windchill:Wind:
Aussen-T/F 1 23-03-2005 00:00:00 14.70556 C 8.23 g/m*3 14.71 C 0 km/h
2 24-03-2005 00:00:00 12.16597 C 7.78 g/m*3 12.17 C 0 km/h
3 25-03-2005 00:00:00 13.2875 C 8.38 g/m*3 13.29 C 0 km/h
4 26-03-2005 00:00:00 12.16515 C 7.66 g/m*3 12.17 C 0 km/h
5 27-03-2005 00:00:00 12.68783 C 9.33 g/m*3 12.69 C 0 km/h
6 28-03-2005 00:00:00 12.38833 C 8.64 g/m*3 12.39 C 0 km/h
7 29-03-2005 00:00:00 13.05 C 8.2 g/m*3 13.05 C 0 km/h
8 30-03-2005 00:00:00 11.45917 C 8.8 g/m*3 11.46 C 0 km/h
9 31-03-2005 00:00:00 11.39 C 7.06 g/m*3 11.39 C 0 km/h
10 01-04-2005 00:00:00 10.41583 C 4.49 g/m*3 10.42 C 0 km/h
11 02-04-2005 00:00:00 10.82167 C 4.65 g/m*3 10.82 C 0 km/h
12 03-04-2005 00:00:00 12.61333 C 5.29 g/m*3 12.61 C 0 km/h
13 04-04-2005 00:00:00 13.35333 C 5.78 g/m*3 13.35 C 0 km/h
14 05-04-2005 00:00:00 11.55833 C 6.43 g/m*3 11.56 C 0 km/h
15 06-04-2005 00:00:00 10.38083 C 6.15 g/m*3 10.38 C 0 km/h
16 07-04-2005 00:00:00 12.06833 C 6.36 g/m*3 12.07 C 0 km/h
17 08-04-2005 00:00:00 7.8825 C 6.35 g/m*3 7.88 C 0 km/h
18 09-04-2005 00:00:00 5.93277 C 4.24 g/m*3 5.93 C 0 km/h
19 10-04-2005 00:00:00 7.76583 C 5.49 g/m*3 7.77 C 0 km/h
20 11-04-2005 00:00:00 10.6825 C 6.5 g/m*3 10.68 C 0 km/h
21 12-04-2005 00:00:00 11.34333 C 6.78 g/m*3 11.34 C 0 km/h
22 13-04-2005 00:00:00 12.79833 C 6.79 g/m*3 12.8 C 0 km/h
23 14-04-2005 00:00:00 13.26 C 6.74 g/m*3 13.26 C 0 km/h
24 15-04-2005 00:00:00 12.42583 C 7.07 g/m*3 12.43 C 0 km/h
25 16-04-2005 00:00:00 10.05167 C 7.71 g/m*3 10.05 C 0 km/h
Sensor: Nr:Datum:Temp:Abs-Feuchte:Windchill:Wind:
Aussen-T/F 26 17-04-2005 00:00:00 11.35583 C 8.37 g/m*3 11.36 C 0 km/h
27 18-04-2005 00:00:00 14.87083 C 7.91 g/m*3 14.87 C 0 km/h
28 19-04-2005 00:00:00 9.63167 C 8.13 g/m*3 9.63 C 0 km/h
29 20-04-2005 00:00:00 9.0325 C 7.01 g/m*3 9.03 C 0 km/h
30 21-04-2005 00:00:00 8.66134 C 4.72 g/m*3 8.66 C 0 km/h
31 22-04-2005 00:00:00 10.07 C 4.67 g/m*3 10.07 C 0 km/h
32 23-04-2005 00:00:00 10.6975 C 6 g/m*3 10.7 C 0 km/h
33 24-04-2005 00:00:00 14.47 C 8.87 g/m*3 14.47 C 0 km/h
34 25-04-2005 00:00:00 13.27583 C 9.86 g/m*3 13.28 C 0 km/h
35 26-04-2005 00:00:00 13.5575 C 8.22 g/m*3 13.56 C 0 km/h
36 27-04-2005 00:00:00 13.41667 C 7.37 g/m*3 13.42 C 0 km/h
37 28-04-2005 00:00:00 13.73417 C 6.84 g/m*3 13.73 C 0 km/h
38 29-04-2005 00:00:00 16.11 C 9.78 g/m*3 16.11 C 0 km/h
39 30-04-2005 00:00:00 20.35917 C 10.93 g/m*3 20.36 C 0 km/h
40 01-05-2005 00:00:00 21.73417 C 10.62 g/m*3 21.73 C 0 km/h
41 02-05-2005 00:00:00 20.5605 C 9.76 g/m*3 20.56 C 0 km/h
42 03-05-2005 00:00:00 17.2475 C 9.82 g/m*3 17.25 C 0 km/h
43 04-05-2005 00:00:00 12.76667 C 9.48 g/m*3 12.77 C 0 km/h
44 05-05-2005 00:00:00 12.50167 C 6.8 g/m*3 12.5 C 0 km/h
45 06-05-2005 00:00:00 11.26583 C 6.39 g/m*3 11.27 C 0 km/h
46 07-05-2005 00:00:00 8.97167 C 6.69 g/m*3 8.97 C 0 km/h
47 08-05-2005 00:00:00 7.88333 C 6.03 g/m*3 7.88 C 0 km/h
48 09-05-2005 00:00:00 8.5025 C 5.83 g/m*3 8.5 C 0 km/h
49 10-05-2005 00:00:00 9.0275 C 5.44 g/m*3 9.03 C 0 km/h
50 11-05-2005 00:00:00 10.67 C 5.6 g/m*3 10.67 C 0 km/h
Sensor: Nr:Datum:Temp:Abs-Feuchte:Windchill:Wind:
Aussen-T/F 51 12-05-2005 00:00:00 12.34917 C 5.9 g/m*3 12.35 C 0 km/h
52 13-05-2005 00:00:00 13.33583 C 5.67 g/m*3 13.34 C 0 km/h
53 14-05-2005 00:00:00 11.34917 C 8.9 g/m*3 11.35 C 0 km/h
54 15-05-2005 00:00:00 10.61176 C 7.06 g/m*3 10.61 C 0 km/h
55 16-05-2005 00:00:00 12.49 C 7.4 g/m*3 12.49 C 0 km/h
56 17-05-2005 00:00:00 10.19 C 6.48 g/m*3 10.19 C 0 km/h
57 18-05-2005 00:00:00 9.50333 C 5.38 g/m*3 9.5 C 0 km/h
58 19-05-2005 00:00:00 13.98667 C 6.1 g/m*3 13.99 C 0 km/h
59 20-05-2005 00:00:00 18.82 C 7.84 g/m*3 18.82 C 0 km/h
60 21-05-2005 00:00:00 17.09333 C 10.54 g/m*3 17.09 C 0 km/h
61 22-05-2005 00:00:00 16.69167 C 9.91 g/m*3 16.69 C 0 km/h
62 23-05-2005 00:00:00 15.47 C 8.81 g/m*3 15.47 C 0 km/h
63 24-05-2005 00:00:00 15.2125 C 7.47 g/m*3 15.21 C 0 km/h
64 25-05-2005 00:00:00 20.55083 C 9.07 g/m*3 20.55 C 0 km/h
65 26-05-2005 00:00:00 23.19417 C 10.55 g/m*3 23.19 C 0 km/h
66 27-05-2005 00:00:00 25.4563 C 11.26 g/m*3 25.46 C 0 km/h
67 28-05-2005 00:00:00 25.91333 C 11.84 g/m*3 25.91 C 0 km/h
68 29-05-2005 00:00:00 24.1375 C 9.98 g/m*3 24.14 C 0 km/h
69 30-05-2005 00:00:00 14.91167 C 10.28 g/m*3 14.91 C 0 km/h
70 31-05-2005 00:00:00 14.53333 C 7.22 g/m*3 14.53 C 0 km/h
71 01-06-2005 00:00:00 15.82667 C 7.19 g/m*3 15.83 C 0 km/h
72 02-06-2005 00:00:00 18.09167 C 8.27 g/m*3 18.09 C 0 km/h
73 03-06-2005 00:00:00 20.99667 C 10.8 g/m*3 21 C 0 km/h
74 04-06-2005 00:00:00 16.485 C 8.56 g/m*3 16.49 C 0 km/h
75 05-06-2005 00:00:00 14.8025 C 7.74 g/m*3 14.8 C 0 km/h
Sensor: Nr:Datum:Temp:Abs-Feuchte:Windchill:Wind:
Aussen-T/F 76 06-06-2005 00:00:00 15.25917 C 7.79 g/m*3 15.26 C 0 km/h
77 07-06-2005 00:00:00 12.26 C 5.02 g/m*3 12.26 C 0 km/h
78 08-06-2005 00:00:00 13.41429 C 6.24 g/m*3 13.41 C 0 km/h
79 09-06-2005 00:00:00 15.84167 C 6.69 g/m*3 15.84 C 0 km/h
80 10-06-2005 00:00:00 16.15833 C 7.12 g/m*3 16.16 C 0 km/h
81 11-06-2005 00:00:00 14.58 C 6.14 g/m*3 14.58 C 0 km/h
82 12-06-2005 00:00:00 14.0525 C 6.27 g/m*3 14.05 C 0 km/h
83 13-06-2005 00:00:00 17.27833 C 6.58 g/m*3 17.28 C 0 km/h
84 14-06-2005 00:00:00 16.55583 C 8.54 g/m*3 16.56 C 0 km/h
85 15-06-2005 00:00:00 20.05167 C 10.11 g/m*3 20.05 C 0 km/h
86 16-06-2005 00:00:00 21.46833 C 9.08 g/m*3 21.47 C 0 km/h
87 17-06-2005 00:00:00 21.405 C 12.17 g/m*3 21.41 C 0 km/h
88 18-06-2005 00:00:00 25.12583 C 10.68 g/m*3 25.13 C 0 km/h
89 19-06-2005 00:00:00 24.75417 C 8.2 g/m*3 24.75 C 0 km/h
90 20-06-2005 00:00:00 25.94538 C 10.02 g/m*3 25.95 C 0 km/h
91 21-06-2005 00:00:00 26.24583 C 10.89 g/m*3 26.25 C 0 km/h
92 22-06-2005 00:00:00 24.59333 C 9.45 g/m*3 24.59 C 0 km/h
93 23-06-2005 00:00:00 25.40417 C 9.9 g/m*3 25.4 C 0 km/h
94 24-06-2005 00:00:00 27.67167 C 10.61 g/m*3 27.67 C 0 km/h
95 25-06-2005 00:00:00 24.93083 C 12.35 g/m*3 24.93 C 0 km/h
96 26-06-2005 00:00:00 23.99833 C 11.73 g/m*3 24 C 0 km/h
97 27-06-2005 00:00:00 25.26083 C 10.77 g/m*3 25.26 C 0 km/h
98 28-06-2005 00:00:00 26.35917 C 9.96 g/m*3 26.36 C 0 km/h
99 29-06-2005 00:00:00 23.065 C 12.98 g/m*3 23.07 C 0 km/h
100 30-06-2005 00:00:00 20.43667 C 12.48 g/m*3 20.44 C 0 km/h
Sensor: Nr:Datum:Temp:Abs-Feuchte:Windchill:Wind:
Aussen-T/F 101 01-07-2005 00:00:00 18.08083 C 11.11 g/m*3 18.08 C 0 km/h
102 02-07-2005 00:00:00 19.26807 C 12.28 g/m*3 19.27 C 0 km/h
103 03-07-2005 00:00:00 24.03333 C 13.19 g/m*3 24.03 C 0 km/h
104 04-07-2005 00:00:00 21.58833 C 11.39 g/m*3 21.59 C 0 km/h
105 05-07-2005 00:00:00 17.17083 C 7.23 g/m*3 17.17 C 0 km/h
106 06-07-2005 00:00:00 16.24167 C 9.2 g/m*3 16.24 C 0 km/h
107 07-07-2005 00:00:00 14.92 C 9.47 g/m*3 14.92 C 0 km/h
108 08-07-2005 00:00:00 16.17583 C 9.49 g/m*3 16.18 C 0 km/h
109 09-07-2005 00:00:00 19.5375 C 9.84 g/m*3 19.54 C 0 km/h
110 10-07-2005 00:00:00 22.93917 C 10.79 g/m*3 22.94 C 0 km/h
111 11-07-2005 00:00:00 23.77333 C 10.84 g/m*3 23.77 C 0 km/h
112 12-07-2005 00:00:00 23.70667 C 11.85 g/m*3 23.71 C 0 km/h
113 13-07-2005 00:00:00 25.555 C 11.6 g/m*3 25.56 C 0 km/h
114 14-07-2005 00:00:00 25.76723 C 12.39 g/m*3 25.77 C 0 km/h
115 15-07-2005 00:00:00 25.0575 C 11.9 g/m*3 25.06 C 0 km/h
116 16-07-2005 00:00:00 23.73917 C 11.46 g/m*3 23.74 C 0 km/h
117 17-07-2005 00:00:00 23.48167 C 9.48 g/m*3 23.48 C 0 km/h
118 18-07-2005 00:00:00 22.98917 C 10.39 g/m*3 22.99 C 0 km/h
119 19-07-2005 00:00:00 19.165 C 10.11 g/m*3 19.17 C 0 km/h
120 20-07-2005 00:00:00 17.92333 C 9 g/m*3 17.92 C 0 km/h
121 21-07-2005 00:00:00 16.6875 C 8.29 g/m*3 16.69 C 0 km/h
122 22-07-2005 00:00:00 17.13833 C 8.74 g/m*3 17.14 C 0 km/h
123 23-07-2005 00:00:00 17.69 C 7.64 g/m*3 17.69 C 0 km/h
124 24-07-2005 00:00:00 17.87167 C 11.25 g/m*3 17.87 C 0 km/h
125 25-07-2005 00:00:00 20.895 C 11.75 g/m*3 20.9 C 0 km/h
Sensor: Nr:Datum:Temp:Abs-Feuchte:Windchill:Wind:
Aussen-T/F 126 26-07-2005 00:00:00 20.33361 C 10.75 g/m*3 20.33 C 0 km/h
127 27-07-2005 00:00:00 23.76 C 13.16 g/m*3 23.76 C 0 km/h
128 28-07-2005 00:00:00 25.00583 C 14.67 g/m*3 25.01 C 0 km/h
129 29-07-2005 00:00:00 23.18917 C 13.92 g/m*3 23.19 C 0 km/h
130 30-07-2005 00:00:00 20.03083 C 11.38 g/m*3 20.03 C 0 km/h
131 31-07-2005 00:00:00 17.3425 C 10.74 g/m*3 17.34 C 0 km/h
132 01-08-2005 00:00:00 19.36167 C 10.99 g/m*3 19.36 C 0 km/h
133 02-08-2005 00:00:00 19.71 C 9.16 g/m*3 19.71 C 0 km/h
134 03-08-2005 00:00:00 18.86917 C 8.93 g/m*3 18.87 C 0 km/h
135 04-08-2005 00:00:00 17.4025 C 8.67 g/m*3 17.4 C 0 km/h
136 05-08-2005 00:00:00 16.13083 C 9.86 g/m*3 16.13 C 0 km/h
137 06-08-2005 00:00:00 16.02 C 9 g/m*3 16.02 C 0 km/h
138 07-08-2005 00:00:00 13.69412 C 8.11 g/m*3 13.69 C 0 km/h
139 08-08-2005 00:00:00 14.66667 C 8.88 g/m*3 14.67 C 0 km/h
140 09-08-2005 00:00:00 16.6775 C 8.55 g/m*3 16.68 C 0 km/h
141 10-08-2005 00:00:00 16.66083 C 7.5 g/m*3 16.66 C 0 km/h
142 11-08-2005 00:00:00 17.4125 C 9.48 g/m*3 17.41 C 0 km/h
143 12-08-2005 00:00:00 18.20917 C 11.32 g/m*3 18.21 C 0 km/h
144 13-08-2005 00:00:00 18.01833 C 8.84 g/m*3 18.02 C 0 km/h
145 14-08-2005 00:00:00 15.59833 C 10.51 g/m*3 15.6 C 0 km/h
146 15-08-2005 00:00:00 14.56583 C 11.02 g/m*3 14.57 C 0 km/h
147 16-08-2005 00:00:00 19.1575 C 11.13 g/m*3 19.16 C 0 km/h
148 17-08-2005 00:00:00 20.12333 C 10.72 g/m*3 20.12 C 0 km/h
149 18-08-2005 00:00:00 22.1825 C 11.42 g/m*3 22.18 C 0 km/h
150 19-08-2005 00:00:00 21.06975 C 12.52 g/m*3 21.07 C 0 km/h
Sensor: Nr:Datum:Temp:Abs-Feuchte:Windchill:Wind:
Aussen-T/F 151 20-08-2005 00:00:00 19.5825 C 10.72 g/m*3 19.58 C 0 km/h
152 21-08-2005 00:00:00 17.13083 C 11.35 g/m*3 17.13 C 0 km/h
153 22-08-2005 00:00:00 18.24 C 11.79 g/m*3 18.24 C 0 km/h
154 23-08-2005 00:00:00 19.4425 C 11.39 g/m*3 19.44 C 0 km/h
155 24-08-2005 00:00:00 18.79417 C 10.31 g/m*3 18.79 C 0 km/h
156 25-08-2005 00:00:00 16.47333 C 10.06 g/m*3 16.47 C 0 km/h
157 26-08-2005 00:00:00 15.255 C 8.61 g/m*3 15.26 C 0 km/h
158 27-08-2005 00:00:00 16.45083 C 9.03 g/m*3 16.45 C 0 km/h
159 28-08-2005 00:00:00 17.84083 C 9.36 g/m*3 17.84 C 0 km/h
160 29-08-2005 00:00:00 19.6675 C 10.08 g/m*3 19.67 C 0 km/h
161 30-08-2005 00:00:00 21.65667 C 10.92 g/m*3 21.66 C 0 km/h
162 31-08-2005 00:00:00 23.08403 C 11.54 g/m*3 23.08 C 0 km/h
163 01-09-2005 00:00:00 22.76917 C 12.16 g/m*3 22.77 C 0 km/h
164 02-09-2005 00:00:00 21.29917 C 11.95 g/m*3 21.3 C 0 km/h
165 03-09-2005 00:00:00 22.07899 C 11.2 g/m*3 22.08 C 0 km/h
166 04-09-2005 00:00:00 21.90417 C 10.62 g/m*3 21.9 C 0 km/h
167 05-09-2005 00:00:00 21.3675 C 9.49 g/m*3 21.37 C 0 km/h
168 06-09-2005 00:00:00 20.89417 C 10.71 g/m*3 20.89 C 0 km/h
169 07-09-2005 00:00:00 22.66167 C 11.44 g/m*3 22.66 C 0 km/h
170 08-09-2005 00:00:00 23.19833 C 12.14 g/m*3 23.2 C 0 km/h
171 09-09-2005 00:00:00 21.58833 C 12.69 g/m*3 21.59 C 0 km/h
172 10-09-2005 00:00:00 21.80833 C 12.68 g/m*3 21.81 C 0 km/h
173 11-09-2005 00:00:00 18.13 C 13.92 g/m*3 18.13 C 0 km/h
174 12-09-2005 00:00:00 16.6975 C 13.04 g/m*3 16.7 C 0 km/h
175 13-09-2005 00:00:00 17.45833 C 10.62 g/m*3 17.46 C 0 km/h
Sensor: Nr:Datum:Temp:Abs-Feuchte:Windchill:Wind:
Aussen-T/F 176 14-09-2005 00:00:00 16.755 C 10.01 g/m*3 16.76 C 0 km/h
177 15-09-2005 00:00:00 20.13361 C 11.35 g/m*3 20.13 C 0 km/h
178 16-09-2005 00:00:00 15.17311 C 9.68 g/m*3 15.17 C 0 km/h
179 17-09-2005 00:00:00 11.81667 C 6.67 g/m*3 11.82 C 0 km/h
180 18-09-2005 00:00:00 11.7875 C 6.82 g/m*3 11.79 C 0 km/h
181 19-09-2005 00:00:00 12.0719 C 6.68 g/m*3 12.07 C 0 km/h
182 20-09-2005 00:00:00 12.19583 C 7.15 g/m*3 12.2 C 0 km/h
183 21-09-2005 00:00:00 13.40667 C 7.66 g/m*3 13.41 C 0 km/h
184 22-09-2005 00:00:00 13.94833 C 8.1 g/m*3 13.95 C 0 km/h
185 23-09-2005 00:00:00 14.84667 C 8.74 g/m*3 14.85 C 0 km/h
186 24-09-2005 00:00:00 15.92583 C 9.59 g/m*3 15.93 C 0 km/h
187 25-09-2005 00:00:00 17.7325 C 10.47 g/m*3 17.73 C 0 km/h
188 26-09-2005 00:00:00 16.44083 C 9.46 g/m*3 16.44 C 0 km/h
189 27-09-2005 00:00:00 17.605 C 8.57 g/m*3 17.61 C 0 km/h
190 28-09-2005 00:00:00 15.42917 C 8.89 g/m*3 15.43 C 0 km/h
191 29-09-2005 00:00:00 12.91254 C 7.94 g/m*3 12.91 C 0 km/h
192 30-09-2005 00:00:00 12.29549 C 7.03 g/m*3 12.3 C 0 km/h
193 01-10-2005 00:00:00 12.61701 C 9.71 g/m*3 12.62 C 0 km/h
194 02-10-2005 00:00:00 10.70833 C 8.46 g/m*3 10.71 C 0 km/h
195 03-10-2005 00:00:00 11.3875 C 8.55 g/m*3 11.39 C 0 km/h
196 04-10-2005 00:00:00 14.26864 C 9.15 g/m*3 14.27 C 0 km/h
197 05-10-2005 00:00:00 16.7441 C 10.35 g/m*3 16.74 C 0 km/h
198 06-10-2005 00:00:00 16.68194 C 10.26 g/m*3 16.68 C 0 km/h
199 07-10-2005 00:00:00 14.36563 C 9.48 g/m*3 14.37 C 0 km/h
200 08-10-2005 00:00:00 13.06285 C 9.3 g/m*3 13.06 C 0 km/h
Sensor: Nr:Datum:Temp:Abs-Feuchte:Windchill:Wind:
Aussen-T/F 201 09-10-2005 00:00:00 14.51049 C 9.74 g/m*3 14.51 C 0 km/h
202 10-10-2005 00:00:00 15.84132 C 9.84 g/m*3 15.84 C 0 km/h
203 11-10-2005 00:00:00 13.49444 C 9.21 g/m*3 13.49 C 0 km/h
204 12-10-2005 00:00:00 13.54549 C 9.11 g/m*3 13.55 C 0 km/h
205 13-10-2005 00:00:00 12.36181 C 8.52 g/m*3 12.36 C 0 km/h
206 14-10-2005 00:00:00 11.9951 C 8.33 g/m*3 12 C 0 km/h
207 15-10-2005 00:00:00 11.45174 C 8.2 g/m*3 11.45 C 0 km/h
208 16-10-2005 00:00:00 10.83472 C 7.4 g/m*3 10.83 C 0 km/h
209 17-10-2005 00:00:00 8.28194 C 5.72 g/m*3 8.28 C 0 km/h
210 18-10-2005 00:00:00 8.65749 C 5.37 g/m*3 8.66 C 0 km/h
211 19-10-2005 00:00:00 7.00417 C 6.38 g/m*3 7 C 0 km/h
212 20-10-2005 00:00:00 11.25382 C 9.08 g/m*3 11.25 C 0 km/h
213 21-10-2005 00:00:00 14.43681 C 10.35 g/m*3 14.44 C 0 km/h
214 22-10-2005 00:00:00 15.54896 C 10.18 g/m*3 15.55 C 0 km/h
215 23-10-2005 00:00:00 14.24321 C 9.16 g/m*3 14.24 C 0 km/h
216 24-10-2005 00:00:00 12.10545 C 8.42 g/m*3 12.11 C 0 km/h
217 25-10-2005 00:00:00 15.69143 C 8.79 g/m*3 15.69 C 0 km/h
218 26-10-2005 00:00:00 16.07417 C 9.59 g/m*3 16.07 C 0 km/h
219 27-10-2005 00:00:00 14.98583 C 10.01 g/m*3 14.99 C 0 km/h
220 28-10-2005 00:00:00 16.07721 C 9.93 g/m*3 16.08 C 0 km/h
221 29-10-2005 00:00:00 13.94583 C 9.13 g/m*3 13.95 C 0 km/h
222 30-10-2005 00:00:00 12.71467 C 8.73 g/m*3 12.71 C 0 km/h
223 31-10-2005 00:00:00 13.11667 C 8.12 g/m*3 13.12 C 0 km/h
224 01-11-2005 00:00:00 12.41319 C 8.54 g/m*3 12.41 C 0 km/h
225 02-11-2005 00:00:00 10.43819 C 8.46 g/m*3 10.44 C 0 km/h
Sensor: Nr:Datum:Temp:Abs-Feuchte:Windchill:Wind:
Aussen-T/F 226 03-11-2005 00:00:00 14.78403 C 9.99 g/m*3 14.78 C 0 km/h
227 04-11-2005 00:00:00 13.39444 C 9.98 g/m*3 13.39 C 0 km/h
228 05-11-2005 00:00:00 8.99792 C 7.03 g/m*3 9 C 0 km/h
229 06-11-2005 00:00:00 9.96224 C 7.32 g/m*3 9.96 C 0 km/h
230 07-11-2005 00:00:00 8.03611 C 7.17 g/m*3 8.04 C 0 km/h
231 08-11-2005 00:00:00 10.35903 C 7.4 g/m*3 10.36 C 0 km/h
232 09-11-2005 00:00:00 7.83194 C 7.09 g/m*3 7.83 C 0 km/h
233 10-11-2005 00:00:00 9.97639 C 7.21 g/m*3 9.98 C 0 km/h
234 11-11-2005 00:00:00 9.26736 C 7.4 g/m*3 9.27 C 0 km/h
235 12-11-2005 00:00:00 7.83611 C 5.99 g/m*3 7.84 C 0 km/h
236 13-11-2005 00:00:00 9.98542 C 7.43 g/m*3 9.99 C 0 km/h
237 14-11-2005 00:00:00 7.76458 C 6.52 g/m*3 7.76 C 0 km/h
238 15-11-2005 00:00:00 6.09931 C 5.92 g/m*3 6.1 C 0 km/h
239 16-11-2005 00:00:00 5.71806 C 5.83 g/m*3 5.72 C 0 km/h
240 17-11-2005 00:00:00 4.69231 C 4.87 g/m*3 4.69 C 0 km/h
241 18-11-2005 00:00:00 3.75903 C 4.75 g/m*3 3.76 C 0 km/h
242 19-11-2005 00:00:00 1.67431 C 4.45 g/m*3 1.67 C 0 km/h
243 20-11-2005 00:00:00 1.75625 C 4.65 g/m*3 1.76 C 0 km/h
244 21-11-2005 00:00:00 4.09236 C 5.57 g/m*3 4.09 C 0 km/h
245 22-11-2005 00:00:00 -0.87778 C 3.96 g/m*3 -0.88 C 0 km/h
246 23-11-2005 00:00:00 0.84861 C 4.11 g/m*3 0.85 C 0 km/h
247 24-11-2005 00:00:00 2.37778 C 4.63 g/m*3 2.38 C 0 km/h
248 25-11-2005 00:00:00 1.54167 C 3.59 g/m*3 1.54 C 0 km/h
249 26-11-2005 00:00:00 2.46111 C 3.28 g/m*3 2.46 C 0 km/h
250 27-11-2005 00:00:00 2.30979 C 4.39 g/m*3 2.31 C 0 km/h
Sensor: Nr:Datum:Temp:Abs-Feuchte:Windchill:Wind:
Aussen-T/F 251 28-11-2005 00:00:00 1.92847 C 4.78 g/m*3 1.93 C 0 km/h
252 29-11-2005 00:00:00 2.30694 C 4.43 g/m*3 2.31 C 0 km/h
253 30-11-2005 00:00:00 2.00069 C 4.01 g/m*3 2 C 0 km/h
254 01-12-2005 00:00:00 0.41875 C 3.53 g/m*3 0.42 C 0 km/h
255 02-12-2005 00:00:00 0.22153 C 3.38 g/m*3 0.22 C 0 km/h
256 03-12-2005 00:00:00 3.82708 C 5.01 g/m*3 3.83 C 0 km/h
257 04-12-2005 00:00:00 7.05417 C 6.74 g/m*3 7.05 C 0 km/h
258 05-12-2005 00:00:00 6.35208 C 5.78 g/m*3 6.35 C 0 km/h
259 06-12-2005 00:00:00 4.99583 C 5.15 g/m*3 5 C 0 km/h
260 07-12-2005 00:00:00 4.93706 C 5.56 g/m*3 4.94 C 0 km/h
261 08-12-2005 00:00:00 4.74653 C 5.18 g/m*3 4.75 C 0 km/h
262 09-12-2005 00:00:00 3.66458 C 5.09 g/m*3 3.66 C 0 km/h
263 10-12-2005 00:00:00 -0.92292 C 3.78 g/m*3 -0.92 C 0 km/h
264 11-12-2005 00:00:00 -2.30069 C 3.46 g/m*3 -2.3 C 0 km/h
265 12-12-2005 00:00:00 1.72847 C 4.76 g/m*3 1.73 C 0 km/h
266 13-12-2005 00:00:00 1.28472 C 4.91 g/m*3 1.28 C 0 km/h
267 14-12-2005 00:00:00 3.84028 C 5.78 g/m*3 3.84 C 0 km/h
268 15-12-2005 00:00:00 5.59167 C 5.53 g/m*3 5.59 C 0 km/h
269 16-12-2005 00:00:00 6.09861 C 5.31 g/m*3 6.1 C 0 km/h
270 17-12-2005 00:00:00 1.45035 C 3.8 g/m*3 1.45 C 0 km/h
271 18-12-2005 00:00:00 1.59861 C 3.96 g/m*3 1.6 C 0 km/h
272 19-12-2005 00:00:00 1.45417 C 4.2 g/m*3 1.45 C 0 km/h
273 20-12-2005 00:00:00 2.75347 C 4.64 g/m*3 2.75 C 0 km/h
274 21-12-2005 00:00:00 2.23194 C 4.34 g/m*3 2.23 C 0 km/h
275 22-12-2005 00:00:00 2.96875 C 5.07 g/m*3 2.97 C 0 km/h
Sensor: Nr:Datum:Temp:Abs-Feuchte:Windchill:Wind:
Aussen-T/F 276 23-12-2005 00:00:00 4.89653 C 5.59 g/m*3 4.9 C 0 km/h
277 24-12-2005 00:00:00 5.93264 C 5.56 g/m*3 5.93 C 0 km/h
278 25-12-2005 00:00:00 4.13958 C 5.2 g/m*3 4.14 C 0 km/h
279 26-12-2005 00:00:00 1.48403 C 4.21 g/m*3 1.48 C 0 km/h
280 27-12-2005 00:00:00 -1.47413 C 3.38 g/m*3 -1.47 C 0 km/h
281 28-12-2005 00:00:00 -1.48681 C 3.38 g/m*3 -1.49 C 0 km/h
282 29-12-2005 00:00:00 -2.85486 C 2.99 g/m*3 -2.85 C 0 km/h
283 30-12-2005 00:00:00 -3.14514 C 2.78 g/m*3 -3.15 C 0 km/h
284 31-12-2005 00:00:00 2.82361 C 4.93 g/m*3 2.82 C 0 km/h
285 01-01-2006 00:00:00 3.86319 C 5.09 g/m*3 3.86 C 0 km/h
286 02-01-2006 00:00:00 3.13125 C 4.93 g/m*3 3.13 C 0 km/h
287 03-01-2006 00:00:00 2.31597 C 4.43 g/m*3 2.32 C 0 km/h
288 04-01-2006 00:00:00 0.29583 C 3.73 g/m*3 0.3 C 0 km/h
289 05-01-2006 00:00:00 1.24306 C 3.66 g/m*3 1.24 C 0 km/h
290 06-01-2006 00:00:00 -0.25035 C 4 g/m*3 -0.25 C 0 km/h
291 07-01-2006 00:00:00 2.66181 C 4.44 g/m*3 2.66 C 0 km/h
292 08-01-2006 00:00:00 2.09653 C 3.9 g/m*3 2.1 C 0 km/h
293 09-01-2006 00:00:00 -2.41736 C 3.27 g/m*3 -2.42 C 0 km/h
294 10-01-2006 00:00:00 -1.51736 C 3.25 g/m*3 -1.52 C 0 km/h
295 11-01-2006 00:00:00 -1.95903 C 3.55 g/m*3 -1.96 C 0 km/h
296 12-01-2006 00:00:00 1.79583 C 5.01 g/m*3 1.8 C 0 km/h
297 13-01-2006 00:00:00 0.35972 C 3.83 g/m*3 0.36 C 0 km/h
298 14-01-2006 00:00:00 -3.27639 C 3.12 g/m*3 -3.28 C 0 km/h
299 15-01-2006 00:00:00 -4.27153 C 2.57 g/m*3 -4.27 C 0 km/h
300 16-01-2006 00:00:00 -4.78951 C 2.59 g/m*3 -4.79 C 0 km/h
Sensor: Nr:Datum:Temp:Abs-Feuchte:Windchill:Wind:
Aussen-T/F 301 17-01-2006 00:00:00 1.90278 C 4.54 g/m*3 1.9 C 0 km/h
302 18-01-2006 00:00:00 3.8125 C 5.08 g/m*3 3.81 C 0 km/h
303 19-01-2006 00:00:00 1.43403 C 4.72 g/m*3 1.43 C 0 km/h
304 20-01-2006 00:00:00 6.2375 C 6 g/m*3 6.24 C 0 km/h
305 21-01-2006 00:00:00 4.58889 C 5.24 g/m*3 4.59 C 0 km/h
306 22-01-2006 00:00:00 1.08125 C 3.94 g/m*3 1.08 C 0 km/h
307 23-01-2006 00:00:00 -5.20417 C 1.94 g/m*3 -5.2 C 0 km/h
308 24-01-2006 00:00:00 -5.83542 C 1.92 g/m*3 -5.84 C 0 km/h
309 25-01-2006 00:00:00 -3.80833 C 2.61 g/m*3 -3.81 C 0 km/h
310 26-01-2006 00:00:00 -2.11818 C 3.16 g/m*3 -2.12 C 0 km/h
311 27-01-2006 00:00:00 -5.44236 C 2.23 g/m*3 -5.44 C 0 km/h
312 28-01-2006 00:00:00 -6.67986 C 2.22 g/m*3 -6.68 C 0 km/h
313 29-01-2006 00:00:00 -6.29792 C 2.35 g/m*3 -6.3 C 0 km/h
314 30-01-2006 00:00:00 -5.95139 C 2.43 g/m*3 -5.95 C 0 km/h
315 31-01-2006 00:00:00 -3.30486 C 3.12 g/m*3 -3.3 C 0 km/h
316 01-02-2006 00:00:00 -5.48333 C 2.52 g/m*3 -5.48 C 0 km/h
317 02-02-2006 00:00:00 -6.16667 C 2.42 g/m*3 -6.17 C 0 km/h
318 03-02-2006 00:00:00 -3.79931 C 2.72 g/m*3 -3.8 C 0 km/h
319 04-02-2006 00:00:00 -0.85208 C 3.61 g/m*3 -0.85 C 0 km/h
320 05-02-2006 00:00:00 -0.32867 C 3.81 g/m*3 -0.33 C 0 km/h
321 06-02-2006 00:00:00 1.50903 C 4.7 g/m*3 1.51 C 0 km/h
322 07-02-2006 00:00:00 3.74861 C 4.89 g/m*3 3.75 C 0 km/h
323 08-02-2006 00:00:00 3.70208 C 4.95 g/m*3 3.7 C 0 km/h
324 09-02-2006 00:00:00 2.29722 C 4.03 g/m*3 2.3 C 0 km/h
325 10-02-2006 00:00:00 2.10979 C 4.24 g/m*3 2.11 C 0 km/h
Sensor: Nr:Datum:Temp:Abs-Feuchte:Windchill:Wind:
Aussen-T/F 326 11-02-2006 00:00:00 1.21458 C 4.02 g/m*3 1.21 C 0 km/h
327 12-02-2006 00:00:00 1.60694 C 3.21 g/m*3 1.61 C 0 km/h
328 13-02-2006 00:00:00 2.60764 C 2.97 g/m*3 2.61 C 0 km/h
329 14-02-2006 00:00:00 4.21597 C 4.26 g/m*3 4.22 C 0 km/h
330 15-02-2006 00:00:00 6.17832 C 5.78 g/m*3 6.18 C 0 km/h
331 16-02-2006 00:00:00 7.31736 C 6.23 g/m*3 7.32 C 0 km/h
332 17-02-2006 00:00:00 6.0625 C 5.09 g/m*3 6.06 C 0 km/h
333 18-02-2006 00:00:00 5.81389 C 5.1 g/m*3 5.81 C 0 km/h
334 19-02-2006 00:00:00 7.08472 C 4.96 g/m*3 7.08 C 0 km/h
335 20-02-2006 00:00:00 4.17917 C 5.28 g/m*3 4.18 C 0 km/h
336 21-02-2006 00:00:00 3.04444 C 5.09 g/m*3 3.04 C 0 km/h
337 22-02-2006 00:00:00 2.47639 C 3.64 g/m*3 2.48 C 0 km/h
338 23-02-2006 00:00:00 1.36736 C 2.72 g/m*3 1.37 C 0 km/h
339 24-02-2006 00:00:00 2.05972 C 2.88 g/m*3 2.06 C 0 km/h
340 25-02-2006 00:00:00 0.46364 C 2.5 g/m*3 0.46 C 0 km/h
341 26-02-2006 00:00:00 -1.08472 C 2.46 g/m*3 -1.08 C 0 km/h
342 27-02-2006 00:00:00 -1.57569 C 3.19 g/m*3 -1.58 C 0 km/h
343 28-02-2006 00:00:00 1.56806 C 4.03 g/m*3 1.57 C 0 km/h
344 01-03-2006 00:00:00 0.10556 C 3.05 g/m*3 0.11 C 0 km/h
345 02-03-2006 00:00:00 -0.25347 C 2.76 g/m*3 -0.25 C 0 km/h
346 03-03-2006 00:00:00 -0.44722 C 3.59 g/m*3 -0.45 C 0 km/h
347 04-03-2006 00:00:00 -0.87361 C 3.51 g/m*3 -0.87 C 0 km/h
348 05-03-2006 00:00:00 -1.41944 C 3.13 g/m*3 -1.42 C 0 km/h
349 06-03-2006 00:00:00 1.2125 C 3.34 g/m*3 1.21 C 0 km/h
350 07-03-2006 00:00:00 2.11748 C 3.25 g/m*3 2.12 C 0 km/h
Sensor: Nr:Datum:Temp:Abs-Feuchte:Windchill:Wind:
Aussen-T/F 351 08-03-2006 00:00:00 0.99722 C 3.99 g/m*3 1 C 0 km/h
352 09-03-2006 00:00:00 8.02431 C 6.63 g/m*3 8.02 C 0 km/h
353 10-03-2006 00:00:00 5.79931 C 4.67 g/m*3 5.8 C 0 km/h
354 11-03-2006 00:00:00 1.7 C 4.29 g/m*3 1.7 C 0 km/h
355 12-03-2006 00:00:00 -2.45556 C 1.99 g/m*3 -2.46 C 0 km/h
356 13-03-2006 00:00:00 -1.82553 C 2.07 g/m*3 -1.83 C 0 km/h
357 14-03-2006 00:00:00 -0.25972 C 2.33 g/m*3 -0.26 C 0 km/h
358 15-03-2006 00:00:00 1.33333 C 2.81 g/m*3 1.33 C 0 km/h
359 16-03-2006 00:00:00 2.07292 C 2.65 g/m*3 2.07 C 0 km/h
360 17-03-2006 00:00:00 2.75175 C 3.25 g/m*3 2.75 C 0 km/h
361 18-03-2006 00:00:00 3.75069 C 3.43 g/m*3 3.75 C 0 km/h
362 19-03-2006 00:00:00 4.88056 C 3.93 g/m*3 4.88 C 0 km/h
363 20-03-2006 00:00:00 4.13542 C 4.32 g/m*3 4.14 C 0 km/h
364 21-03-2006 00:00:00 3.42222 C 5.01 g/m*3 3.42 C 0 km/h
365 22-03-2006 00:00:00 4.52708 C 3.53 g/m*3 4.53 C 0 km/h
366 23-03-2006 00:00:00 4.85694 C 2.84 g/m*3 4.86 C 0 km/h
367 24-03-2006 00:00:00 5.28125 C 5.03 g/m*3 5.28 C 0 km/h
368 25-03-2006 00:00:00 12.04861 C 7.85 g/m*3 12.05 C 0 km/h
369 26-03-2006 00:00:00 15.02826 C 9.07 g/m*3 15.03 C 0 km/h
370 27-03-2006 00:00:00 14.96319 C 8.44 g/m*3 14.96 C 0 km/h
371 28-03-2006 00:00:00 11.67273 C 6.09 g/m*3 11.67 C 0 km/h
372 29-03-2006 00:00:00 9.22222 C 5.78 g/m*3 9.22 C 0 km/h
373 30-03-2006 00:00:00 11.31181 C 7.59 g/m*3 11.31 C 0 km/h
374 31-03-2006 00:00:00 12.225 C 7.78 g/m*3 12.23 C 0 km/h
375 01-04-2006 00:00:00 10.95 C 7.33 g/m*3 10.95 C 0 km/h
Sensor: Nr:Datum:Temp:Abs-Feuchte:Windchill:Wind:
Aussen-T/F 376 02-04-2006 00:00:00 10.30347 C 6.71 g/m*3 10.3 C 0 km/h
377 03-04-2006 00:00:00 9.04444 C 5.27 g/m*3 9.04 C 0 km/h
378 04-04-2006 00:00:00 7.89306 C 4.31 g/m*3 7.89 C 0 km/h
379 05-04-2006 00:00:00 5.38542 C 3.69 g/m*3 5.39 C 0 km/h
380 06-04-2006 00:00:00 5.62847 C 3.78 g/m*3 5.63 C 0 km/h
381 07-04-2006 00:00:00 7.78112 C 3.69 g/m*3 7.78 C 0 km/h
382 08-04-2006 00:00:00 8.88681 C 3.81 g/m*3 8.89 C 0 km/h
383 09-04-2006 00:00:00 9.54931 C 4.04 g/m*3 9.55 C 0 km/h
384 10-04-2006 00:00:00 7.99444 C 3.73 g/m*3 7.99 C 0 km/h
385 11-04-2006 00:00:00 6.56528 C 3.66 g/m*3 6.57 C 0 km/h
386 12-04-2006 00:00:00 7.39167 C 5.46 g/m*3 7.39 C 0 km/h
387 13-04-2006 00:00:00 7.97014 C 5.79 g/m*3 7.97 C 0 km/h
388 14-04-2006 00:00:00 11.28681 C 7.12 g/m*3 11.29 C 0 km/h
389 15-04-2006 00:00:00 12.20486 C 7.42 g/m*3 12.2 C 0 km/h
390 16-04-2006 00:00:00 12.37986 C 7.33 g/m*3 12.38 C 0 km/h
391 17-04-2006 00:00:00 11.4 C 7.54 g/m*3 11.4 C 0 km/h
392 18-04-2006 00:00:00 10.37986 C 6.23 g/m*3 10.38 C 0 km/h
393 19-04-2006 00:00:00 11.18264 C 5.43 g/m*3 11.18 C 0 km/h
394 20-04-2006 00:00:00 12.16528 C 5.8 g/m*3 12.17 C 0 km/h
395 21-04-2006 00:00:00 14.47622 C 6.36 g/m*3 14.48 C 0 km/h
396 22-04-2006 00:00:00 13.62014 C 7.04 g/m*3 13.62 C 0 km/h
397 23-04-2006 00:00:00 10.87639 C 6.01 g/m*3 10.88 C 0 km/h
398 24-04-2006 00:00:00 15.40833 C 6.53 g/m*3 15.41 C 0 km/h
399 25-04-2006 00:00:00 17.60972 C 7.26 g/m*3 17.61 C 0 km/h
400 26-04-2006 00:00:00 15.22778 C 10.04 g/m*3 15.23 C 0 km/h
Sensor: Nr:Datum:Temp:Abs-Feuchte:Windchill:Wind:
Aussen-T/F 401 27-04-2006 00:00:00 12.53611 C 8.58 g/m*3 12.54 C 0 km/h
402 28-04-2006 00:00:00 10.85 C 5.75 g/m*3 10.85 C 0 km/h
403 29-04-2006 00:00:00 7.53194 C 4.57 g/m*3 7.53 C 0 km/h
404 30-04-2006 00:00:00 6.51389 C 5.5 g/m*3 6.51 C 0 km/h
405 01-05-2006 00:00:00 8.32727 C 6.64 g/m*3 8.33 C 0 km/h
406 02-05-2006 00:00:00 15.08819 C 7.52 g/m*3 15.09 C 0 km/h
407 03-05-2006 00:00:00 18.44931 C 8.16 g/m*3 18.45 C 0 km/h
408 04-05-2006 00:00:00 19.40278 C 8.14 g/m*3 19.4 C 0 km/h
409 05-05-2006 00:00:00 20.21389 C 7.05 g/m*3 20.21 C 0 km/h
410 06-05-2006 00:00:00 18.90069 C 6.51 g/m*3 18.9 C 0 km/h
411 07-05-2006 00:00:00 19.45486 C 5.48 g/m*3 19.45 C 0 km/h
412 08-05-2006 00:00:00 18.61667 C 6.18 g/m*3 18.62 C 0 km/h
413 09-05-2006 00:00:00 18.27431 C 6.73 g/m*3 18.27 C 0 km/h
414 10-05-2006 00:00:00 18.83194 C 8.46 g/m*3 18.83 C 0 km/h
415 11-05-2006 00:00:00 19.10629 C 6.83 g/m*3 19.11 C 0 km/h
416 12-05-2006 00:00:00 18.74583 C 6.68 g/m*3 18.75 C 0 km/h
417 13-05-2006 00:00:00 16.36944 C 9.54 g/m*3 16.37 C 0 km/h
418 14-05-2006 00:00:00 15.00278 C 8.64 g/m*3 15 C 0 km/h
419 15-05-2006 00:00:00 16.62986 C 8.78 g/m*3 16.63 C 0 km/h
420 16-05-2006 00:00:00 19.50347 C 9.69 g/m*3 19.5 C 0 km/h
421 17-05-2006 00:00:00 17.91736 C 9.73 g/m*3 17.92 C 0 km/h
422 18-05-2006 00:00:00 18.00347 C 10.26 g/m*3 18 C 0 km/h
423 19-05-2006 00:00:00 14.40347 C 8.4 g/m*3 14.4 C 0 km/h
424 20-05-2006 00:00:00 12.56853 C 7.83 g/m*3 12.57 C 0 km/h
425 21-05-2006 00:00:00 15.07431 C 7.61 g/m*3 15.07 C 0 km/h
Sensor: Nr:Datum:Temp:Abs-Feuchte:Windchill:Wind:
Aussen-T/F 426 22-05-2006 00:00:00 15.73472 C 8.94 g/m*3 15.73 C 0 km/h
427 23-05-2006 00:00:00 12.35556 C 6.68 g/m*3 12.36 C 0 km/h
428 24-05-2006 00:00:00 10.91667 C 6.68 g/m*3 10.92 C 0 km/h
429 25-05-2006 00:00:00 11.81736 C 8.3 g/m*3 11.82 C 0 km/h
430 26-05-2006 00:00:00 13.58681 C 10.19 g/m*3 13.59 C 0 km/h
431 27-05-2006 00:00:00 16.75972 C 10.96 g/m*3 16.76 C 0 km/h
432 28-05-2006 00:00:00 16.35 C 8.5 g/m*3 16.35 C 0 km/h
433 29-05-2006 00:00:00 12.47431 C 7.16 g/m*3 12.47 C 0 km/h
434 30-05-2006 00:00:00 9.24792 C 6.53 g/m*3 9.25 C 0 km/h
435 31-05-2006 00:00:00 9.13776 C 6.51 g/m*3 9.14 C 0 km/h
436 01-06-2006 00:00:00 9.43819 C 6.58 g/m*3 9.44 C 0 km/h
437 02-06-2006 00:00:00 13.68056 C 6.85 g/m*3 13.68 C 0 km/h
438 03-06-2006 00:00:00 13.95278 C 7.53 g/m*3 13.95 C 0 km/h
439 04-06-2006 00:00:00 14.34514 C 6.93 g/m*3 14.35 C 0 km/h
440 05-06-2006 00:00:00 14.45764 C 6.07 g/m*3 14.46 C 0 km/h
441 06-06-2006 00:00:00 14.33472 C 6.42 g/m*3 14.33 C 0 km/h
442 07-06-2006 00:00:00 16.37431 C 7.03 g/m*3 16.37 C 0 km/h
443 08-06-2006 00:00:00 19.21736 C 7.78 g/m*3 19.22 C 0 km/h
444 09-06-2006 00:00:00 21.24306 C 8.18 g/m*3 21.24 C 0 km/h
445 10-06-2006 00:00:00 22.62098 C 8.87 g/m*3 22.62 C 0 km/h
446 11-06-2006 00:00:00 23.39653 C 8.75 g/m*3 23.4 C 0 km/h
447 12-06-2006 00:00:00 23.62431 C 8.32 g/m*3 23.62 C 0 km/h
448 13-06-2006 00:00:00 25.05625 C 9.6 g/m*3 25.06 C 0 km/h
449 14-06-2006 00:00:00 25.71667 C 10.84 g/m*3 25.72 C 0 km/h
450 15-06-2006 00:00:00 22.39653 C 13.02 g/m*3 22.4 C 0 km/h
Sensor: Nr:Datum:Temp:Abs-Feuchte:Windchill:Wind:
Aussen-T/F 451 16-06-2006 00:00:00 19.19792 C 9.2 g/m*3 19.2 C 0 km/h
452 17-06-2006 00:00:00 19.55139 C 8.62 g/m*3 19.55 C 0 km/h
453 18-06-2006 00:00:00 22.94931 C 11.05 g/m*3 22.95 C 0 km/h
454 19-06-2006 00:00:00 22.18819 C 13.64 g/m*3 22.19 C 0 km/h
455 20-06-2006 00:00:00 22.95524 C 12.6 g/m*3 22.96 C 0 km/h
456 21-06-2006 00:00:00 22.61597 C 10.2 g/m*3 22.62 C 0 km/h
457 22-06-2006 00:00:00 18.87222 C 7.76 g/m*3 18.87 C 0 km/h
458 23-06-2006 00:00:00 18.88681 C 7.57 g/m*3 18.89 C 0 km/h
459 24-06-2006 00:00:00 22.39792 C 8.91 g/m*3 22.4 C 0 km/h
460 25-06-2006 00:00:00 23.4375 C 12.58 g/m*3 23.44 C 0 km/h
461 26-06-2006 00:00:00 21.99097 C 12.21 g/m*3 21.99 C 0 km/h
462 27-06-2006 00:00:00 19.64028 C 11.66 g/m*3 19.64 C 0 km/h
463 28-06-2006 00:00:00 21.16111 C 10.45 g/m*3 21.16 C 0 km/h
464 29-06-2006 00:00:00 21.06319 C 11.36 g/m*3 21.06 C 0 km/h
465 30-06-2006 00:00:00 23.44545 C 11.46 g/m*3 23.45 C 0 km/h
466 01-07-2006 00:00:00 24.6875 C 10.22 g/m*3 24.69 C 0 km/h
467 02-07-2006 00:00:00 25.27986 C 9.46 g/m*3 25.28 C 0 km/h
468 03-07-2006 00:00:00 25.22083 C 8.68 g/m*3 25.22 C 0 km/h
469 04-07-2006 00:00:00 26.70278 C 10.21 g/m*3 26.7 C 0 km/h
470 05-07-2006 00:00:00 26.28681 C 12.37 g/m*3 26.29 C 0 km/h
471 06-07-2006 00:00:00 24.85278 C 12.2 g/m*3 24.85 C 0 km/h
472 07-07-2006 00:00:00 22.81528 C 12.32 g/m*3 22.82 C 0 km/h
473 08-07-2006 00:00:00 22.68958 C 13.01 g/m*3 22.69 C 0 km/h
474 09-07-2006 00:00:00 23.57778 C 11.52 g/m*3 23.58 C 0 km/h
475 10-07-2006 00:00:00 25.03147 C 10.68 g/m*3 25.03 C 0 km/h
Sensor: Nr:Datum:Temp:Abs-Feuchte:Windchill:Wind:
Aussen-T/F 476 11-07-2006 00:00:00 23.91181 C 13.08 g/m*3 23.91 C 0 km/h
477 12-07-2006 00:00:00 25.55625 C 13.47 g/m*3 25.56 C 0 km/h
478 13-07-2006 00:00:00 26.02986 C 13.12 g/m*3 26.03 C 0 km/h
479 14-07-2006 00:00:00 24.71389 C 8.97 g/m*3 24.71 C 0 km/h
480 15-07-2006 00:00:00 23.42431 C 7.65 g/m*3 23.42 C 0 km/h
481 16-07-2006 00:00:00 24.37639 C 8.1 g/m*3 24.38 C 0 km/h
482 17-07-2006 00:00:00 25.54792 C 7.82 g/m*3 25.55 C 0 km/h
483 18-07-2006 00:00:00 26.24722 C 8.99 g/m*3 26.25 C 0 km/h
484 19-07-2006 00:00:00 27.43125 C 9.1 g/m*3 27.43 C 0 km/h
485 20-07-2006 00:00:00 28.02797 C 9.35 g/m*3 28.03 C 0 km/h
486 21-07-2006 00:00:00 28.09306 C 11.49 g/m*3 28.09 C 0 km/h
487 22-07-2006 00:00:00 24.58125 C 12.7 g/m*3 24.58 C 0 km/h
488 23-07-2006 00:00:00 26.09375 C 13.17 g/m*3 26.09 C 0 km/h
489 24-07-2006 00:00:00 27.19236 C 11.15 g/m*3 27.19 C 0 km/h
490 25-07-2006 00:00:00 28.08194 C 10.78 g/m*3 28.08 C 0 km/h
491 26-07-2006 00:00:00 28.25208 C 11.87 g/m*3 28.25 C 0 km/h
492 27-07-2006 00:00:00 25.83403 C 14.1 g/m*3 25.83 C 0 km/h
493 28-07-2006 00:00:00 22.68264 C 14.34 g/m*3 22.68 C 0 km/h
494 29-07-2006 00:00:00 24.07431 C 13.52 g/m*3 24.07 C 0 km/h
495 30-07-2006 00:00:00 24.48392 C 12.14 g/m*3 24.48 C 0 km/h
496 31-07-2006 00:00:00 23.2375 C 10.23 g/m*3 23.24 C 0 km/h
497 01-08-2006 00:00:00 20.05625 C 10.27 g/m*3 20.06 C 0 km/h
498 02-08-2006 00:00:00 16.51667 C 9.93 g/m*3 16.52 C 0 km/h
499 03-08-2006 00:00:00 15.56111 C 9.83 g/m*3 15.56 C 0 km/h
500 04-08-2006 00:00:00 19.03056 C 10.44 g/m*3 19.03 C 0 km/h
Sensor: Nr:Datum:Temp:Abs-Feuchte:Windchill:Wind:
Aussen-T/F 501 05-08-2006 00:00:00 20.59514 C 10.71 g/m*3 20.6 C 0 km/h
502 06-08-2006 00:00:00 21.40694 C 10.86 g/m*3 21.41 C 0 km/h
503 07-08-2006 00:00:00 21.93056 C 10.07 g/m*3 21.93 C 0 km/h
504 08-08-2006 00:00:00 19.79583 C 9.89 g/m*3 19.8 C 0 km/h
505 09-08-2006 00:00:00 19.08322 C 9.32 g/m*3 19.08 C 0 km/h
506 10-08-2006 00:00:00 15.04792 C 9.68 g/m*3 15.05 C 0 km/h
507 11-08-2006 00:00:00 14.23611 C 9.74 g/m*3 14.24 C 0 km/h
508 12-08-2006 00:00:00 15.08958 C 8.69 g/m*3 15.09 C 0 km/h
509 13-08-2006 00:00:00 14.64514 C 9.18 g/m*3 14.65 C 0 km/h
510 14-08-2006 00:00:00 14.16319 C 9.66 g/m*3 14.16 C 0 km/h
511 15-08-2006 00:00:00 17.63333 C 10.27 g/m*3 17.63 C 0 km/h
512 16-08-2006 00:00:00 17.65 C 10.87 g/m*3 17.65 C 0 km/h
513 17-08-2006 00:00:00 20.9 C 11.79 g/m*3 20.9 C 0 km/h
514 18-08-2006 00:00:00 19.10208 C 11.74 g/m*3 19.1 C 0 km/h
515 19-08-2006 00:00:00 18.77343 C 11.44 g/m*3 18.77 C 0 km/h
516 20-08-2006 00:00:00 18.10972 C 10.83 g/m*3 18.11 C 0 km/h
517 21-08-2006 00:00:00 16.97292 C 10.27 g/m*3 16.97 C 0 km/h
518 22-08-2006 00:00:00 16.96389 C 10.28 g/m*3 16.96 C 0 km/h
519 23-08-2006 00:00:00 17.71319 C 10.25 g/m*3 17.71 C 0 km/h
520 24-08-2006 00:00:00 16.95139 C 10.55 g/m*3 16.95 C 0 km/h
521 25-08-2006 00:00:00 16.57778 C 11 g/m*3 16.58 C 0 km/h
522 26-08-2006 00:00:00 16.86528 C 10.55 g/m*3 16.87 C 0 km/h
523 27-08-2006 00:00:00 15.83681 C 10.94 g/m*3 15.84 C 0 km/h
524 28-08-2006 00:00:00 13.83264 C 9.97 g/m*3 13.83 C 0 km/h
525 29-08-2006 00:00:00 12.56713 C 8.65 g/m*3 12.57 C 0 km/h
Sensor: Nr:Datum:Temp:Abs-Feuchte:Windchill:Wind:
Aussen-T/F 526 30-08-2006 00:00:00 13.16111 C 9.07 g/m*3 13.16 C 0 km/h
527 31-08-2006 00:00:00 15.10417 C 8.8 g/m*3 15.1 C 0 km/h
528 01-09-2006 00:00:00 20.10139 C 9.87 g/m*3 20.1 C 0 km/h
529 02-09-2006 00:00:00 20.75 C 11 g/m*3 20.75 C 0 km/h
530 03-09-2006 00:00:00 21.75069 C 12.12 g/m*3 21.75 C 0 km/h
531 04-09-2006 00:00:00 22.06389 C 10.38 g/m*3 22.06 C 0 km/h
532 05-09-2006 00:00:00 19.96458 C 11.3 g/m*3 19.96 C 0 km/h
533 06-09-2006 00:00:00 21.68819 C 12.31 g/m*3 21.69 C 0 km/h
534 07-09-2006 00:00:00 19.05694 C 11.44 g/m*3 19.06 C 0 km/h
535 08-09-2006 00:00:00 16.55874 C 8.04 g/m*3 16.56 C 0 km/h
536 09-09-2006 00:00:00 16.56458 C 8.18 g/m*3 16.56 C 0 km/h
537 10-09-2006 00:00:00 18.675 C 9.16 g/m*3 18.68 C 0 km/h
538 11-09-2006 00:00:00 20.64722 C 11.18 g/m*3 20.65 C 0 km/h
539 12-09-2006 00:00:00 22.28889 C 12.16 g/m*3 22.29 C 0 km/h
540 13-09-2006 00:00:00 22.18819 C 11.95 g/m*3 22.19 C 0 km/h
541 14-09-2006 00:00:00 21.21806 C 11.23 g/m*3 21.22 C 0 km/h
542 15-09-2006 00:00:00 21.27273 C 10.28 g/m*3 21.27 C 0 km/h
543 16-09-2006 00:00:00 21.06759 C 11.67 g/m*3 21.07 C 0 km/h
544 17-09-2006 00:00:00 18.62986 C 12.65 g/m*3 18.63 C 0 km/h
545 18-09-2006 00:00:00 17.15903 C 12.29 g/m*3 17.16 C 0 km/h
546 19-09-2006 00:00:00 16.75278 C 10.65 g/m*3 16.75 C 0 km/h
547 20-09-2006 00:00:00 16.65139 C 9.61 g/m*3 16.65 C 0 km/h
548 21-09-2006 00:00:00 18.26806 C 10.43 g/m*3 18.27 C 0 km/h
549 22-09-2006 00:00:00 20.87413 C 10.57 g/m*3 20.87 C 0 km/h
550 23-09-2006 00:00:00 20.17361 C 11.42 g/m*3 20.17 C 0 km/h
Sensor: Nr:Datum:Temp:Abs-Feuchte:Windchill:Wind:
Aussen-T/F 551 24-09-2006 00:00:00 21.00903 C 11.38 g/m*3 21.01 C 0 km/h
552 25-09-2006 00:00:00 18.50486 C 11.18 g/m*3 18.5 C 0 km/h
553 26-09-2006 00:00:00 17.03056 C 11.32 g/m*3 17.03 C 0 km/h
554 27-09-2006 00:00:00 17.04444 C 10.2 g/m*3 17.04 C 0 km/h
555 28-09-2006 00:00:00 16.01042 C 9.81 g/m*3 16.01 C 0 km/h
556 29-09-2006 00:00:00 17.325 C 10.7 g/m*3 17.33 C 0 km/h
557 30-09-2006 00:00:00 17.09583 C 10.68 g/m*3 17.1 C 0 km/h
558 01-10-2006 00:00:00 17.24406 C 11.46 g/m*3 17.24 C 0 km/h
559 02-10-2006 00:00:00 15.91042 C 9.59 g/m*3 15.91 C 0 km/h
560 03-10-2006 00:00:00 13.2126 C 10.47 g/m*3 13.21 C 0 km/h
561 04-10-2006 00:00:00 13.01961 C 8.62 g/m*3 13.02 C 0 km/h
562 05-10-2006 00:00:00 12.97647 C 7.92 g/m*3 12.98 C 0 km/h
563 06-10-2006 00:00:00 15.82353 C 9.57 g/m*3 15.82 C 0 km/h
564 07-10-2006 00:00:00 14.25769 C 8.26 g/m*3 14.26 C 0 km/h
565 08-10-2006 00:00:00 11.08235 C 7.49 g/m*3 11.08 C 0 km/h
566 09-10-2006 00:00:00 12.00192 C 8.16 g/m*3 12 C 0 km/h
567 10-10-2006 00:00:00 15.38824 C 9.83 g/m*3 15.39 C 0 km/h
568 11-10-2006 00:00:00 14.37885 C 9.66 g/m*3 14.38 C 0 km/h
569 12-10-2006 00:00:00 15.54118 C 10.53 g/m*3 15.54 C 0 km/h
570 13-10-2006 00:00:00 16.11765 C 11.21 g/m*3 16.12 C 0 km/h
571 14-10-2006 00:00:00 14.12115 C 9.1 g/m*3 14.12 C 0 km/h
572 15-10-2006 00:00:00 12.41569 C 8.17 g/m*3 12.42 C 0 km/h
573 16-10-2006 00:00:00 9.56154 C 7.1 g/m*3 9.56 C 0 km/h
574 17-10-2006 00:00:00 9.22745 C 7.11 g/m*3 9.23 C 0 km/h
575 18-10-2006 00:00:00 11.90769 C 8.05 g/m*3 11.91 C 0 km/h
Sensor: Nr:Datum:Temp:Abs-Feuchte:Windchill:Wind:
Aussen-T/F 576 19-10-2006 00:00:00 13.41961 C 9.54 g/m*3 13.42 C 0 km/h
577 20-10-2006 00:00:00 15.83725 C 9.91 g/m*3 15.84 C 0 km/h
578 21-10-2006 00:00:00 14.08553 C 10.16 g/m*3 14.09 C 0 km/h
579 22-10-2006 00:00:00 15.405 C 9.54 g/m*3 15.41 C 0 km/h
580 23-10-2006 00:00:00 17.22 C 11.01 g/m*3 17.22 C 0 km/h
581 24-10-2006 00:00:00 14.19167 C 9.57 g/m*3 14.19 C 0 km/h
582 25-10-2006 00:00:00 12.59167 C 8.45 g/m*3 12.59 C 0 km/h
583 26-10-2006 00:00:00 16.50583 C 9.43 g/m*3 16.51 C 0 km/h
584 27-10-2006 00:00:00 17.075 C 10.44 g/m*3 17.08 C 0 km/h
585 28-10-2006 00:00:00 15.02083 C 10.11 g/m*3 15.02 C 0 km/h
586 29-10-2006 00:00:00 15.9896 C 8.79 g/m*3 15.99 C 0 km/h
587 30-10-2006 00:00:00 12.1575 C 7.78 g/m*3 12.16 C 0 km/h
588 31-10-2006 00:00:00 10.23529 C 7.15 g/m*3 10.24 C 0 km/h
589 01-11-2006 00:00:00 7.77167 C 4.9 g/m*3 7.77 C 0 km/h
590 02-11-2006 00:00:00 3.03 C 5.06 g/m*3 3.03 C 0 km/h
591 03-11-2006 00:00:00 5.84333 C 5.93 g/m*3 5.84 C 0 km/h
592 04-11-2006 00:00:00 8.15833 C 6.41 g/m*3 8.16 C 0 km/h
593 05-11-2006 00:00:00 9.14833 C 6.17 g/m*3 9.15 C 0 km/h
594 06-11-2006 00:00:00 9.06833 C 6.39 g/m*3 9.07 C 0 km/h
595 07-11-2006 00:00:00 7.04083 C 6.11 g/m*3 7.04 C 0 km/h
596 08-11-2006 00:00:00 7.96417 C 6.49 g/m*3 7.96 C 0 km/h
597 09-11-2006 00:00:00 9.81917 C 6.62 g/m*3 9.82 C 0 km/h
598 10-11-2006 00:00:00 5.04917 C 5.59 g/m*3 5.05 C 0 km/h
599 11-11-2006 00:00:00 6.26667 C 6.03 g/m*3 6.27 C 0 km/h
600 12-11-2006 00:00:00 7.62353 C 5.75 g/m*3 7.62 C 0 km/h
Sensor: Nr:Datum:Temp:Abs-Feuchte:Windchill:Wind:
Aussen-T/F 601 13-11-2006 00:00:00 8.9025 C 7.09 g/m*3 8.9 C 0 km/h
602 14-11-2006 00:00:00 12.84083 C 9.06 g/m*3 12.84 C 0 km/h
603 15-11-2006 00:00:00 12.90167 C 8.11 g/m*3 12.9 C 0 km/h
604 16-11-2006 00:00:00 13.12 C 7.88 g/m*3 13.12 C 0 km/h
605 17-11-2006 00:00:00 12.54333 C 8.13 g/m*3 12.54 C 0 km/h
606 18-11-2006 00:00:00 9.73917 C 6.92 g/m*3 9.74 C 0 km/h
607 19-11-2006 00:00:00 7.74083 C 7.39 g/m*3 7.74 C 0 km/h
608 20-11-2006 00:00:00 6.5725 C 5.52 g/m*3 6.57 C 0 km/h
609 21-11-2006 00:00:00 8.63583 C 6.49 g/m*3 8.64 C 0 km/h
610 22-11-2006 00:00:00 6.01833 C 5.31 g/m*3 6.02 C 0 km/h
611 23-11-2006 00:00:00 9.36083 C 7.72 g/m*3 9.36 C 0 km/h
612 24-11-2006 00:00:00 10.1775 C 8.17 g/m*3 10.18 C 0 km/h
613 25-11-2006 00:00:00 14.79583 C 7.59 g/m*3 14.8 C 0 km/h
614 26-11-2006 00:00:00 10.72917 C 7.46 g/m*3 10.73 C 0 km/h
615 27-11-2006 00:00:00 8.08083 C 7.39 g/m*3 8.08 C 0 km/h
616 28-11-2006 00:00:00 7.2775 C 6.92 g/m*3 7.28 C 0 km/h
617 29-11-2006 00:00:00 7.40583 C 7.46 g/m*3 7.41 C 0 km/h
618 30-11-2006 00:00:00 6.29167 C 6.41 g/m*3 6.29 C 0 km/h
619 01-12-2006 00:00:00 5.935 C 6.4 g/m*3 5.94 C 0 km/h
620 02-12-2006 00:00:00 4.37083 C 6.16 g/m*3 4.37 C 0 km/h
621 03-12-2006 00:00:00 10.00583 C 6.96 g/m*3 10.01 C 0 km/h
622 04-12-2006 00:00:00 10.05042 C 6.32 g/m*3 10.05 C 0 km/h
623 05-12-2006 00:00:00 14.25917 C 7.5 g/m*3 14.26 C 0 km/h
624 06-12-2006 00:00:00 10.42667 C 6.11 g/m*3 10.43 C 0 km/h
625 07-12-2006 00:00:00 8.7025 C 5.3 g/m*3 8.7 C 0 km/h
Sensor: Nr:Datum:Temp:Abs-Feuchte:Windchill:Wind:
Aussen-T/F 626 08-12-2006 00:00:00 10.0975 C 6.14 g/m*3 10.1 C 0 km/h
627 09-12-2006 00:00:00 7.6075 C 4.91 g/m*3 7.61 C 0 km/h
628 10-12-2006 00:00:00 5.27833 C 4.83 g/m*3 5.28 C 0 km/h
629 11-12-2006 00:00:00 5.05583 C 4.74 g/m*3 5.06 C 0 km/h
630 12-12-2006 00:00:00 6.37333 C 5.29 g/m*3 6.37 C 0 km/h
631 13-12-2006 00:00:00 6.9775 C 5.44 g/m*3 6.98 C 0 km/h
632 14-12-2006 00:00:00 7.83083 C 5.4 g/m*3 7.83 C 0 km/h
633 15-12-2006 00:00:00 3.2075 C 4.68 g/m*3 3.21 C 0 km/h
634 16-12-2006 00:00:00 4.14333 C 5.23 g/m*3 4.14 C 0 km/h
635 17-12-2006 00:00:00 3.69333 C 5.01 g/m*3 3.69 C 0 km/h
636 18-12-2006 00:00:00 3.37917 C 5.38 g/m*3 3.38 C 0 km/h
637 19-12-2006 00:00:00 3.70083 C 4.15 g/m*3 3.7 C 0 km/h
638 20-12-2006 00:00:00 2.3425 C 4.1 g/m*3 2.34 C 0 km/h
639 21-12-2006 00:00:00 4.7375 C 5.27 g/m*3 4.74 C 0 km/h
640 22-12-2006 00:00:00 1.65 C 4.63 g/m*3 1.65 C 0 km/h
641 23-12-2006 00:00:00 3.19244 C 4.47 g/m*3 3.19 C 0 km/h
642 24-12-2006 00:00:00 0.1725 C 4.3 g/m*3 0.17 C 0 km/h
643 25-12-2006 00:00:00 0.51583 C 4.15 g/m*3 0.52 C 0 km/h
644 26-12-2006 00:00:00 0.8425 C 3.93 g/m*3 0.84 C 0 km/h
645 27-12-2006 00:00:00 -1.28667 C 3.48 g/m*3 -1.29 C 0 km/h
646 28-12-2006 00:00:00 0.405 C 3.88 g/m*3 0.41 C 0 km/h
647 29-12-2006 00:00:00 1.22333 C 4.59 g/m*3 1.22 C 0 km/h
648 30-12-2006 00:00:00 3.5575 C 5.12 g/m*3 3.56 C 0 km/h
649 31-12-2006 00:00:00 10.37107 C 5.17 g/m*3 10.37 C 0 km/h
650 01-01-2007 00:00:00 7.99664 C 5.44 g/m*3 8 C 0 km/h
Sensor: Nr:Datum:Temp:Abs-Feuchte:Windchill:Wind:
Aussen-T/F 651 02-01-2007 00:00:00 4.33083 C 4.79 g/m*3 4.33 C 0 km/h
652 03-01-2007 00:00:00 5.63417 C 5.28 g/m*3 5.63 C 0 km/h
653 04-01-2007 00:00:00 7.7525 C 5.33 g/m*3 7.75 C 0 km/h
654 05-01-2007 00:00:00 8.08667 C 5.69 g/m*3 8.09 C 0 km/h
655 06-01-2007 00:00:00 10.50333 C 7.18 g/m*3 10.5 C 0 km/h
656 07-01-2007 00:00:00 8.5725 C 5.21 g/m*3 8.57 C 0 km/h
657 08-01-2007 00:00:00 9.32667 C 5.75 g/m*3 9.33 C 0 km/h
658 09-01-2007 00:00:00 13.04333 C 7.07 g/m*3 13.04 C 0 km/h
659 10-01-2007 00:00:00 11.54333 C 5.64 g/m*3 11.54 C 0 km/h
660 11-01-2007 00:00:00 7.61933 C 4.64 g/m*3 7.62 C 0 km/h
661 12-01-2007 00:00:00 9.0325 C 4.92 g/m*3 9.03 C 0 km/h
662 13-01-2007 00:00:00 11.8175 C 6.14 g/m*3 11.82 C 0 km/h
663 14-01-2007 00:00:00 7.55833 C 4.65 g/m*3 7.56 C 0 km/h
664 15-01-2007 00:00:00 0.8725 C 4.34 g/m*3 0.87 C 0 km/h
665 16-01-2007 00:00:00 5.06583 C 4.9 g/m*3 5.07 C 0 km/h
666 17-01-2007 00:00:00 10.18333 C 6.05 g/m*3 10.18 C 0 km/h
667 18-01-2007 00:00:00 12.41833 C 7.26 g/m*3 12.42 C 0 km/h
668 19-01-2007 00:00:00 10.36667 C 6.21 g/m*3 10.37 C 0 km/h
669 20-01-2007 00:00:00 11.68917 C 6.43 g/m*3 11.69 C 0 km/h
670 21-01-2007 00:00:00 6.88167 C 3.9 g/m*3 6.88 C 0 km/h
671 22-01-2007 00:00:00 4.26167 C 3.78 g/m*3 4.26 C 0 km/h
672 23-01-2007 00:00:00 -1.075 C 1.21 g/m*3 -1.08 C 0 km/h
673 24-01-2007 00:00:00 -2.97 C 1.85 g/m*3 -2.97 C 0 km/h
674 25-01-2007 00:00:00 -3.4825 C 2.25 g/m*3 -3.48 C 0 km/h
675 26-01-2007 00:00:00 -3.23083 C 2.24 g/m*3 -3.23 C 0 km/h
Sensor: Nr:Datum:Temp:Abs-Feuchte:Windchill:Wind:
Aussen-T/F 676 27-01-2007 00:00:00 2.77 C 3.92 g/m*3 2.77 C 0 km/h
677 28-01-2007 00:00:00 4.49917 C 4.21 g/m*3 4.5 C 0 km/h
678 29-01-2007 00:00:00 7.0175 C 5.25 g/m*3 7.02 C 0 km/h
679 30-01-2007 00:00:00 6.84917 C 5.2 g/m*3 6.85 C 0 km/h
680 31-01-2007 00:00:00 6.82583 C 4.18 g/m*3 6.83 C 0 km/h
681 01-02-2007 00:00:00 7.76667 C 5.68 g/m*3 7.77 C 0 km/h
682 02-02-2007 00:00:00 8.26583 C 6.84 g/m*3 8.27 C 0 km/h
683 03-02-2007 00:00:00 6.285 C 4.67 g/m*3 6.29 C 0 km/h
684 04-02-2007 00:00:00 5.90667 C 4.74 g/m*3 5.91 C 0 km/h
685 05-02-2007 00:00:00 2.19664 C 4.27 g/m*3 2.2 C 0 km/h
686 06-02-2007 00:00:00 3.33417 C 4.06 g/m*3 3.33 C 0 km/h
687 07-02-2007 00:00:00 1.63417 C 4.12 g/m*3 1.63 C 0 km/h
688 08-02-2007 00:00:00 2.62167 C 4.23 g/m*3 2.62 C 0 km/h
689 09-02-2007 00:00:00 5.79167 C 3.84 g/m*3 5.79 C 0 km/h
690 10-02-2007 00:00:00 5.48667 C 5.34 g/m*3 5.49 C 0 km/h
691 11-02-2007 00:00:00 7.70667 C 5.71 g/m*3 7.71 C 0 km/h
692 12-02-2007 00:00:00 8.33083 C 5.62 g/m*3 8.33 C 0 km/h
693 13-02-2007 00:00:00 7.8175 C 4.79 g/m*3 7.82 C 0 km/h
694 14-02-2007 00:00:00 5.82083 C 5.14 g/m*3 5.82 C 0 km/h
695 15-02-2007 00:00:00 7.37917 C 4.4 g/m*3 7.38 C 0 km/h
696 16-02-2007 00:00:00 4.61583 C 4.23 g/m*3 4.62 C 0 km/h
697 17-02-2007 00:00:00 4.92083 C 3.9 g/m*3 4.92 C 0 km/h
698 18-02-2007 00:00:00 3.4775 C 4.32 g/m*3 3.48 C 0 km/h
699 19-02-2007 00:00:00 5.4675 C 4.34 g/m*3 5.47 C 0 km/h
700 20-02-2007 00:00:00 7.09583 C 4.63 g/m*3 7.1 C 0 km/h
Sensor: Nr:Datum:Temp:Abs-Feuchte:Windchill:Wind:
Aussen-T/F 701 21-02-2007 00:00:00 5.63083 C 4.98 g/m*3 5.63 C 0 km/h
702 22-02-2007 00:00:00 7.10583 C 5.19 g/m*3 7.11 C 0 km/h
703 23-02-2007 00:00:00 9.02333 C 5.53 g/m*3 9.02 C 0 km/h
704 24-02-2007 00:00:00 8.47917 C 6.6 g/m*3 8.48 C 0 km/h
705 25-02-2007 00:00:00 7.975 C 5.55 g/m*3 7.98 C 0 km/h
706 26-02-2007 00:00:00 6.53667 C 5.43 g/m*3 6.54 C 0 km/h
707 27-02-2007 00:00:00 6.38333 C 4.96 g/m*3 6.38 C 0 km/h
708 28-02-2007 00:00:00 10.44667 C 5.35 g/m*3 10.45 C 0 km/h
709 01-03-2007 00:00:00 9.04667 C 5.11 g/m*3 9.05 C 0 km/h
710 02-03-2007 00:00:00 6.77917 C 3.71 g/m*3 6.78 C 0 km/h
711 03-03-2007 00:00:00 6.66639 C 4.88 g/m*3 6.67 C 0 km/h
712 04-03-2007 00:00:00 7.69833 C 4.83 g/m*3 7.7 C 0 km/h
713 05-03-2007 00:00:00 10.24667 C 4.19 g/m*3 10.25 C 0 km/h
714 06-03-2007 00:00:00 9.76083 C 4.14 g/m*3 9.76 C 0 km/h
715 07-03-2007 00:00:00 9.16417 C 4.96 g/m*3 9.16 C 0 km/h
716 08-03-2007 00:00:00 7.035 C 4.54 g/m*3 7.04 C 0 km/h
717 09-03-2007 00:00:00 6.3175 C 4.84 g/m*3 6.32 C 0 km/h
718 10-03-2007 00:00:00 7.155 C 4.37 g/m*3 7.16 C 0 km/h
719 11-03-2007 00:00:00 7.3175 C 4.45 g/m*3 7.32 C 0 km/h
720 12-03-2007 00:00:00 8.52833 C 4.75 g/m*3 8.53 C 0 km/h
721 13-03-2007 00:00:00 9.0475 C 5.4 g/m*3 9.05 C 0 km/h
722 14-03-2007 00:00:00 10.57395 C 5.78 g/m*3 10.57 C 0 km/h
723 15-03-2007 00:00:00 8.44333 C 5.18 g/m*3 8.44 C 0 km/h
724 16-03-2007 00:00:00 7.8175 C 5.18 g/m*3 7.82 C 0 km/h
725 17-03-2007 00:00:00 8.70833 C 6.38 g/m*3 8.71 C 0 km/h
Sensor: Nr:Datum:Temp:Abs-Feuchte:Windchill:Wind:
Aussen-T/F 726 18-03-2007 00:00:00 7.715 C 5.51 g/m*3 7.72 C 0 km/h
727 19-03-2007 00:00:00 4.56333 C 4 g/m*3 4.56 C 0 km/h
728 20-03-2007 00:00:00 4.1325 C 4.47 g/m*3 4.13 C 0 km/h
729 21-03-2007 00:00:00 4.47417 C 4.53 g/m*3 4.47 C 0 km/h
730 22-03-2007 00:00:00 2.25667 C 5.17 g/m*3 2.26 C 0 km/h
731 23-03-2007 00:00:00 3.37333 C 5.31 g/m*3 3.37 C 0 km/h
732 24-03-2007 00:00:00 5.37333 C 6.27 g/m*3 5.37 C 0 km/h
733 25-03-2007 00:00:00 8.58101 C 5.72 g/m*3 8.58 C 0 km/h
734 26-03-2007 00:00:00 14.9957 C 4.93 g/m*3 15 C 0 km/h
735 27-03-2007 00:00:00 11.65 C 4.69 g/m*3 11.65 C 0 km/h
736 28-03-2007 00:00:00 11.65313 C 4.21 g/m*3 11.65 C 0 km/h
737 29-03-2007 00:00:00 9.75 C 5.52 g/m*3 9.75 C 0 km/h
738 30-03-2007 00:00:00 10.73785 C 6.65 g/m*3 10.74 C 0 km/h
739 31-03-2007 00:00:00 10.49618 C 6.1 g/m*3 10.5 C 0 km/h
740 01-04-2007 00:00:00 13.71707 C 4.51 g/m*3 13.72 C 0 km/h
741 02-04-2007 00:00:00 13.59583 C 4.59 g/m*3 13.6 C 0 km/h
742 03-04-2007 00:00:00 8.94861 C 4.81 g/m*3 8.95 C 0 km/h
743 04-04-2007 00:00:00 9.66076 C 3.85 g/m*3 9.66 C 0 km/h
744 05-04-2007 00:00:00 8.81528 C 4.24 g/m*3 8.82 C 0 km/h
745 06-04-2007 00:00:00 12.12431 C 6.2 g/m*3 12.12 C 0 km/h
746 07-04-2007 00:00:00 9.61533 C 5.4 g/m*3 9.62 C 0 km/h
747 08-04-2007 00:00:00 9.79306 C 5.37 g/m*3 9.79 C 0 km/h
748 09-04-2007 00:00:00 11.52465 C 5.47 g/m*3 11.52 C 0 km/h
749 10-04-2007 00:00:00 11.94688 C 6.26 g/m*3 11.95 C 0 km/h
750 11-04-2007 00:00:00 10.93697 C 6.87 g/m*3 10.94 C 0 km/h
Sensor: Nr:Datum:Temp:Abs-Feuchte:Windchill:Wind:
Aussen-T/F 751 12-04-2007 00:00:00 16.75 C 7.24 g/m*3 16.75 C 0 km/h
752 13-04-2007 00:00:00 19.17708 C 8 g/m*3 19.18 C 0 km/h
753 14-04-2007 00:00:00 21.16042 C 7.77 g/m*3 21.16 C 0 km/h
754 15-04-2007 00:00:00 20.80833 C 7.27 g/m*3 20.81 C 0 km/h
755 16-04-2007 00:00:00 19.4375 C 6.62 g/m*3 19.44 C 0 km/h
756 17-04-2007 00:00:00 14.74271 C 6.57 g/m*3 14.74 C 0 km/h
757 18-04-2007 00:00:00 11.07188 C 4.76 g/m*3 11.07 C 0 km/h
758 19-04-2007 00:00:00 11.67188 C 5.25 g/m*3 11.67 C 0 km/h
759 20-04-2007 00:00:00 12.26458 C 4.91 g/m*3 12.26 C 0 km/h
760 21-04-2007 00:00:00 11.89271 C 4.5 g/m*3 11.89 C 0 km/h
761 22-04-2007 00:00:00 15.65729 C 5.54 g/m*3 15.66 C 0 km/h
762 23-04-2007 00:00:00 17.48021 C 6.48 g/m*3 17.48 C 0 km/h
763 24-04-2007 00:00:00 20.85102 C 8.12 g/m*3 20.85 C 0 km/h
764 25-04-2007 00:00:00 22.135 C 8.68 g/m*3 22.14 C 0 km/h
765 26-04-2007 00:00:00 21.16 C 7.81 g/m*3 21.16 C 0 km/h
766 27-04-2007 00:00:00 20.46303 C 7.42 g/m*3 20.46 C 0 km/h
767 28-04-2007 00:00:00 20.92083 C 7.71 g/m*3 20.92 C 0 km/h
768 29-04-2007 00:00:00 19.75583 C 7.1 g/m*3 19.76 C 0 km/h
769 30-04-2007 00:00:00 16.78917 C 4.21 g/m*3 16.79 C 0 km/h
770 01-05-2007 00:00:00 16.47083 C 4.66 g/m*3 16.47 C 0 km/h
771 02-05-2007 00:00:00 16.09167 C 3.81 g/m*3 16.09 C 0 km/h
772 03-05-2007 00:00:00 17.355 C 5.15 g/m*3 17.36 C 0 km/h
773 04-05-2007 00:00:00 18.835 C 5.97 g/m*3 18.84 C 0 km/h
774 05-05-2007 00:00:00 17.5975 C 6.18 g/m*3 17.6 C 0 km/h
775 06-05-2007 00:00:00 16.51167 C 7.41 g/m*3 16.51 C 0 km/h
Sensor: Nr:Datum:Temp:Abs-Feuchte:Windchill:Wind:
Aussen-T/F 776 07-05-2007 00:00:00 15.5625 C 8.64 g/m*3 15.56 C 0 km/h
777 08-05-2007 00:00:00 14.1825 C 7.73 g/m*3 14.18 C 0 km/h
778 09-05-2007 00:00:00 12.76917 C 8.87 g/m*3 12.77 C 0 km/h
779 10-05-2007 00:00:00 17.70667 C 8.53 g/m*3 17.71 C 0 km/h
780 11-05-2007 00:00:00 15.535 C 6.56 g/m*3 15.54 C 0 km/h
781 12-05-2007 00:00:00 15.02689 C 7.96 g/m*3 15.03 C 0 km/h
782 13-05-2007 00:00:00 17.04333 C 8.98 g/m*3 17.04 C 0 km/h
783 14-05-2007 00:00:00 15.98917 C 7.81 g/m*3 15.99 C 0 km/h
784 15-05-2007 00:00:00 13.36917 C 7.46 g/m*3 13.37 C 0 km/h
785 16-05-2007 00:00:00 12.17917 C 7.6 g/m*3 12.18 C 0 km/h
786 17-05-2007 00:00:00 10.8525 C 7.97 g/m*3 10.85 C 0 km/h
787 18-05-2007 00:00:00 14.6325 C 8.23 g/m*3 14.63 C 0 km/h
788 19-05-2007 00:00:00 18.53583 C 10.39 g/m*3 18.54 C 0 km/h
789 20-05-2007 00:00:00 21.92667 C 9.73 g/m*3 21.93 C 0 km/h
790 21-05-2007 00:00:00 22.61667 C 11.44 g/m*3 22.62 C 0 km/h
791 22-05-2007 00:00:00 22.86667 C 11.78 g/m*3 22.87 C 0 km/h
792 23-05-2007 00:00:00 20.8675 C 11.32 g/m*3 20.87 C 0 km/h
793 24-05-2007 00:00:00 23.91417 C 11.42 g/m*3 23.91 C 0 km/h
794 25-05-2007 00:00:00 24.57059 C 11.78 g/m*3 24.57 C 0 km/h
795 26-05-2007 00:00:00 21.745 C 12.71 g/m*3 21.75 C 0 km/h
796 27-05-2007 00:00:00 17.5125 C 9.85 g/m*3 17.51 C 0 km/h
797 28-05-2007 00:00:00 12.24917 C 8.51 g/m*3 12.25 C 0 km/h
798 29-05-2007 00:00:00 11.033 C 7.93 g/m*3 11.03 C 0 km/h
799 30-05-2007 00:00:00 13.67465 C 6.29 g/m*3 13.67 C 0 km/h
800 31-05-2007 00:00:00 16.05139 C 8.28 g/m*3 16.05 C 0 km/h
Sensor: Nr:Datum:Temp:Abs-Feuchte:Windchill:Wind:
Aussen-T/F 801 01-06-2007 00:00:00 15.42361 C 9.57 g/m*3 15.42 C 0 km/h
802 02-06-2007 00:00:00 18.53611 C 9.82 g/m*3 18.54 C 0 km/h
803 03-06-2007 00:00:00 20.87083 C 10.1 g/m*3 20.87 C 0 km/h
804 04-06-2007 00:00:00 22.02361 C 10.59 g/m*3 22.02 C 0 km/h
805 05-06-2007 00:00:00 21.66389 C 10.23 g/m*3 21.66 C 0 km/h
806 06-06-2007 00:00:00 22.53889 C 10.59 g/m*3 22.54 C 0 km/h
807 07-06-2007 00:00:00 25.42222 C 11.36 g/m*3 25.42 C 0 km/h
808 08-06-2007 00:00:00 26.47639 C 11.42 g/m*3 26.48 C 0 km/h
809 09-06-2007 00:00:00 23.12917 C 12.28 g/m*3 23.13 C 0 km/h
810 10-06-2007 00:00:00 21.28889 C 12.55 g/m*3 21.29 C 0 km/h
811 11-06-2007 00:00:00 21.88068 C 11.9 g/m*3 21.88 C 0 km/h
812 12-06-2007 00:00:00 20.17167 C 11.8 g/m*3 20.17 C 0 km/h
813 13-06-2007 00:00:00 21.51176 C 10.38 g/m*3 21.51 C 0 km/h
814 14-06-2007 00:00:00 22.15833 C 12.13 g/m*3 22.16 C 0 km/h
815 15-06-2007 00:00:00 19.84667 C 11.6 g/m*3 19.85 C 0 km/h
816 16-06-2007 00:00:00 18.0125 C 9.3 g/m*3 18.01 C 0 km/h
817 17-06-2007 00:00:00 20.0125 C 9.63 g/m*3 20.01 C 0 km/h
818 18-06-2007 00:00:00 20.92583 C 11.23 g/m*3 20.93 C 0 km/h
819 19-06-2007 00:00:00 23.70833 C 11.18 g/m*3 23.71 C 0 km/h
820 20-06-2007 00:00:00 23.68667 C 12.04 g/m*3 23.69 C 0 km/h
821 21-06-2007 00:00:00 18.30167 C 12.42 g/m*3 18.3 C 0 km/h
822 22-06-2007 00:00:00 16.06417 C 10.95 g/m*3 16.06 C 0 km/h
823 23-06-2007 00:00:00 16.04167 C 10.56 g/m*3 16.04 C 0 km/h
824 24-06-2007 00:00:00 19.31667 C 10.02 g/m*3 19.32 C 0 km/h
825 25-06-2007 00:00:00 18.13667 C 10.86 g/m*3 18.14 C 0 km/h
Sensor: Nr:Datum:Temp:Abs-Feuchte:Windchill:Wind:
Aussen-T/F 826 26-06-2007 00:00:00 13.90667 C 8.35 g/m*3 13.91 C 0 km/h
827 27-06-2007 00:00:00 14.2225 C 6.63 g/m*3 14.22 C 0 km/h
828 28-06-2007 00:00:00 15.82833 C 7.44 g/m*3 15.83 C 0 km/h
829 29-06-2007 00:00:00 16.88417 C 8.32 g/m*3 16.88 C 0 km/h
830 30-06-2007 00:00:00 18.675 C 9.69 g/m*3 18.68 C 0 km/h
831 01-07-2007 00:00:00 20.8525 C 10.65 g/m*3 20.85 C 0 km/h
832 02-07-2007 00:00:00 19.54917 C 10.43 g/m*3 19.55 C 0 km/h
833 03-07-2007 00:00:00 15.42583 C 9.84 g/m*3 15.43 C 0 km/h
834 04-07-2007 00:00:00 15.17417 C 8.93 g/m*3 15.17 C 0 km/h
835 05-07-2007 00:00:00 15.1325 C 9.55 g/m*3 15.13 C 0 km/h
836 06-07-2007 00:00:00 17.63613 C 8.26 g/m*3 17.64 C 0 km/h
837 07-07-2007 00:00:00 18.55167 C 7.14 g/m*3 18.55 C 0 km/h
838 08-07-2007 00:00:00 19.8175 C 8.32 g/m*3 19.82 C 0 km/h
839 09-07-2007 00:00:00 17.15583 C 9.38 g/m*3 17.16 C 0 km/h
840 10-07-2007 00:00:00 14.66583 C 9.37 g/m*3 14.67 C 0 km/h
841 11-07-2007 00:00:00 14.37833 C 9.44 g/m*3 14.38 C 0 km/h
842 12-07-2007 00:00:00 17.7 C 9.66 g/m*3 17.7 C 0 km/h
843 13-07-2007 00:00:00 22.43167 C 11.88 g/m*3 22.43 C 0 km/h
844 14-07-2007 00:00:00 25.05 C 11.69 g/m*3 25.05 C 0 km/h
845 15-07-2007 00:00:00 27.2075 C 11.44 g/m*3 27.21 C 0 km/h
846 16-07-2007 00:00:00 26.8025 C 8.93 g/m*3 26.8 C 0 km/h
847 17-07-2007 00:00:00 25.11167 C 8.56 g/m*3 25.11 C 0 km/h
848 18-07-2007 00:00:00 22.78 C 9.2 g/m*3 22.78 C 0 km/h
849 19-07-2007 00:00:00 20.29333 C 11.02 g/m*3 20.29 C 0 km/h
850 20-07-2007 00:00:00 22.04917 C 12.14 g/m*3 22.05 C 0 km/h
Sensor: Nr:Datum:Temp:Abs-Feuchte:Windchill:Wind:
Aussen-T/F 851 21-07-2007 00:00:00 19.74917 C 9.69 g/m*3 19.75 C 0 km/h
852 22-07-2007 00:00:00 19.89917 C 8.33 g/m*3 19.9 C 0 km/h
853 23-07-2007 00:00:00 16.33333 C 10.14 g/m*3 16.33 C 0 km/h
854 24-07-2007 00:00:00 16.72667 C 9.48 g/m*3 16.73 C 0 km/h
855 25-07-2007 00:00:00 19.68571 C 8.82 g/m*3 19.69 C 0 km/h
856 26-07-2007 00:00:00 21.75583 C 9.38 g/m*3 21.76 C 0 km/h
857 27-07-2007 00:00:00 22.4675 C 8.25 g/m*3 22.47 C 0 km/h
858 28-07-2007 00:00:00 21.095 C 10.2 g/m*3 21.1 C 0 km/h
859 29-07-2007 00:00:00 17.3075 C 9.52 g/m*3 17.31 C 0 km/h
860 30-07-2007 00:00:00 14.66167 C 6.94 g/m*3 14.66 C 0 km/h
861 31-07-2007 00:00:00 15.68167 C 6.71 g/m*3 15.68 C 0 km/h
862 01-08-2007 00:00:00 18.53833 C 7.48 g/m*3 18.54 C 0 km/h
863 02-08-2007 00:00:00 18.3275 C 9.54 g/m*3 18.33 C 0 km/h
864 03-08-2007 00:00:00 19.78083 C 8.92 g/m*3 19.78 C 0 km/h
865 04-08-2007 00:00:00 21.05 C 8.85 g/m*3 21.05 C 0 km/h
866 05-08-2007 00:00:00 23.69833 C 9.12 g/m*3 23.7 C 0 km/h
867 06-08-2007 00:00:00 24.23417 C 9.32 g/m*3 24.23 C 0 km/h
868 07-08-2007 00:00:00 18.36167 C 12.63 g/m*3 18.36 C 0 km/h
869 08-08-2007 00:00:00 16.0175 C 11.01 g/m*3 16.02 C 0 km/h
870 09-08-2007 00:00:00 14.26667 C 11.55 g/m*3 14.27 C 0 km/h
871 10-08-2007 00:00:00 17.82833 C 13.5 g/m*3 17.83 C 0 km/h
872 11-08-2007 00:00:00 19.64083 C 11.07 g/m*3 19.64 C 0 km/h
873 12-08-2007 00:00:00 20.07417 C 10.09 g/m*3 20.07 C 0 km/h
874 13-08-2007 00:00:00 20.9175 C 10.13 g/m*3 20.92 C 0 km/h
875 14-08-2007 00:00:00 20.9275 C 9.64 g/m*3 20.93 C 0 km/h
Sensor: Nr:Datum:Temp:Abs-Feuchte:Windchill:Wind:
Aussen-T/F 876 15-08-2007 00:00:00 23.49917 C 12.92 g/m*3 23.5 C 0 km/h
877 16-08-2007 00:00:00 18.74667 C 10.51 g/m*3 18.75 C 0 km/h
878 17-08-2007 00:00:00 17.27833 C 8.08 g/m*3 17.28 C 0 km/h
879 18-08-2007 00:00:00 17.40917 C 8.03 g/m*3 17.41 C 0 km/h
880 19-08-2007 00:00:00 17.24583 C 9.91 g/m*3 17.25 C 0 km/h
881 20-08-2007 00:00:00 17.315 C 9.7 g/m*3 17.32 C 0 km/h
882 21-08-2007 00:00:00 15.4225 C 10.31 g/m*3 15.42 C 0 km/h
883 22-08-2007 00:00:00 15.95593 C 11.84 g/m*3 15.96 C 0 km/h
884 23-08-2007 00:00:00 17.7575 C 11.98 g/m*3 17.76 C 0 km/h
885 24-08-2007 00:00:00 19.43833 C 11.56 g/m*3 19.44 C 0 km/h
886 25-08-2007 00:00:00 21.42 C 11.91 g/m*3 21.42 C 0 km/h
887 26-08-2007 00:00:00 21.99167 C 12.1 g/m*3 21.99 C 0 km/h
888 27-08-2007 00:00:00 19.53583 C 8.84 g/m*3 19.54 C 0 km/h
889 28-08-2007 00:00:00 16.42167 C 8.1 g/m*3 16.42 C 0 km/h
890 29-08-2007 00:00:00 17.285 C 6.71 g/m*3 17.29 C 0 km/h
891 30-08-2007 00:00:00 15.3675 C 7.01 g/m*3 15.37 C 0 km/h
892 31-08-2007 00:00:00 17.5825 C 9.89 g/m*3 17.58 C 0 km/h
893 01-09-2007 00:00:00 17.1975 C 10.01 g/m*3 17.2 C 0 km/h
894 02-09-2007 00:00:00 17.35583 C 9 g/m*3 17.36 C 0 km/h
895 03-09-2007 00:00:00 15.74917 C 9.08 g/m*3 15.75 C 0 km/h
896 04-09-2007 00:00:00 12.88417 C 7.04 g/m*3 12.88 C 0 km/h
897 05-09-2007 00:00:00 12.6395 C 6.92 g/m*3 12.64 C 0 km/h
898 06-09-2007 00:00:00 15.00917 C 9.43 g/m*3 15.01 C 0 km/h
899 07-09-2007 00:00:00 15.9325 C 9.22 g/m*3 15.93 C 0 km/h
900 08-09-2007 00:00:00 15.13667 C 10.05 g/m*3 15.14 C 0 km/h
Sensor: Nr:Datum:Temp:Abs-Feuchte:Windchill:Wind:
Aussen-T/F 901 09-09-2007 00:00:00 15.125 C 9.17 g/m*3 15.13 C 0 km/h
902 10-09-2007 00:00:00 12.4075 C 8.68 g/m*3 12.41 C 0 km/h
903 11-09-2007 00:00:00 14.36833 C 8.61 g/m*3 14.37 C 0 km/h
904 12-09-2007 00:00:00 14.94417 C 8.54 g/m*3 14.94 C 0 km/h
905 13-09-2007 00:00:00 14.5175 C 8.49 g/m*3 14.52 C 0 km/h
906 14-09-2007 00:00:00 15.68417 C 8.62 g/m*3 15.68 C 0 km/h
907 15-09-2007 00:00:00 16.86917 C 8.24 g/m*3 16.87 C 0 km/h
908 16-09-2007 00:00:00 15.27 C 8.22 g/m*3 15.27 C 0 km/h
909 17-09-2007 00:00:00 16.68833 C 10.1 g/m*3 16.69 C 0 km/h
910 18-09-2007 00:00:00 11.46833 C 8.27 g/m*3 11.47 C 0 km/h
911 19-09-2007 00:00:00 10.3275 C 6.41 g/m*3 10.33 C 0 km/h
912 20-09-2007 00:00:00 13.68083 C 7.03 g/m*3 13.68 C 0 km/h
913 21-09-2007 00:00:00 14.35833 C 7.71 g/m*3 14.36 C 0 km/h
914 22-09-2007 00:00:00 15.97583 C 8.74 g/m*3 15.98 C 0 km/h
915 23-09-2007 00:00:00 17.80333 C 9.5 g/m*3 17.8 C 0 km/h
916 24-09-2007 00:00:00 16.95833 C 9.49 g/m*3 16.96 C 0 km/h
917 25-09-2007 00:00:00 12.91917 C 7.71 g/m*3 12.92 C 0 km/h
918 26-09-2007 00:00:00 12.2675 C 7.86 g/m*3 12.27 C 0 km/h
919 27-09-2007 00:00:00 10.19083 C 8.85 g/m*3 10.19 C 0 km/h
920 28-09-2007 00:00:00 12.50168 C 8.71 g/m*3 12.5 C 0 km/h
921 29-09-2007 00:00:00 13.54444 C 8.6 g/m*3 13.54 C 0 km/h
922 30-09-2007 00:00:00 14.59687 C 9.12 g/m*3 14.6 C 0 km/h
923 01-10-2007 00:00:00 14.70313 C 9.71 g/m*3 14.7 C 0 km/h
924 02-10-2007 00:00:00 17.235 C 11.49 g/m*3 17.24 C 0 km/h
925 03-10-2007 00:00:00 17.39188 C 11.47 g/m*3 17.39 C 0 km/h
Sensor: Nr:Datum:Temp:Abs-Feuchte:Windchill:Wind:
Aussen-T/F 926 04-10-2007 00:00:00 17.33653 C 11.53 g/m*3 17.34 C 0 km/h
927 05-10-2007 00:00:00 15.50646 C 8.72 g/m*3 15.51 C 0 km/h
928 06-10-2007 00:00:00 12.34042 C 7.59 g/m*3 12.34 C 0 km/h
929 07-10-2007 00:00:00 11.60813 C 7.69 g/m*3 11.61 C 0 km/h
930 08-10-2007 00:00:00 10.74021 C 7.53 g/m*3 10.74 C 0 km/h
931 09-10-2007 00:00:00 12.05052 C 8.1 g/m*3 12.05 C 0 km/h
932 10-10-2007 00:00:00 14.53875 C 8.04 g/m*3 14.54 C 0 km/h
933 11-10-2007 00:00:00 11.52958 C 7.34 g/m*3 11.53 C 0 km/h
934 12-10-2007 00:00:00 12.23271 C 8.24 g/m*3 12.23 C 0 km/h
935 13-10-2007 00:00:00 13.96146 C 7.82 g/m*3 13.96 C 0 km/h
936 14-10-2007 00:00:00 9.94958 C 6.47 g/m*3 9.95 C 0 km/h
937 15-10-2007 00:00:00 10.725 C 7.35 g/m*3 10.73 C 0 km/h
938 16-10-2007 00:00:00 13.70417 C 8.35 g/m*3 13.7 C 0 km/h
939 17-10-2007 00:00:00 11.78601 C 8.39 g/m*3 11.79 C 0 km/h
940 18-10-2007 00:00:00 9.70042 C 6.45 g/m*3 9.7 C 0 km/h
941 19-10-2007 00:00:00 7.65667 C 6.17 g/m*3 7.66 C 0 km/h
942 20-10-2007 00:00:00 3.38583 C 5.54 g/m*3 3.39 C 0 km/h
943 24-10-2007 00:00:00 7.63803 C 5.69 g/m*3 7.64 C 0 km/h
944 25-10-2007 00:00:00 8.51042 C 6.26 g/m*3 8.51 C 0 km/h
945 26-10-2007 00:00:00 8.8712 C 6.03 g/m*3 8.87 C 0 km/h
946 27-10-2007 00:00:00 8.5725 C 5.85 g/m*3 8.57 C 0 km/h
947 28-10-2007 00:00:00 9.1632 C 5.9 g/m*3 9.16 C 0 km/h
948 29-10-2007 00:00:00 8.77833 C 7.07 g/m*3 8.78 C 0 km/h
949 30-10-2007 00:00:00 8.70333 C 7.3 g/m*3 8.7 C 0 km/h
950 31-10-2007 00:00:00 6.43333 C 6.44 g/m*3 6.43 C 0 km/h
Sensor: Nr:Datum:Temp:Abs-Feuchte:Windchill:Wind:
Aussen-T/F 951 01-11-2007 00:00:00 5.77833 C 6.04 g/m*3 5.78 C 0 km/h
952 02-11-2007 00:00:00 10.20333 C 8.52 g/m*3 10.2 C 0 km/h
953 03-11-2007 00:00:00 11.76723 C 9.64 g/m*3 11.77 C 0 km/h
954 04-11-2007 00:00:00 10.35 C 6.84 g/m*3 10.35 C 0 km/h
955 05-11-2007 00:00:00 8.61333 C 5.38 g/m*3 8.61 C 0 km/h
956 06-11-2007 00:00:00 8.1225 C 5.88 g/m*3 8.12 C 0 km/h
957 07-11-2007 00:00:00 8.495 C 6.13 g/m*3 8.49 C 0 km/h
958 08-11-2007 00:00:00 9.85667 C 7.21 g/m*3 9.86 C 0 km/h
959 09-11-2007 00:00:00 5.16167 C 5.11 g/m*3 5.16 C 0 km/h
960 10-11-2007 00:00:00 6.29083 C 5.92 g/m*3 6.29 C 0 km/h
961 11-11-2007 00:00:00 7.75917 C 6.67 g/m*3 7.76 C 0 km/h
962 12-11-2007 00:00:00 5.1475 C 4.79 g/m*3 5.15 C 0 km/h
963 13-11-2007 00:00:00 3.98167 C 5.14 g/m*3 3.98 C 0 km/h
964 14-11-2007 00:00:00 2.72417 C 4.37 g/m*3 2.72 C 0 km/h
965 15-11-2007 00:00:00 1.3425 C 3.82 g/m*3 1.34 C 0 km/h
966 16-11-2007 00:00:00 -0.59167 C 3.84 g/m*3 -0.59 C 0 km/h
967 17-11-2007 00:00:00 3.35714 C 4.68 g/m*3 3.36 C 0 km/h
968 18-11-2007 00:00:00 3.3825 C 4.91 g/m*3 3.38 C 0 km/h
969 19-11-2007 00:00:00 2.57333 C 4.34 g/m*3 2.57 C 0 km/h
970 20-11-2007 00:00:00 5.33 C 4.59 g/m*3 5.33 C 0 km/h
971 21-11-2007 00:00:00 6.755 C 5.66 g/m*3 6.76 C 0 km/h
972 22-11-2007 00:00:00 7.93917 C 6.65 g/m*3 7.94 C 0 km/h
973 23-11-2007 00:00:00 6.7275 C 6.81 g/m*3 6.73 C 0 km/h
974 24-11-2007 00:00:00 2.76833 C 4.82 g/m*3 2.77 C 0 km/h
975 25-11-2007 00:00:00 4.25167 C 5.29 g/m*3 4.25 C 0 km/h
Sensor: Nr:Datum:Temp:Abs-Feuchte:Windchill:Wind:
Aussen-T/F 976 26-11-2007 00:00:00 3.9725 C 4.66 g/m*3 3.97 C 0 km/h
977 27-11-2007 00:00:00 4.23833 C 4.68 g/m*3 4.24 C 0 km/h
978 28-11-2007 00:00:00 0.0625 C 4.32 g/m*3 0.06 C 0 km/h
979 29-11-2007 00:00:00 1.3325 C 4.59 g/m*3 1.33 C 0 km/h
980 30-11-2007 00:00:00 5.76 C 5.7 g/m*3 5.76 C 0 km/h
981 01-12-2007 00:00:00 8.51345 C 5.82 g/m*3 8.51 C 0 km/h
982 02-12-2007 00:00:00 9.13667 C 6.27 g/m*3 9.14 C 0 km/h
983 03-12-2007 00:00:00 7.21167 C 4.97 g/m*3 7.21 C 0 km/h
984 04-12-2007 00:00:00 5.77583 C 5.61 g/m*3 5.78 C 0 km/h
985 05-12-2007 00:00:00 10.11667 C 7.2 g/m*3 10.12 C 0 km/h
986 06-12-2007 00:00:00 9.85667 C 6.67 g/m*3 9.86 C 0 km/h
987 07-12-2007 00:00:00 10.3625 C 6.09 g/m*3 10.36 C 0 km/h
988 08-12-2007 00:00:00 5.77917 C 4.69 g/m*3 5.78 C 0 km/h
989 09-12-2007 00:00:00 7.00333 C 5.75 g/m*3 7 C 0 km/h
990 10-12-2007 00:00:00 6.24167 C 6.16 g/m*3 6.24 C 0 km/h
991 11-12-2007 00:00:00 5.6775 C 5.39 g/m*3 5.68 C 0 km/h
992 12-12-2007 00:00:00 4.92417 C 5 g/m*3 4.92 C 0 km/h
993 13-12-2007 00:00:00 5.2125 C 4.36 g/m*3 5.21 C 0 km/h
994 14-12-2007 00:00:00 2.35798 C 2.96 g/m*3 2.36 C 0 km/h
995 15-12-2007 00:00:00 0.0325 C 2.86 g/m*3 0.03 C 0 km/h
996 16-12-2007 00:00:00 -2.92417 C 2.98 g/m*3 -2.92 C 0 km/h
997 17-12-2007 00:00:00 -1.06 C 2.85 g/m*3 -1.06 C 0 km/h
998 18-12-2007 00:00:00 -2.50833 C 3.14 g/m*3 -2.51 C 0 km/h
999 19-12-2007 00:00:00 -3.8675 C 3.09 g/m*3 -3.87 C 0 km/h
1000 20-12-2007 00:00:00 -5.26417 C 2.9 g/m*3 -5.26 C 0 km/h
Sensor: Nr:Datum:Temp:Abs-Feuchte:Windchill:Wind:
Aussen-T/F 1001 21-12-2007 00:00:00 -5.9625 C 2.72 g/m*3 -5.96 C 0 km/h
1002 22-12-2007 00:00:00 -7.21833 C 2.43 g/m*3 -7.22 C 0 km/h
1003 23-12-2007 00:00:00 -5.47333 C 2.81 g/m*3 -5.47 C 0 km/h
1004 24-12-2007 00:00:00 -1.28333 C 4.01 g/m*3 -1.28 C 0 km/h
1005 25-12-2007 00:00:00 -3.13917 C 3.2 g/m*3 -3.14 C 0 km/h
1006 26-12-2007 00:00:00 -1.31513 C 3.83 g/m*3 -1.32 C 0 km/h
1007 27-12-2007 00:00:00 2.63917 C 4.81 g/m*3 2.64 C 0 km/h
1008 28-12-2007 00:00:00 4.575 C 5.27 g/m*3 4.58 C 0 km/h
1009 29-12-2007 00:00:00 3.32667 C 4.84 g/m*3 3.33 C 0 km/h
1010 30-12-2007 00:00:00 4.99167 C 5.24 g/m*3 4.99 C 0 km/h
1011 31-12-2007 00:00:00 3.21667 C 5.19 g/m*3 3.22 C 0 km/h
1012 01-01-2008 00:00:00 1.85083 C 4.52 g/m*3 1.85 C 0 km/h
1013 02-01-2008 00:00:00 -1.72 C 3.21 g/m*3 -1.72 C 0 km/h
1014 03-01-2008 00:00:00 -0.05667 C 2.87 g/m*3 -0.06 C 0 km/h
1015 04-01-2008 00:00:00 0.27167 C 3.34 g/m*3 0.27 C 0 km/h
1016 05-01-2008 00:00:00 5.0775 C 5.63 g/m*3 5.08 C 0 km/h
1017 06-01-2008 00:00:00 3.95167 C 5.23 g/m*3 3.95 C 0 km/h
1018 07-01-2008 00:00:00 5.63583 C 5.3 g/m*3 5.64 C 0 km/h
1019 08-01-2008 00:00:00 4.45546 C 5.42 g/m*3 4.46 C 0 km/h
1020 09-01-2008 00:00:00 4.03167 C 5.39 g/m*3 4.03 C 0 km/h
1021 10-01-2008 00:00:00 6.32083 C 5.48 g/m*3 6.32 C 0 km/h
1022 11-01-2008 00:00:00 9.6175 C 5.87 g/m*3 9.62 C 0 km/h
1023 12-01-2008 00:00:00 6.39 C 5.01 g/m*3 6.39 C 0 km/h
1024 13-01-2008 00:00:00 0.58167 C 4.26 g/m*3 0.58 C 0 km/h
1025 14-01-2008 00:00:00 3.80833 C 4.9 g/m*3 3.81 C 0 km/h
Sensor: Nr:Datum:Temp:Abs-Feuchte:Windchill:Wind:
Aussen-T/F 1026 15-01-2008 00:00:00 8.28833 C 5.12 g/m*3 8.29 C 0 km/h
1027 16-01-2008 00:00:00 8.28667 C 5.35 g/m*3 8.29 C 0 km/h
1028 17-01-2008 00:00:00 7.21833 C 5.52 g/m*3 7.22 C 0 km/h
1029 18-01-2008 00:00:00 9.17667 C 6.31 g/m*3 9.18 C 0 km/h
1030 19-01-2008 00:00:00 12.72353 C 7.44 g/m*3 12.72 C 0 km/h
1031 20-01-2008 00:00:00 12.27333 C 6.9 g/m*3 12.27 C 0 km/h
1032 21-01-2008 00:00:00 10.17403 C 5.8 g/m*3 10.17 C 0 km/h
1033 22-01-2008 00:00:00 4.58605 C 4.01 g/m*3 4.59 C 0 km/h
1034 23-01-2008 00:00:00 2.9125 C 3.92 g/m*3 2.91 C 0 km/h
1035 24-01-2008 00:00:00 6.355 C 4.65 g/m*3 6.36 C 0 km/h
1036 25-01-2008 00:00:00 3.72583 C 4.34 g/m*3 3.73 C 0 km/h
1037 26-01-2008 00:00:00 5.43583 C 4.26 g/m*3 5.44 C 0 km/h
1038 27-01-2008 00:00:00 5.64333 C 4.29 g/m*3 5.64 C 0 km/h
1039 28-01-2008 00:00:00 7.44 C 5.19 g/m*3 7.44 C 0 km/h
1040 29-01-2008 00:00:00 5.72167 C 4.29 g/m*3 5.72 C 0 km/h
1041 30-01-2008 00:00:00 2.05833 C 4.71 g/m*3 2.06 C 0 km/h
1042 31-01-2008 00:00:00 2.0958 C 3.82 g/m*3 2.1 C 0 km/h
1043 01-02-2008 00:00:00 4.10167 C 4.83 g/m*3 4.1 C 0 km/h
1044 02-02-2008 00:00:00 2.155 C 3.64 g/m*3 2.15 C 0 km/h
1045 03-02-2008 00:00:00 0.64917 C 3.2 g/m*3 0.65 C 0 km/h
1046 04-02-2008 00:00:00 4.5125 C 4.25 g/m*3 4.51 C 0 km/h
1047 05-02-2008 00:00:00 6.43917 C 5.11 g/m*3 6.44 C 0 km/h
1048 06-02-2008 00:00:00 8.675 C 5.72 g/m*3 8.68 C 0 km/h
1049 07-02-2008 00:00:00 3.96333 C 4.24 g/m*3 3.96 C 0 km/h
1050 08-02-2008 00:00:00 2.41167 C 3.87 g/m*3 2.41 C 0 km/h
Sensor: Nr:Datum:Temp:Abs-Feuchte:Windchill:Wind:
Aussen-T/F 1051 09-02-2008 00:00:00 2.61833 C 3.61 g/m*3 2.62 C 0 km/h
1052 10-02-2008 00:00:00 2.41333 C 3.74 g/m*3 2.41 C 0 km/h
1053 11-02-2008 00:00:00 3.10083 C 4.4 g/m*3 3.1 C 0 km/h
1054 12-02-2008 00:00:00 2.92667 C 4.49 g/m*3 2.93 C 0 km/h
1055 13-02-2008 00:00:00 2.03193 C 4.33 g/m*3 2.03 C 0 km/h
1056 14-02-2008 00:00:00 0.96667 C 4.4 g/m*3 0.97 C 0 km/h
1057 15-02-2008 00:00:00 2.4125 C 3.13 g/m*3 2.41 C 0 km/h
1058 16-02-2008 00:00:00 -0.75333 C 2.03 g/m*3 -0.75 C 0 km/h
1059 17-02-2008 00:00:00 -1.21667 C 2.05 g/m*3 -1.22 C 0 km/h
1060 18-02-2008 00:00:00 -0.28333 C 2.13 g/m*3 -0.28 C 0 km/h
1061 19-02-2008 00:00:00 0.85417 C 2.54 g/m*3 0.85 C 0 km/h
1062 20-02-2008 00:00:00 1.65 C 4.49 g/m*3 1.65 C 0 km/h
1063 21-02-2008 00:00:00 6.5725 C 5.76 g/m*3 6.57 C 0 km/h
1064 22-02-2008 00:00:00 9.70667 C 5.88 g/m*3 9.71 C 0 km/h
1065 23-02-2008 00:00:00 9.48833 C 5.6 g/m*3 9.49 C 0 km/h
1066 24-02-2008 00:00:00 6.65583 C 5.66 g/m*3 6.66 C 0 km/h
1067 25-02-2008 00:00:00 9.93833 C 6.06 g/m*3 9.94 C 0 km/h
1068 26-02-2008 00:00:00 11.1075 C 6.49 g/m*3 11.11 C 0 km/h
1069 27-02-2008 00:00:00 7.70168 C 4.44 g/m*3 7.7 C 0 km/h
1070 28-02-2008 00:00:00 7.6125 C 4.89 g/m*3 7.61 C 0 km/h
1071 29-02-2008 00:00:00 8.7625 C 7.16 g/m*3 8.76 C 0 km/h
1072 01-03-2008 00:00:00 9.4675 C 4.85 g/m*3 9.47 C 0 km/h
1073 02-03-2008 00:00:00 11.1725 C 5.33 g/m*3 11.17 C 0 km/h
1074 03-03-2008 00:00:00 7.56583 C 4.08 g/m*3 7.57 C 0 km/h
1075 04-03-2008 00:00:00 2.7525 C 4.06 g/m*3 2.75 C 0 km/h
Sensor: Nr:Datum:Temp:Abs-Feuchte:Windchill:Wind:
Aussen-T/F 1076 05-03-2008 00:00:00 1.71 C 3.03 g/m*3 1.71 C 0 km/h
1077 06-03-2008 00:00:00 2.81917 C 2.99 g/m*3 2.82 C 0 km/h
1078 07-03-2008 00:00:00 6.93833 C 4.72 g/m*3 6.94 C 0 km/h
1079 08-03-2008 00:00:00 6.94667 C 4.5 g/m*3 6.95 C 0 km/h
1080 09-03-2008 00:00:00 8.06667 C 4.11 g/m*3 8.07 C 0 km/h
1081 10-03-2008 00:00:00 8.22941 C 4.32 g/m*3 8.23 C 0 km/h
1082 11-03-2008 00:00:00 8.355 C 5.31 g/m*3 8.36 C 0 km/h
1083 12-03-2008 00:00:00 9.11833 C 4.2 g/m*3 9.12 C 0 km/h
1084 13-03-2008 00:00:00 7.62667 C 4.06 g/m*3 7.63 C 0 km/h
1085 14-03-2008 00:00:00 9.14417 C 5.77 g/m*3 9.14 C 0 km/h
1086 15-03-2008 00:00:00 9.33 C 5.42 g/m*3 9.33 C 0 km/h
1087 16-03-2008 00:00:00 9.8675 C 6.68 g/m*3 9.87 C 0 km/h
1088 17-03-2008 00:00:00 5.94583 C 3.99 g/m*3 5.95 C 0 km/h
1089 18-03-2008 00:00:00 4.26083 C 3.07 g/m*3 4.26 C 0 km/h
1090 19-03-2008 00:00:00 3.37083 C 3.9 g/m*3 3.37 C 0 km/h
1091 20-03-2008 00:00:00 3.89083 C 4.07 g/m*3 3.89 C 0 km/h
1092 21-03-2008 00:00:00 3.9975 C 4.22 g/m*3 4 C 0 km/h
1093 22-03-2008 00:00:00 2.82917 C 4.71 g/m*3 2.83 C 0 km/h
1094 23-03-2008 00:00:00 1.56639 C 2.31 g/m*3 1.57 C 0 km/h
1095 24-03-2008 00:00:00 -0.00917 C 3.2 g/m*3 -0.01 C 0 km/h
1096 25-03-2008 00:00:00 1.51333 C 3.09 g/m*3 1.51 C 0 km/h
1097 26-03-2008 00:00:00 2.39667 C 4.29 g/m*3 2.4 C 0 km/h
1098 27-03-2008 00:00:00 5.29417 C 5.44 g/m*3 5.29 C 0 km/h
1099 28-03-2008 00:00:00 8.15333 C 4.14 g/m*3 8.15 C 0 km/h
1100 29-03-2008 00:00:00 9.55083 C 3.95 g/m*3 9.55 C 0 km/h
Sensor: Nr:Datum:Temp:Abs-Feuchte:Windchill:Wind:
Aussen-T/F 1101 30-03-2008 00:00:00 13.03217 C 4.01 g/m*3 13.03 C 0 km/h
1102 31-03-2008 00:00:00 11.98333 C 5.6 g/m*3 11.98 C 0 km/h
1103 01-04-2008 00:00:00 10.06833 C 5.37 g/m*3 10.07 C 0 km/h
1104 02-04-2008 00:00:00 9.77417 C 5.52 g/m*3 9.77 C 0 km/h
1105 03-04-2008 00:00:00 7.48 C 5.75 g/m*3 7.48 C 0 km/h
1106 04-04-2008 00:00:00 9.15583 C 5.79 g/m*3 9.16 C 0 km/h
1107 05-04-2008 00:00:00 7.49076 C 6.73 g/m*3 7.49 C 0 km/h
1108 06-04-2008 00:00:00 3.825 C 5.64 g/m*3 3.83 C 0 km/h
1109 07-04-2008 00:00:00 1.36917 C 4.88 g/m*3 1.37 C 0 km/h
1110 08-04-2008 00:00:00 3.57833 C 4.72 g/m*3 3.58 C 0 km/h
1111 09-04-2008 00:00:00 5.82833 C 5.5 g/m*3 5.83 C 0 km/h
1112 10-04-2008 00:00:00 8.76917 C 5.74 g/m*3 8.77 C 0 km/h
1113 11-04-2008 00:00:00 8.235 C 6.34 g/m*3 8.24 C 0 km/h
1114 12-04-2008 00:00:00 8.02 C 5.41 g/m*3 8.02 C 0 km/h
1115 13-04-2008 00:00:00 9.70833 C 6.56 g/m*3 9.71 C 0 km/h
1116 14-04-2008 00:00:00 7.63083 C 6.9 g/m*3 7.63 C 0 km/h
1117 15-04-2008 00:00:00 6.56083 C 5.99 g/m*3 6.56 C 0 km/h
1118 16-04-2008 00:00:00 6.30083 C 4.78 g/m*3 6.3 C 0 km/h
1119 17-04-2008 00:00:00 6.47227 C 4.04 g/m*3 6.47 C 0 km/h
1120 18-04-2008 00:00:00 9.94 C 4.58 g/m*3 9.94 C 0 km/h
1121 19-04-2008 00:00:00 8.41667 C 6.18 g/m*3 8.42 C 0 km/h
1122 20-04-2008 00:00:00 12.42417 C 7.14 g/m*3 12.42 C 0 km/h
1123 21-04-2008 00:00:00 12.98833 C 6.29 g/m*3 12.99 C 0 km/h
1124 22-04-2008 00:00:00 12.95917 C 5.98 g/m*3 12.96 C 0 km/h
1125 23-04-2008 00:00:00 13.95083 C 6.27 g/m*3 13.95 C 0 km/h
Sensor: Nr:Datum:Temp:Abs-Feuchte:Windchill:Wind:
Aussen-T/F 1126 24-04-2008 00:00:00 15.095 C 7.14 g/m*3 15.1 C 0 km/h
1127 25-04-2008 00:00:00 12.67583 C 6.12 g/m*3 12.68 C 0 km/h
1128 26-04-2008 00:00:00 14.51833 C 6.16 g/m*3 14.52 C 0 km/h
1129 27-04-2008 00:00:00 15.87667 C 5.79 g/m*3 15.88 C 0 km/h
1130 28-04-2008 00:00:00 13.4125 C 8.14 g/m*3 13.41 C 0 km/h
1131 29-04-2008 00:00:00 13.07667 C 6.39 g/m*3 13.08 C 0 km/h
1132 30-04-2008 00:00:00 13.76639 C 5.33 g/m*3 13.77 C 0 km/h
1133 01-05-2008 00:00:00 11.62583 C 5.8 g/m*3 11.63 C 0 km/h
1134 02-05-2008 00:00:00 12.97583 C 6.28 g/m*3 12.98 C 0 km/h
1135 03-05-2008 00:00:00 14.47667 C 6.5 g/m*3 14.48 C 0 km/h
1136 04-05-2008 00:00:00 17.15667 C 5.91 g/m*3 17.16 C 0 km/h
1137 05-05-2008 00:00:00 16.51 C 5.51 g/m*3 16.51 C 0 km/h
1138 06-05-2008 00:00:00 18.36833 C 7.67 g/m*3 18.37 C 0 km/h
1139 07-05-2008 00:00:00 19.48083 C 7 g/m*3 19.48 C 0 km/h
1140 08-05-2008 00:00:00 19.40583 C 6.98 g/m*3 19.41 C 0 km/h
1141 09-05-2008 00:00:00 20.20083 C 7.05 g/m*3 20.2 C 0 km/h
1142 10-05-2008 00:00:00 21.22917 C 7.16 g/m*3 21.23 C 0 km/h
1143 11-05-2008 00:00:00 21.15714 C 6.43 g/m*3 21.16 C 0 km/h
1144 12-05-2008 00:00:00 21.02017 C 6.74 g/m*3 21.02 C 0 km/h
1145 13-05-2008 00:00:00 21.3175 C 7.09 g/m*3 21.32 C 0 km/h
1146 14-05-2008 00:00:00 21.27167 C 7.79 g/m*3 21.27 C 0 km/h
1147 15-05-2008 00:00:00 18.93333 C 8.92 g/m*3 18.93 C 0 km/h
1148 16-05-2008 00:00:00 18.3725 C 9.69 g/m*3 18.37 C 0 km/h
1149 17-05-2008 00:00:00 17.11167 C 10.03 g/m*3 17.11 C 0 km/h
1150 18-05-2008 00:00:00 14.09583 C 8.38 g/m*3 14.1 C 0 km/h
Sensor: Nr:Datum:Temp:Abs-Feuchte:Windchill:Wind:
Aussen-T/F 1151 19-05-2008 00:00:00 14.61833 C 5.61 g/m*3 14.62 C 0 km/h
1152 20-05-2008 00:00:00 15.59417 C 4.92 g/m*3 15.59 C 0 km/h
1153 21-05-2008 00:00:00 16.93833 C 4.74 g/m*3 16.94 C 0 km/h
1154 22-05-2008 00:00:00 18.32417 C 5.49 g/m*3 18.32 C 0 km/h
1155 23-05-2008 00:00:00 19.045 C 6.46 g/m*3 19.05 C 0 km/h
1156 24-05-2008 00:00:00 18.23 C 7.82 g/m*3 18.23 C 0 km/h
1157 25-05-2008 00:00:00 21.65462 C 9.39 g/m*3 21.65 C 0 km/h
1158 26-05-2008 00:00:00 21.2775 C 11.27 g/m*3 21.28 C 0 km/h
1159 27-05-2008 00:00:00 22.17167 C 12.27 g/m*3 22.17 C 0 km/h
1160 28-05-2008 00:00:00 23.79417 C 10.23 g/m*3 23.79 C 0 km/h
1161 29-05-2008 00:00:00 23.08917 C 11.47 g/m*3 23.09 C 0 km/h
1162 30-05-2008 00:00:00 20.37 C 13.32 g/m*3 20.37 C 0 km/h
1163 31-05-2008 00:00:00 17.68917 C 12.05 g/m*3 17.69 C 0 km/h
1164 01-06-2008 00:00:00 21.38917 C 11.64 g/m*3 21.39 C 0 km/h
1165 02-06-2008 00:00:00 23.66833 C 12.72 g/m*3 23.67 C 0 km/h
1166 03-06-2008 00:00:00 21.2825 C 11.09 g/m*3 21.28 C 0 km/h
1167 04-06-2008 00:00:00 19.19833 C 11.48 g/m*3 19.2 C 0 km/h
1168 05-06-2008 00:00:00 20.67731 C 12.57 g/m*3 20.68 C 0 km/h
1169 06-06-2008 00:00:00 21.07333 C 10.91 g/m*3 21.07 C 0 km/h
1170 07-06-2008 00:00:00 19.84417 C 10.51 g/m*3 19.84 C 0 km/h
1171 08-06-2008 00:00:00 20.63167 C 10.52 g/m*3 20.63 C 0 km/h
1172 09-06-2008 00:00:00 22.875 C 10.01 g/m*3 22.88 C 0 km/h
1173 10-06-2008 00:00:00 23.51583 C 9.23 g/m*3 23.52 C 0 km/h
1174 11-06-2008 00:00:00 18.4725 C 7.23 g/m*3 18.47 C 0 km/h
1175 12-06-2008 00:00:00 12.7425 C 7.69 g/m*3 12.74 C 0 km/h
Sensor: Nr:Datum:Temp:Abs-Feuchte:Windchill:Wind:
Aussen-T/F 1176 13-06-2008 00:00:00 13.67167 C 7.09 g/m*3 13.67 C 0 km/h
1177 14-06-2008 00:00:00 13.75917 C 7.2 g/m*3 13.76 C 0 km/h
1178 15-06-2008 00:00:00 13.75333 C 8.27 g/m*3 13.75 C 0 km/h
1179 16-06-2008 00:00:00 16.2275 C 7.7 g/m*3 16.23 C 0 km/h
1180 17-06-2008 00:00:00 17.34333 C 7.29 g/m*3 17.34 C 0 km/h
1181 18-06-2008 00:00:00 20.30583 C 7.89 g/m*3 20.31 C 0 km/h
1182 19-06-2008 00:00:00 20.67417 C 8.05 g/m*3 20.67 C 0 km/h
1183 20-06-2008 00:00:00 18.32 C 8.63 g/m*3 18.32 C 0 km/h
1184 21-06-2008 00:00:00 23.24706 C 9.11 g/m*3 23.25 C 0 km/h
1185 22-06-2008 00:00:00 24.30833 C 11.76 g/m*3 24.31 C 0 km/h
1186 23-06-2008 00:00:00 22.40417 C 8.41 g/m*3 22.4 C 0 km/h
1187 24-06-2008 00:00:00 23.6325 C 8.33 g/m*3 23.63 C 0 km/h
1188 25-06-2008 00:00:00 22.66833 C 12.11 g/m*3 22.67 C 0 km/h
1189 26-06-2008 00:00:00 20.39833 C 8.44 g/m*3 20.4 C 0 km/h
1190 27-06-2008 00:00:00 18.72167 C 8.67 g/m*3 18.72 C 0 km/h
1191 28-06-2008 00:00:00 21.21 C 9.93 g/m*3 21.21 C 0 km/h
1192 29-06-2008 00:00:00 22.68667 C 9.85 g/m*3 22.69 C 0 km/h
1193 30-06-2008 00:00:00 22.95083 C 8.73 g/m*3 22.95 C 0 km/h
1194 01-07-2008 00:00:00 24.35583 C 9.2 g/m*3 24.36 C 0 km/h
1195 02-07-2008 00:00:00 26.47583 C 10.39 g/m*3 26.48 C 0 km/h
1196 03-07-2008 00:00:00 20.18992 C 12.77 g/m*3 20.19 C 0 km/h
1197 04-07-2008 00:00:00 19.38083 C 9.22 g/m*3 19.38 C 0 km/h
1198 05-07-2008 00:00:00 21.0575 C 8.87 g/m*3 21.06 C 0 km/h
1199 06-07-2008 00:00:00 21.2225 C 8.99 g/m*3 21.22 C 0 km/h
1200 07-07-2008 00:00:00 18.24917 C 8.13 g/m*3 18.25 C 0 km/h
Sensor: Nr:Datum:Temp:Abs-Feuchte:Windchill:Wind:
Aussen-T/F 1201 08-07-2008 00:00:00 17.2125 C 8.69 g/m*3 17.21 C 0 km/h
1202 09-07-2008 00:00:00 17.0525 C 8.83 g/m*3 17.05 C 0 km/h
1203 10-07-2008 00:00:00 22.32833 C 10.77 g/m*3 22.33 C 0 km/h
1204 11-07-2008 00:00:00 20.48167 C 11.17 g/m*3 20.48 C 0 km/h
1205 12-07-2008 00:00:00 17.645 C 9.92 g/m*3 17.65 C 0 km/h
1206 13-07-2008 00:00:00 17.8375 C 8.02 g/m*3 17.84 C 0 km/h
1207 14-07-2008 00:00:00 18.38 C 7.76 g/m*3 18.38 C 0 km/h
1208 15-07-2008 00:00:00 19.61978 C 8.34 g/m*3 19.62 C 0 km/h
1209 16-07-2008 00:00:00 20.38298 C 10.82 g/m*3 20.38 C 0 km/h
1210 17-07-2008 00:00:00 17.22917 C 8.94 g/m*3 17.23 C 0 km/h
1211 18-07-2008 00:00:00 16.58125 C 9.74 g/m*3 16.58 C 0 km/h
1212 19-07-2008 00:00:00 19.61667 C 9.94 g/m*3 19.62 C 0 km/h
1213 20-07-2008 00:00:00 15.48542 C 9.13 g/m*3 15.49 C 0 km/h
1214 21-07-2008 00:00:00 12.62917 C 8.41 g/m*3 12.63 C 0 km/h
1215 22-07-2008 00:00:00 14.56042 C 9.4 g/m*3 14.56 C 0 km/h
1216 23-07-2008 00:00:00 18.94375 C 9.57 g/m*3 18.94 C 0 km/h
1217 24-07-2008 00:00:00 22.13958 C 9.31 g/m*3 22.14 C 0 km/h
1218 25-07-2008 00:00:00 24.55625 C 9.56 g/m*3 24.56 C 0 km/h
1219 26-07-2008 00:00:00 23.54792 C 12.42 g/m*3 23.55 C 0 km/h
1220 27-07-2008 00:00:00 23.20625 C 13.92 g/m*3 23.21 C 0 km/h
1221 28-07-2008 00:00:00 25.10833 C 12.45 g/m*3 25.11 C 0 km/h
1222 29-07-2008 00:00:00 24.49792 C 12.1 g/m*3 24.5 C 0 km/h
1223 30-07-2008 00:00:00 23.67292 C 12.74 g/m*3 23.67 C 0 km/h
1224 31-07-2008 00:00:00 24.69792 C 13.38 g/m*3 24.7 C 0 km/h
1225 01-08-2008 00:00:00 24.97917 C 10.83 g/m*3 24.98 C 0 km/h
Sensor: Nr:Datum:Temp:Abs-Feuchte:Windchill:Wind:
Aussen-T/F 1226 02-08-2008 00:00:00 21.29792 C 9.43 g/m*3 21.3 C 0 km/h
1227 03-08-2008 00:00:00 23.42561 C 10.97 g/m*3 23.43 C 0 km/h
1228 04-08-2008 00:00:00 21.85083 C 10.01 g/m*3 21.85 C 0 km/h
1229 05-08-2008 00:00:00 20.3125 C 8.72 g/m*3 20.31 C 0 km/h
1230 06-08-2008 00:00:00 24.05417 C 10.21 g/m*3 24.05 C 0 km/h
1231 07-08-2008 00:00:00 24.29583 C 11.12 g/m*3 24.3 C 0 km/h
1232 08-08-2008 00:00:00 18.50948 C 11.78 g/m*3 18.51 C 0 km/h
1233 09-08-2008 00:00:00 19.32 C 9.06 g/m*3 19.32 C 0 km/h
1234 10-08-2008 00:00:00 20.1 C 9.41 g/m*3 20.1 C 0 km/h
1235 11-08-2008 00:00:00 20.59748 C 9.44 g/m*3 20.6 C 0 km/h
1236 12-08-2008 00:00:00 18.91833 C 12.54 g/m*3 18.92 C 0 km/h
1237 13-08-2008 00:00:00 18.3525 C 8.74 g/m*3 18.35 C 0 km/h
1238 14-08-2008 00:00:00 19.14917 C 7.79 g/m*3 19.15 C 0 km/h
1239 15-08-2008 00:00:00 18.3625 C 8.19 g/m*3 18.36 C 0 km/h
1240 16-08-2008 00:00:00 18.89 C 8.44 g/m*3 18.89 C 0 km/h
1241 17-08-2008 00:00:00 19.10252 C 8.4 g/m*3 19.1 C 0 km/h
1242 18-08-2008 00:00:00 21.21 C 10.7 g/m*3 21.21 C 0 km/h
1243 19-08-2008 00:00:00 20.7925 C 9.67 g/m*3 20.79 C 0 km/h
1244 20-08-2008 00:00:00 18.82 C 9.37 g/m*3 18.82 C 0 km/h
1245 21-08-2008 00:00:00 19.6375 C 8.99 g/m*3 19.64 C 0 km/h
1246 22-08-2008 00:00:00 18.45333 C 11.1 g/m*3 18.45 C 0 km/h
1247 23-08-2008 00:00:00 14.95083 C 9.15 g/m*3 14.95 C 0 km/h
1248 24-08-2008 00:00:00 16.59333 C 8.67 g/m*3 16.59 C 0 km/h
1249 25-08-2008 00:00:00 17.43583 C 10.93 g/m*3 17.44 C 0 km/h
1250 26-08-2008 00:00:00 19.2725 C 10.13 g/m*3 19.27 C 0 km/h
Sensor: Nr:Datum:Temp:Abs-Feuchte:Windchill:Wind:
Aussen-T/F 1251 27-08-2008 00:00:00 19.89833 C 10.62 g/m*3 19.9 C 0 km/h
1252 28-08-2008 00:00:00 20.35417 C 9.37 g/m*3 20.35 C 0 km/h
1253 29-08-2008 00:00:00 20.84454 C 9.74 g/m*3 20.84 C 0 km/h
1254 30-08-2008 00:00:00 21.35167 C 10.94 g/m*3 21.35 C 0 km/h
1255 31-08-2008 00:00:00 22.25917 C 10.49 g/m*3 22.26 C 0 km/h
1256 01-09-2008 00:00:00 20.93917 C 10.36 g/m*3 20.94 C 0 km/h
1257 02-09-2008 00:00:00 19.11333 C 9.31 g/m*3 19.11 C 0 km/h
1258 03-09-2008 00:00:00 15.21083 C 10.42 g/m*3 15.21 C 0 km/h
1259 04-09-2008 00:00:00 13.7025 C 7.94 g/m*3 13.7 C 0 km/h
1260 05-09-2008 00:00:00 16.9775 C 10.5 g/m*3 16.98 C 0 km/h
1261 06-09-2008 00:00:00 17.5625 C 11.38 g/m*3 17.56 C 0 km/h
1262 07-09-2008 00:00:00 16.83583 C 9.34 g/m*3 16.84 C 0 km/h
1263 08-09-2008 00:00:00 17.9741 C 8.43 g/m*3 17.97 C 0 km/h
1264 09-09-2008 00:00:00 18.12014 C 9.04 g/m*3 18.12 C 0 km/h
1265 10-09-2008 00:00:00 21.10243 C 10.72 g/m*3 21.1 C 0 km/h
1266 11-09-2008 00:00:00 19.94479 C 12.52 g/m*3 19.94 C 0 km/h
1267 12-09-2008 00:00:00 16.69236 C 12.91 g/m*3 16.69 C 0 km/h
1268 13-09-2008 00:00:00 12.63937 C 10.07 g/m*3 12.64 C 0 km/h
1269 14-09-2008 00:00:00 11.66215 C 6.19 g/m*3 11.66 C 0 km/h
1270 15-09-2008 00:00:00 10.27153 C 7.08 g/m*3 10.27 C 0 km/h
1271 16-09-2008 00:00:00 11.32014 C 7.11 g/m*3 11.32 C 0 km/h
1272 17-09-2008 00:00:00 11.34948 C 5.77 g/m*3 11.35 C 0 km/h
1273 18-09-2008 00:00:00 10.63264 C 5.3 g/m*3 10.63 C 0 km/h
1274 19-09-2008 00:00:00 10.48333 C 6.14 g/m*3 10.48 C 0 km/h
1275 20-09-2008 00:00:00 11.00556 C 6.26 g/m*3 11.01 C 0 km/h
Sensor: Nr:Datum:Temp:Abs-Feuchte:Windchill:Wind:
Aussen-T/F 1276 21-09-2008 00:00:00 11.67222 C 6.89 g/m*3 11.67 C 0 km/h
1277 22-09-2008 00:00:00 12.57108 C 7.54 g/m*3 12.57 C 0 km/h
1278 23-09-2008 00:00:00 12.21111 C 8.35 g/m*3 12.21 C 0 km/h
1279 24-09-2008 00:00:00 13.30799 C 9.32 g/m*3 13.31 C 0 km/h
1280 25-09-2008 00:00:00 12.56736 C 7.77 g/m*3 12.57 C 0 km/h
1281 26-09-2008 00:00:00 12.00521 C 7.09 g/m*3 12.01 C 0 km/h
1282 27-09-2008 00:00:00 11.93693 C 7.15 g/m*3 11.94 C 0 km/h
1283 28-09-2008 00:00:00 11.96493 C 7.21 g/m*3 11.96 C 0 km/h
1284 29-09-2008 00:00:00 11.47396 C 7.33 g/m*3 11.47 C 0 km/h
1285 30-09-2008 00:00:00 10.38611 C 7.67 g/m*3 10.39 C 0 km/h
1286 01-10-2008 00:00:00 13.07222 C 8.43 g/m*3 13.07 C 0 km/h
1287 02-10-2008 00:00:00 10.70244 C 6.41 g/m*3 10.7 C 0 km/h
1288 03-10-2008 00:00:00 8.94063 C 6.04 g/m*3 8.94 C 0 km/h
1289 04-10-2008 00:00:00 9.76632 C 5.66 g/m*3 9.77 C 0 km/h
1290 05-10-2008 00:00:00 11.69062 C 6.1 g/m*3 11.69 C 0 km/h
1291 06-10-2008 00:00:00 14.79306 C 10.16 g/m*3 14.79 C 0 km/h
1292 07-10-2008 00:00:00 15.17875 C 10.24 g/m*3 15.18 C 0 km/h
1293 08-10-2008 00:00:00 13.26389 C 10.6 g/m*3 13.26 C 0 km/h
1294 09-10-2008 00:00:00 13.20937 C 8.82 g/m*3 13.21 C 0 km/h
1295 10-10-2008 00:00:00 13.01806 C 8.66 g/m*3 13.02 C 0 km/h
1296 11-10-2008 00:00:00 13.2125 C 9 g/m*3 13.21 C 0 km/h
1297 12-10-2008 00:00:00 15.40729 C 9.68 g/m*3 15.41 C 0 km/h
1298 13-10-2008 00:00:00 14.40976 C 9.47 g/m*3 14.41 C 0 km/h
1299 14-10-2008 00:00:00 15.63438 C 9.35 g/m*3 15.63 C 0 km/h
1300 15-10-2008 00:00:00 13.57361 C 8.88 g/m*3 13.57 C 0 km/h
Sensor: Nr:Datum:Temp:Abs-Feuchte:Windchill:Wind:
Aussen-T/F 1301 16-10-2008 00:00:00 11.59444 C 8.43 g/m*3 11.59 C 0 km/h
1302 17-10-2008 00:00:00 8.00313 C 6.15 g/m*3 8 C 0 km/h
1303 18-10-2008 00:00:00 7.10488 C 5.92 g/m*3 7.1 C 0 km/h
1304 19-10-2008 00:00:00 8.10521 C 6.25 g/m*3 8.11 C 0 km/h
1305 20-10-2008 00:00:00 9.83646 C 7.21 g/m*3 9.84 C 0 km/h
1306 21-10-2008 00:00:00 13.12986 C 9.32 g/m*3 13.13 C 0 km/h
1307 22-10-2008 00:00:00 9.36528 C 7.49 g/m*3 9.37 C 0 km/h
1308 23-10-2008 00:00:00 9.2115 C 6.5 g/m*3 9.21 C 0 km/h
1309 24-10-2008 00:00:00 7.4434 C 6.07 g/m*3 7.44 C 0 km/h
1310 25-10-2008 00:00:00 10.48151 C 7.39 g/m*3 10.48 C 0 km/h
1311 26-10-2008 00:00:00 10.725 C 6.55 g/m*3 10.73 C 0 km/h
1312 27-10-2008 00:00:00 10.21724 C 7.98 g/m*3 10.22 C 0 km/h
1313 28-10-2008 00:00:00 6.92456 C 6.29 g/m*3 6.92 C 0 km/h
1314 29-10-2008 00:00:00 5.45 C 5.63 g/m*3 5.45 C 0 km/h
1315 30-10-2008 00:00:00 4.78947 C 6 g/m*3 4.79 C 0 km/h
1316 31-10-2008 00:00:00 5.97414 C 6.34 g/m*3 5.97 C 0 km/h
1317 01-11-2008 00:00:00 7.97414 C 7.15 g/m*3 7.97 C 0 km/h
1318 02-11-2008 00:00:00 9.98772 C 7.86 g/m*3 9.99 C 0 km/h
1319 03-11-2008 00:00:00 9.82241 C 7.83 g/m*3 9.82 C 0 km/h
1320 04-11-2008 00:00:00 9.00351 C 7.82 g/m*3 9 C 0 km/h
1321 05-11-2008 00:00:00 9.79828 C 7.68 g/m*3 9.8 C 0 km/h
1322 06-11-2008 00:00:00 10.54483 C 7.37 g/m*3 10.54 C 0 km/h
1323 07-11-2008 00:00:00 10.79123 C 7.22 g/m*3 10.79 C 0 km/h
1324 08-11-2008 00:00:00 8.24828 C 6.77 g/m*3 8.25 C 0 km/h
1325 09-11-2008 00:00:00 8.89583 C 7.31 g/m*3 8.9 C 0 km/h
Sensor: Nr:Datum:Temp:Abs-Feuchte:Windchill:Wind:
Aussen-T/F 1326 10-11-2008 00:00:00 13.98833 C 7.91 g/m*3 13.99 C 0 km/h
1327 11-11-2008 00:00:00 12.73917 C 6.46 g/m*3 12.74 C 0 km/h
1328 12-11-2008 00:00:00 8.5175 C 6.56 g/m*3 8.52 C 0 km/h
1329 13-11-2008 00:00:00 6.40667 C 6.06 g/m*3 6.41 C 0 km/h
1330 14-11-2008 00:00:00 5.60833 C 5.47 g/m*3 5.61 C 0 km/h
1331 15-11-2008 00:00:00 9.82083 C 7.04 g/m*3 9.82 C 0 km/h
1332 16-11-2008 00:00:00 9.9375 C 7.83 g/m*3 9.94 C 0 km/h
1333 17-11-2008 00:00:00 4.03167 C 5.46 g/m*3 4.03 C 0 km/h
1334 18-11-2008 00:00:00 4.76417 C 5.59 g/m*3 4.76 C 0 km/h
1335 19-11-2008 00:00:00 7.7775 C 6.09 g/m*3 7.78 C 0 km/h
1336 20-11-2008 00:00:00 9.54 C 6.58 g/m*3 9.54 C 0 km/h
1337 21-11-2008 00:00:00 5.21083 C 5.22 g/m*3 5.21 C 0 km/h
1338 22-11-2008 00:00:00 1.08571 C 3.81 g/m*3 1.09 C 0 km/h
1339 23-11-2008 00:00:00 0.81333 C 4.11 g/m*3 0.81 C 0 km/h
1340 24-11-2008 00:00:00 1.92667 C 4.67 g/m*3 1.93 C 0 km/h
1341 25-11-2008 00:00:00 0.79667 C 4.51 g/m*3 0.8 C 0 km/h
1342 26-11-2008 00:00:00 2.38333 C 4.91 g/m*3 2.38 C 0 km/h
1343 27-11-2008 00:00:00 3.435 C 4.58 g/m*3 3.44 C 0 km/h
1344 28-11-2008 00:00:00 0.47667 C 3.78 g/m*3 0.48 C 0 km/h
1345 29-11-2008 00:00:00 0.98 C 4.13 g/m*3 0.98 C 0 km/h
1346 30-11-2008 00:00:00 1.12 C 4.72 g/m*3 1.12 C 0 km/h
1347 01-12-2008 00:00:00 0.30417 C 4.54 g/m*3 0.3 C 0 km/h
1348 02-12-2008 00:00:00 2.80917 C 4.97 g/m*3 2.81 C 0 km/h
1349 03-12-2008 00:00:00 1.785 C 4.91 g/m*3 1.79 C 0 km/h
1350 04-12-2008 00:00:00 1.92353 C 5.05 g/m*3 1.92 C 0 km/h
Sensor: Nr:Datum:Temp:Abs-Feuchte:Windchill:Wind:
Aussen-T/F 1351 05-12-2008 00:00:00 5.36 C 6.01 g/m*3 5.36 C 0 km/h
1352 06-12-2008 00:00:00 4.73 C 5.89 g/m*3 4.73 C 0 km/h
1353 07-12-2008 00:00:00 3.85333 C 5.78 g/m*3 3.85 C 0 km/h
1354 08-12-2008 00:00:00 0.26917 C 4.58 g/m*3 0.27 C 0 km/h
1355 09-12-2008 00:00:00 0.56667 C 4.36 g/m*3 0.57 C 0 km/h
1356 10-12-2008 00:00:00 1.97667 C 5.17 g/m*3 1.98 C 0 km/h
1357 11-12-2008 00:00:00 1.4775 C 4.54 g/m*3 1.48 C 0 km/h
1358 12-12-2008 00:00:00 -0.23583 C 3.8 g/m*3 -0.24 C 0 km/h
1359 13-12-2008 00:00:00 -0.26167 C 3.56 g/m*3 -0.26 C 0 km/h
1360 14-12-2008 00:00:00 0.28083 C 4.24 g/m*3 0.28 C 0 km/h
1361 15-12-2008 00:00:00 -0.1075 C 4.53 g/m*3 -0.11 C 0 km/h
1362 16-12-2008 00:00:00 0.42521 C 4.59 g/m*3 0.43 C 0 km/h
1363 17-12-2008 00:00:00 -0.0375 C 4.31 g/m*3 -0.04 C 0 km/h
1364 18-12-2008 00:00:00 2.15083 C 5.01 g/m*3 2.15 C 0 km/h
1365 19-12-2008 00:00:00 4.22333 C 5.23 g/m*3 4.22 C 0 km/h
1366 20-12-2008 00:00:00 6.45667 C 6.48 g/m*3 6.46 C 0 km/h
1367 21-12-2008 00:00:00 7.94917 C 6.81 g/m*3 7.95 C 0 km/h
1368 22-12-2008 00:00:00 8.47167 C 6.7 g/m*3 8.47 C 0 km/h
1369 23-12-2008 00:00:00 6.21417 C 5.86 g/m*3 6.21 C 0 km/h
1370 24-12-2008 00:00:00 4.55833 C 5.62 g/m*3 4.56 C 0 km/h
1371 25-12-2008 00:00:00 4.40252 C 4.56 g/m*3 4.4 C 0 km/h
1372 26-12-2008 00:00:00 -1.1875 C 2.6 g/m*3 -1.19 C 0 km/h
1373 27-12-2008 00:00:00 -1.85667 C 2.56 g/m*3 -1.86 C 0 km/h
1374 28-12-2008 00:00:00 -3.02917 C 2.53 g/m*3 -3.03 C 0 km/h
1375 29-12-2008 00:00:00 -5.49833 C 2.6 g/m*3 -5.5 C 0 km/h
Sensor: Nr:Datum:Temp:Abs-Feuchte:Windchill:Wind:
Aussen-T/F 1376 30-12-2008 00:00:00 -6.21833 C 2.53 g/m*3 -6.22 C 0 km/h
1377 31-12-2008 00:00:00 -4.32583 C 2.92 g/m*3 -4.33 C 0 km/h
1378 01-01-2009 00:00:00 -3.46417 C 2.96 g/m*3 -3.46 C 0 km/h
1379 02-01-2009 00:00:00 -2.03917 C 3.39 g/m*3 -2.04 C 0 km/h
1380 03-01-2009 00:00:00 -3.57 C 2.96 g/m*3 -3.57 C 0 km/h
1381 04-01-2009 00:00:00 -1.06833 C 2.96 g/m*3 -1.07 C 0 km/h
1382 05-01-2009 00:00:00 -1.23866 C 3.28 g/m*3 -1.24 C 0 km/h
1383 06-01-2009 00:00:00 -6.97 C 1.26 g/m*3 -6.97 C 0 km/h
1384 07-01-2009 00:00:00 -10.99167 C 1.39 g/m*3 -10.99 C 0 km/h
1385 08-01-2009 00:00:00 -6.02083 C 2.27 g/m*3 -6.02 C 0 km/h
1386 09-01-2009 00:00:00 -11.165 C 1.54 g/m*3 -11.17 C 0 km/h
1387 10-01-2009 00:00:00 -11.3175 C 1.53 g/m*3 -11.32 C 0 km/h
1388 11-01-2009 00:00:00 -8.9975 C 1.92 g/m*3 -9 C 0 km/h
1389 12-01-2009 00:00:00 -7.30417 C 2.15 g/m*3 -7.3 C 0 km/h
1390 13-01-2009 00:00:00 -0.17833 C 3.29 g/m*3 -0.18 C 0 km/h
1391 14-01-2009 00:00:00 -0.15917 C 4.05 g/m*3 -0.16 C 0 km/h
1392 15-01-2009 00:00:00 0.77417 C 4.28 g/m*3 0.77 C 0 km/h
1393 16-01-2009 00:00:00 0.69833 C 3.9 g/m*3 0.7 C 0 km/h
1394 17-01-2009 00:00:00 2.97833 C 4.9 g/m*3 2.98 C 0 km/h
1395 18-01-2009 00:00:00 4.50924 C 5.1 g/m*3 4.51 C 0 km/h
1396 19-01-2009 00:00:00 5.4575 C 5.21 g/m*3 5.46 C 0 km/h
1397 20-01-2009 00:00:00 3.6475 C 4.19 g/m*3 3.65 C 0 km/h
1398 21-01-2009 00:00:00 0.32 C 4.11 g/m*3 0.32 C 0 km/h
1399 22-01-2009 00:00:00 2.825 C 4.02 g/m*3 2.83 C 0 km/h
1400 23-01-2009 00:00:00 4.345 C 5.29 g/m*3 4.35 C 0 km/h
Sensor: Nr:Datum:Temp:Abs-Feuchte:Windchill:Wind:
Aussen-T/F 1401 24-01-2009 00:00:00 3.13 C 4.29 g/m*3 3.13 C 0 km/h
1402 25-01-2009 00:00:00 0.15167 C 4.08 g/m*3 0.15 C 0 km/h
1403 26-01-2009 00:00:00 -2.16917 C 3.69 g/m*3 -2.17 C 0 km/h
1404 27-01-2009 00:00:00 -0.93167 C 3.93 g/m*3 -0.93 C 0 km/h
1405 28-01-2009 00:00:00 0.50833 C 4.02 g/m*3 0.51 C 0 km/h
1406 29-01-2009 00:00:00 1.15667 C 3.12 g/m*3 1.16 C 0 km/h
1407 30-01-2009 00:00:00 -1.50917 C 3.06 g/m*3 -1.51 C 0 km/h
1408 31-01-2009 00:00:00 0.06303 C 2.59 g/m*3 0.06 C 0 km/h
1409 01-02-2009 00:00:00 -0.11167 C 2.24 g/m*3 -0.11 C 0 km/h
1410 02-02-2009 00:00:00 1.085 C 2.84 g/m*3 1.09 C 0 km/h
1411 03-02-2009 00:00:00 0.63833 C 3.81 g/m*3 0.64 C 0 km/h
1412 04-02-2009 00:00:00 3.0025 C 4.61 g/m*3 3 C 0 km/h
1413 05-02-2009 00:00:00 3.2325 C 4.69 g/m*3 3.23 C 0 km/h
1414 06-02-2009 00:00:00 4.3 C 5.03 g/m*3 4.3 C 0 km/h
1415 07-02-2009 00:00:00 4.03417 C 5.27 g/m*3 4.03 C 0 km/h
1416 08-02-2009 00:00:00 2.6525 C 3.3 g/m*3 2.65 C 0 km/h
1417 09-02-2009 00:00:00 2.3775 C 3.79 g/m*3 2.38 C 0 km/h
1418 10-02-2009 00:00:00 4.155 C 5.17 g/m*3 4.16 C 0 km/h
1419 11-02-2009 00:00:00 2.90333 C 3.62 g/m*3 2.9 C 0 km/h
1420 12-02-2009 00:00:00 0.68908 C 3.9 g/m*3 0.69 C 0 km/h
1421 13-02-2009 00:00:00 0.51333 C 4.05 g/m*3 0.51 C 0 km/h
1422 14-02-2009 00:00:00 0.46083 C 3.41 g/m*3 0.46 C 0 km/h
1423 15-02-2009 00:00:00 -1.63583 C 2.82 g/m*3 -1.64 C 0 km/h
1424 16-02-2009 00:00:00 1.96417 C 4.68 g/m*3 1.96 C 0 km/h
1425 17-02-2009 00:00:00 3.77167 C 5.13 g/m*3 3.77 C 0 km/h
Sensor: Nr:Datum:Temp:Abs-Feuchte:Windchill:Wind:
Aussen-T/F 1426 18-02-2009 00:00:00 -1.62667 C 2.39 g/m*3 -1.63 C 0 km/h
1427 19-02-2009 00:00:00 1.01417 C 2.7 g/m*3 1.01 C 0 km/h
1428 20-02-2009 00:00:00 3.41917 C 5.01 g/m*3 3.42 C 0 km/h
1429 21-02-2009 00:00:00 4.72083 C 4.87 g/m*3 4.72 C 0 km/h
1430 22-02-2009 00:00:00 5.24667 C 5.76 g/m*3 5.25 C 0 km/h
1431 23-02-2009 00:00:00 5.50083 C 4.72 g/m*3 5.5 C 0 km/h
1432 24-02-2009 00:00:00 4.8325 C 4.1 g/m*3 4.83 C 0 km/h
1433 25-02-2009 00:00:00 3.34286 C 4 g/m*3 3.34 C 0 km/h
1434 26-02-2009 00:00:00 6.7377 C 4.3 g/m*3 6.74 C 0 km/h
1435 27-02-2009 00:00:00 7.10417 C 5.5 g/m*3 7.1 C 0 km/h
1436 28-02-2009 00:00:00 10.0375 C 5.89 g/m*3 10.04 C 0 km/h
1437 01-03-2009 00:00:00 9.95 C 5.76 g/m*3 9.95 C 0 km/h
1438 02-03-2009 00:00:00 7.98 C 5.85 g/m*3 7.98 C 0 km/h
1439 03-03-2009 00:00:00 5.05583 C 3.94 g/m*3 5.06 C 0 km/h
1440 04-03-2009 00:00:00 7.27917 C 3.96 g/m*3 7.28 C 0 km/h
1441 05-03-2009 00:00:00 4.42917 C 5.35 g/m*3 4.43 C 0 km/h
1442 06-03-2009 00:00:00 3.82417 C 5.35 g/m*3 3.82 C 0 km/h
1443 07-03-2009 00:00:00 5.72167 C 3.85 g/m*3 5.72 C 0 km/h
1444 08-03-2009 00:00:00 7.50833 C 5.49 g/m*3 7.51 C 0 km/h
1445 09-03-2009 00:00:00 5.1521 C 4.17 g/m*3 5.15 C 0 km/h
1446 10-03-2009 00:00:00 5.4275 C 4.82 g/m*3 5.43 C 0 km/h
1447 11-03-2009 00:00:00 5.60417 C 4.35 g/m*3 5.6 C 0 km/h
1448 12-03-2009 00:00:00 5.67083 C 5.13 g/m*3 5.67 C 0 km/h
1449 13-03-2009 00:00:00 8.68167 C 5.63 g/m*3 8.68 C 0 km/h
1450 14-03-2009 00:00:00 8.925 C 5.68 g/m*3 8.93 C 0 km/h
Sensor: Nr:Datum:Temp:Abs-Feuchte:Windchill:Wind:
Aussen-T/F 1451 15-03-2009 00:00:00 9.41667 C 4.91 g/m*3 9.42 C 0 km/h
1452 16-03-2009 00:00:00 8.23417 C 5.83 g/m*3 8.23 C 0 km/h
1453 17-03-2009 00:00:00 7.73833 C 5.15 g/m*3 7.74 C 0 km/h
1454 18-03-2009 00:00:00 5.82417 C 3.93 g/m*3 5.82 C 0 km/h
1455 19-03-2009 00:00:00 5.41917 C 3.04 g/m*3 5.42 C 0 km/h
1456 20-03-2009 00:00:00 4.59917 C 2.69 g/m*3 4.6 C 0 km/h
1457 21-03-2009 00:00:00 5.07 C 2.81 g/m*3 5.07 C 0 km/h
1458 22-03-2009 00:00:00 5.16639 C 3.79 g/m*3 5.17 C 0 km/h
1459 23-03-2009 00:00:00 7.82917 C 4.91 g/m*3 7.83 C 0 km/h
1460 24-03-2009 00:00:00 3.67333 C 4.24 g/m*3 3.67 C 0 km/h
1461 25-03-2009 00:00:00 3.18417 C 4.69 g/m*3 3.18 C 0 km/h
1462 26-03-2009 00:00:00 6.40083 C 5.48 g/m*3 6.4 C 0 km/h
1463 27-03-2009 00:00:00 7.28333 C 5.31 g/m*3 7.28 C 0 km/h
1464 28-03-2009 00:00:00 6.97583 C 5.39 g/m*3 6.98 C 0 km/h
1465 29-03-2009 00:00:00 6.18435 C 4.96 g/m*3 6.18 C 0 km/h
1466 30-03-2009 00:00:00 6.41833 C 4.78 g/m*3 6.42 C 0 km/h
1467 31-03-2009 00:00:00 8.3325 C 4.49 g/m*3 8.33 C 0 km/h
1468 01-04-2009 00:00:00 10.89833 C 4.57 g/m*3 10.9 C 0 km/h
1469 02-04-2009 00:00:00 15.335 C 5.18 g/m*3 15.34 C 0 km/h
1470 03-04-2009 00:00:00 15.87143 C 6.71 g/m*3 15.87 C 0 km/h
1471 04-04-2009 00:00:00 16.68333 C 7.32 g/m*3 16.68 C 0 km/h
1472 05-04-2009 00:00:00 14.9675 C 6.93 g/m*3 14.97 C 0 km/h
1473 06-04-2009 00:00:00 14.72833 C 6.98 g/m*3 14.73 C 0 km/h
1474 07-04-2009 00:00:00 14.57333 C 7.41 g/m*3 14.57 C 0 km/h
1475 08-04-2009 00:00:00 14.20167 C 6.07 g/m*3 14.2 C 0 km/h
Sensor: Nr:Datum:Temp:Abs-Feuchte:Windchill:Wind:
Aussen-T/F 1476 09-04-2009 00:00:00 16.28067 C 7.49 g/m*3 16.28 C 0 km/h
1477 10-04-2009 00:00:00 18.55372 C 7.45 g/m*3 18.55 C 0 km/h
1478 11-04-2009 00:00:00 17.3525 C 7.29 g/m*3 17.35 C 0 km/h
1479 12-04-2009 00:00:00 16.79 C 8.39 g/m*3 16.79 C 0 km/h
1480 13-04-2009 00:00:00 15.65167 C 9.22 g/m*3 15.65 C 0 km/h
1481 14-04-2009 00:00:00 16.16167 C 8.27 g/m*3 16.16 C 0 km/h
1482 15-04-2009 00:00:00 16.94202 C 7.01 g/m*3 16.94 C 0 km/h
1483 16-04-2009 00:00:00 14.94583 C 6.79 g/m*3 14.95 C 0 km/h
1484 17-04-2009 00:00:00 10.0825 C 8.69 g/m*3 10.08 C 0 km/h
1485 18-04-2009 00:00:00 9.84 C 8.53 g/m*3 9.84 C 0 km/h
1486 19-04-2009 00:00:00 14.95667 C 7.61 g/m*3 14.96 C 0 km/h
1487 20-04-2009 00:00:00 15.16917 C 7.23 g/m*3 15.17 C 0 km/h
1488 21-04-2009 00:00:00 15.74583 C 6.35 g/m*3 15.75 C 0 km/h
1489 22-04-2009 00:00:00 13.68833 C 5.48 g/m*3 13.69 C 0 km/h
1490 23-04-2009 00:00:00 11.645 C 5.16 g/m*3 11.65 C 0 km/h
1491 24-04-2009 00:00:00 14.11333 C 5.96 g/m*3 14.11 C 0 km/h
1492 25-04-2009 00:00:00 14.64833 C 7.16 g/m*3 14.65 C 0 km/h
1493 26-04-2009 00:00:00 18.35 C 8.19 g/m*3 18.35 C 0 km/h
1494 27-04-2009 00:00:00 14.89496 C 7.27 g/m*3 14.89 C 0 km/h
1495 28-04-2009 00:00:00 11.07833 C 8.01 g/m*3 11.08 C 0 km/h
1496 29-04-2009 00:00:00 11.9025 C 7.14 g/m*3 11.9 C 0 km/h
1497 30-04-2009 00:00:00 12.85833 C 7.53 g/m*3 12.86 C 0 km/h
1498 01-05-2009 00:00:00 16.25583 C 8.09 g/m*3 16.26 C 0 km/h
1499 02-05-2009 00:00:00 17.60167 C 7.7 g/m*3 17.6 C 0 km/h
1500 03-05-2009 00:00:00 14.58333 C 7.12 g/m*3 14.58 C 0 km/h
Sensor: Nr:Datum:Temp:Abs-Feuchte:Windchill:Wind:
Aussen-T/F 1501 04-05-2009 00:00:00 11.88333 C 4.53 g/m*3 11.88 C 0 km/h
1502 05-05-2009 00:00:00 10.50917 C 6.68 g/m*3 10.51 C 0 km/h
1503 06-05-2009 00:00:00 13.85625 C 7.25 g/m*3 13.86 C 0 km/h
1504 07-05-2009 00:00:00 16.47708 C 7.43 g/m*3 16.48 C 0 km/h
1505 08-05-2009 00:00:00 16.58021 C 8.46 g/m*3 16.58 C 0 km/h
1506 09-05-2009 00:00:00 14.3875 C 8.01 g/m*3 14.39 C 0 km/h
1507 10-05-2009 00:00:00 17.72083 C 9.72 g/m*3 17.72 C 0 km/h
1508 11-05-2009 00:00:00 13.57188 C 11.06 g/m*3 13.57 C 0 km/h
1509 12-05-2009 00:00:00 11.83333 C 9.17 g/m*3 11.83 C 0 km/h
1510 13-05-2009 00:00:00 15.51771 C 8.96 g/m*3 15.52 C 0 km/h
1511 14-05-2009 00:00:00 16.00104 C 9.44 g/m*3 16 C 0 km/h
1512 15-05-2009 00:00:00 15.12255 C 10.34 g/m*3 15.12 C 0 km/h
1513 16-05-2009 00:00:00 13.80333 C 7.38 g/m*3 13.8 C 0 km/h
1514 17-05-2009 00:00:00 17.02083 C 7.92 g/m*3 17.02 C 0 km/h
1515 18-05-2009 00:00:00 16.95083 C 6.63 g/m*3 16.95 C 0 km/h
1516 19-05-2009 00:00:00 16.49333 C 7.85 g/m*3 16.49 C 0 km/h
1517 20-05-2009 00:00:00 18.70167 C 9.55 g/m*3 18.7 C 0 km/h
1518 21-05-2009 00:00:00 19.21167 C 10.72 g/m*3 19.21 C 0 km/h
1519 22-05-2009 00:00:00 17.97917 C 7.45 g/m*3 17.98 C 0 km/h
1520 23-05-2009 00:00:00 18.72083 C 7.4 g/m*3 18.72 C 0 km/h
1521 24-05-2009 00:00:00 22.53417 C 9.1 g/m*3 22.53 C 0 km/h
1522 25-05-2009 00:00:00 23.49833 C 10.6 g/m*3 23.5 C 0 km/h
1523 26-05-2009 00:00:00 19.86583 C 9.97 g/m*3 19.87 C 0 km/h
1524 27-05-2009 00:00:00 14.4425 C 6.18 g/m*3 14.44 C 0 km/h
1525 28-05-2009 00:00:00 15.5325 C 8.21 g/m*3 15.53 C 0 km/h
Sensor: Nr:Datum:Temp:Abs-Feuchte:Windchill:Wind:
Aussen-T/F 1526 29-05-2009 00:00:00 17.81765 C 6.76 g/m*3 17.82 C 0 km/h
1527 30-05-2009 00:00:00 18.43417 C 6.45 g/m*3 18.43 C 0 km/h
1528 31-05-2009 00:00:00 20.3075 C 7.55 g/m*3 20.31 C 0 km/h
1529 01-06-2009 00:00:00 19.42541 C 9.1 g/m*3 19.43 C 0 km/h
1530 02-06-2009 00:00:00 19.91917 C 8.16 g/m*3 19.92 C 0 km/h
1531 03-06-2009 00:00:00 16.3775 C 5.31 g/m*3 16.38 C 0 km/h
1532 04-06-2009 00:00:00 13.435 C 4.59 g/m*3 13.44 C 0 km/h
1533 05-06-2009 00:00:00 13.4075 C 5 g/m*3 13.41 C 0 km/h
1534 06-06-2009 00:00:00 9.18333 C 7.41 g/m*3 9.18 C 0 km/h
1535 07-06-2009 00:00:00 13.71083 C 8.43 g/m*3 13.71 C 0 km/h
1536 08-06-2009 00:00:00 16.58667 C 7.38 g/m*3 16.59 C 0 km/h
1537 09-06-2009 00:00:00 17.9275 C 9.37 g/m*3 17.93 C 0 km/h
1538 10-06-2009 00:00:00 17.24454 C 8.99 g/m*3 17.24 C 0 km/h
1539 11-06-2009 00:00:00 14.60417 C 9.26 g/m*3 14.6 C 0 km/h
1540 12-06-2009 00:00:00 15.915 C 7.28 g/m*3 15.92 C 0 km/h
1541 13-06-2009 00:00:00 18.29417 C 7.64 g/m*3 18.29 C 0 km/h
1542 14-06-2009 00:00:00 20.3875 C 10.19 g/m*3 20.39 C 0 km/h
1543 15-06-2009 00:00:00 16.76083 C 12.71 g/m*3 16.76 C 0 km/h
1544 16-06-2009 00:00:00 16.58083 C 9.69 g/m*3 16.58 C 0 km/h
1545 17-06-2009 00:00:00 19.89 C 9.38 g/m*3 19.89 C 0 km/h
1546 18-06-2009 00:00:00 19.45417 C 10.3 g/m*3 19.45 C 0 km/h
1547 19-06-2009 00:00:00 18.45583 C 7.96 g/m*3 18.46 C 0 km/h
1548 20-06-2009 00:00:00 13.84583 C 7.89 g/m*3 13.85 C 0 km/h
1549 21-06-2009 00:00:00 13.40167 C 8.61 g/m*3 13.4 C 0 km/h
1550 22-06-2009 00:00:00 15.23697 C 7.62 g/m*3 15.24 C 0 km/h
Sensor: Nr:Datum:Temp:Abs-Feuchte:Windchill:Wind:
Aussen-T/F 1551 23-06-2009 00:00:00 18.58583 C 7.92 g/m*3 18.59 C 0 km/h
1552 24-06-2009 00:00:00 22.29167 C 7.85 g/m*3 22.29 C 0 km/h
1553 25-06-2009 00:00:00 24.10583 C 9.67 g/m*3 24.11 C 0 km/h
1554 26-06-2009 00:00:00 24.31083 C 10.7 g/m*3 24.31 C 0 km/h
1555 27-06-2009 00:00:00 22.1625 C 12.54 g/m*3 22.16 C 0 km/h
1556 28-06-2009 00:00:00 25.04417 C 11.78 g/m*3 25.04 C 0 km/h
1557 29-06-2009 00:00:00 24.71583 C 12 g/m*3 24.72 C 0 km/h
1558 30-06-2009 00:00:00 22.55083 C 13.98 g/m*3 22.55 C 0 km/h
1559 01-07-2009 00:00:00 23.6175 C 13.73 g/m*3 23.62 C 0 km/h
1560 02-07-2009 00:00:00 25.95917 C 12.87 g/m*3 25.96 C 0 km/h
1561 03-07-2009 00:00:00 23.36083 C 13.72 g/m*3 23.36 C 0 km/h
1562 04-07-2009 00:00:00 24.17479 C 11.83 g/m*3 24.17 C 0 km/h
1563 05-07-2009 00:00:00 23.89917 C 11.07 g/m*3 23.9 C 0 km/h
1564 06-07-2009 00:00:00 21.82333 C 11.98 g/m*3 21.82 C 0 km/h
1565 07-07-2009 00:00:00 18.7625 C 10.11 g/m*3 18.76 C 0 km/h
1566 08-07-2009 00:00:00 16.39 C 9.61 g/m*3 16.39 C 0 km/h
1567 09-07-2009 00:00:00 16.38583 C 8.58 g/m*3 16.39 C 0 km/h
1568 10-07-2009 00:00:00 15.17083 C 7.78 g/m*3 15.17 C 0 km/h
1569 11-07-2009 00:00:00 17.55667 C 8.2 g/m*3 17.56 C 0 km/h
1570 12-07-2009 00:00:00 19.3525 C 10.57 g/m*3 19.35 C 0 km/h
1571 13-07-2009 00:00:00 21.76917 C 12.23 g/m*3 21.77 C 0 km/h
1572 14-07-2009 00:00:00 23.4 C 13.46 g/m*3 23.4 C 0 km/h
1573 15-07-2009 00:00:00 24.0475 C 10.2 g/m*3 24.05 C 0 km/h
1574 16-07-2009 00:00:00 23.37479 C 9.98 g/m*3 23.37 C 0 km/h
1575 17-07-2009 00:00:00 20.90917 C 9.78 g/m*3 20.91 C 0 km/h
Sensor: Nr:Datum:Temp:Abs-Feuchte:Windchill:Wind:
Aussen-T/F 1576 18-07-2009 00:00:00 17.575 C 8.46 g/m*3 17.58 C 0 km/h
1577 19-07-2009 00:00:00 17.92167 C 8.71 g/m*3 17.92 C 0 km/h
1578 20-07-2009 00:00:00 19.82583 C 7.87 g/m*3 19.83 C 0 km/h
1579 21-07-2009 00:00:00 23.22833 C 11.03 g/m*3 23.23 C 0 km/h
1580 22-07-2009 00:00:00 25.10583 C 12 g/m*3 25.11 C 0 km/h
1581 23-07-2009 00:00:00 22.65417 C 12.31 g/m*3 22.65 C 0 km/h
1582 24-07-2009 00:00:00 20.33167 C 9.89 g/m*3 20.33 C 0 km/h
1583 25-07-2009 00:00:00 18.03083 C 9.21 g/m*3 18.03 C 0 km/h
1584 26-07-2009 00:00:00 19.94833 C 9.75 g/m*3 19.95 C 0 km/h
1585 27-07-2009 00:00:00 20.60667 C 10.4 g/m*3 20.61 C 0 km/h
1586 28-07-2009 00:00:00 20.41513 C 8.48 g/m*3 20.42 C 0 km/h
1587 29-07-2009 00:00:00 21.77833 C 9.2 g/m*3 21.78 C 0 km/h
1588 30-07-2009 00:00:00 21.10583 C 8.72 g/m*3 21.11 C 0 km/h
1589 31-07-2009 00:00:00 20.32583 C 7.51 g/m*3 20.33 C 0 km/h
1590 01-08-2009 00:00:00 22.455 C 8.67 g/m*3 22.46 C 0 km/h
1591 02-08-2009 00:00:00 20.47167 C 10.91 g/m*3 20.47 C 0 km/h
1592 03-08-2009 00:00:00 19.3075 C 9.46 g/m*3 19.31 C 0 km/h
1593 04-08-2009 00:00:00 20.48917 C 8.95 g/m*3 20.49 C 0 km/h
1594 05-08-2009 00:00:00 22.0275 C 8.17 g/m*3 22.03 C 0 km/h
1595 06-08-2009 00:00:00 24.19667 C 9.51 g/m*3 24.2 C 0 km/h
1596 07-08-2009 00:00:00 25.2075 C 10.12 g/m*3 25.21 C 0 km/h
1597 08-08-2009 00:00:00 21.22583 C 12.28 g/m*3 21.23 C 0 km/h
1598 09-08-2009 00:00:00 22.82101 C 12.15 g/m*3 22.82 C 0 km/h
1599 10-08-2009 00:00:00 21.7025 C 11.79 g/m*3 21.7 C 0 km/h
1600 11-08-2009 00:00:00 20.44 C 11.61 g/m*3 20.44 C 0 km/h
Sensor: Nr:Datum:Temp:Abs-Feuchte:Windchill:Wind:
Aussen-T/F 1601 12-08-2009 00:00:00 20.9725 C 11.23 g/m*3 20.97 C 0 km/h
1602 13-08-2009 00:00:00 18.55917 C 12.82 g/m*3 18.56 C 0 km/h
1603 14-08-2009 00:00:00 19.44083 C 10.85 g/m*3 19.44 C 0 km/h
1604 15-08-2009 00:00:00 21.37917 C 10.5 g/m*3 21.38 C 0 km/h
1605 16-08-2009 00:00:00 23.84583 C 11 g/m*3 23.85 C 0 km/h
1606 17-08-2009 00:00:00 23.615 C 11.27 g/m*3 23.62 C 0 km/h
1607 18-08-2009 00:00:00 22.105 C 9.45 g/m*3 22.11 C 0 km/h
1608 19-08-2009 00:00:00 23.76 C 10.14 g/m*3 23.76 C 0 km/h
1609 20-08-2009 00:00:00 26.03167 C 11.39 g/m*3 26.03 C 0 km/h
1610 21-08-2009 00:00:00 20.32185 C 10.69 g/m*3 20.32 C 0 km/h
1611 22-08-2009 00:00:00 19.745 C 9.13 g/m*3 19.75 C 0 km/h
1612 23-08-2009 00:00:00 20.0375 C 8.31 g/m*3 20.04 C 0 km/h
1613 24-08-2009 00:00:00 22.19667 C 9.27 g/m*3 22.2 C 0 km/h
1614 25-08-2009 00:00:00 23.11917 C 10.67 g/m*3 23.12 C 0 km/h
1615 26-08-2009 00:00:00 21.68417 C 9.77 g/m*3 21.68 C 0 km/h
1616 27-08-2009 00:00:00 23.10167 C 10.48 g/m*3 23.1 C 0 km/h
1617 28-08-2009 00:00:00 21.60583 C 8.45 g/m*3 21.61 C 0 km/h
1618 29-08-2009 00:00:00 16.21167 C 6.62 g/m*3 16.21 C 0 km/h
1619 30-08-2009 00:00:00 16.655 C 6.94 g/m*3 16.66 C 0 km/h
1620 31-08-2009 00:00:00 19.54667 C 7.6 g/m*3 19.55 C 0 km/h
1621 01-09-2009 00:00:00 19.93167 C 10.19 g/m*3 19.93 C 0 km/h
1622 02-09-2009 00:00:00 18.765 C 9.38 g/m*3 18.77 C 0 km/h
1623 03-09-2009 00:00:00 17.39328 C 8.67 g/m*3 17.39 C 0 km/h
1624 04-09-2009 00:00:00 14.56333 C 8.22 g/m*3 14.56 C 0 km/h
1625 05-09-2009 00:00:00 15.10833 C 7.6 g/m*3 15.11 C 0 km/h
Sensor: Nr:Datum:Temp:Abs-Feuchte:Windchill:Wind:
Aussen-T/F 1626 06-09-2009 00:00:00 14.74583 C 8.27 g/m*3 14.75 C 0 km/h
1627 07-09-2009 00:00:00 17.63417 C 8.91 g/m*3 17.63 C 0 km/h
1628 08-09-2009 00:00:00 19.88167 C 9.54 g/m*3 19.88 C 0 km/h
1629 09-09-2009 00:00:00 19.7475 C 9.47 g/m*3 19.75 C 0 km/h
1630 10-09-2009 00:00:00 18.43917 C 10.33 g/m*3 18.44 C 0 km/h
1631 11-09-2009 00:00:00 17.6725 C 7.37 g/m*3 17.67 C 0 km/h
1632 12-09-2009 00:00:00 16.99083 C 7.3 g/m*3 16.99 C 0 km/h
1633 13-09-2009 00:00:00 14.23 C 8.62 g/m*3 14.23 C 0 km/h
1634 14-09-2009 00:00:00 12.17417 C 10.1 g/m*3 12.17 C 0 km/h
1635 15-09-2009 00:00:00 13.7563 C 10.75 g/m*3 13.76 C 0 km/h
1636 16-09-2009 00:00:00 16.725 C 11.49 g/m*3 16.73 C 0 km/h
1637 17-09-2009 00:00:00 18.47583 C 9.96 g/m*3 18.48 C 0 km/h
1638 18-09-2009 00:00:00 18.26083 C 9.85 g/m*3 18.26 C 0 km/h
1639 19-09-2009 00:00:00 20.78583 C 11.08 g/m*3 20.79 C 0 km/h
1640 20-09-2009 00:00:00 19.92833 C 11.89 g/m*3 19.93 C 0 km/h
1641 21-09-2009 00:00:00 18.85833 C 10.75 g/m*3 18.86 C 0 km/h
1642 22-09-2009 00:00:00 17.215 C 9.52 g/m*3 17.22 C 0 km/h
1643 23-09-2009 00:00:00 17.4225 C 9.72 g/m*3 17.42 C 0 km/h
1644 24-09-2009 00:00:00 17.19 C 10.45 g/m*3 17.19 C 0 km/h
1645 25-09-2009 00:00:00 15.16083 C 8.71 g/m*3 15.16 C 0 km/h
1646 26-09-2009 00:00:00 14.56333 C 8.19 g/m*3 14.56 C 0 km/h
1647 27-09-2009 00:00:00 14.64 C 8.22 g/m*3 14.64 C 0 km/h
1648 28-09-2009 00:00:00 14.21583 C 8.47 g/m*3 14.22 C 0 km/h
1649 29-09-2009 00:00:00 15.88319 C 8.68 g/m*3 15.88 C 0 km/h
1650 30-09-2009 00:00:00 16.535 C 9.98 g/m*3 16.54 C 0 km/h
Sensor: Nr:Datum:Temp:Abs-Feuchte:Windchill:Wind:
Aussen-T/F 1651 01-10-2009 00:00:00 14.71583 C 8.88 g/m*3 14.72 C 0 km/h
1652 02-10-2009 00:00:00 11.32167 C 6.59 g/m*3 11.32 C 0 km/h
1653 03-10-2009 00:00:00 11.72333 C 6.76 g/m*3 11.72 C 0 km/h
1654 04-10-2009 00:00:00 13.54167 C 7.94 g/m*3 13.54 C 0 km/h
1655 05-10-2009 00:00:00 12.4075 C 9.99 g/m*3 12.41 C 0 km/h
1656 06-10-2009 00:00:00 16.13417 C 12.08 g/m*3 16.13 C 0 km/h
1657 07-10-2009 00:00:00 19.57083 C 12.9 g/m*3 19.57 C 0 km/h
1658 08-10-2009 00:00:00 16.41167 C 9.99 g/m*3 16.41 C 0 km/h
1659 09-10-2009 00:00:00 11.88417 C 7.56 g/m*3 11.88 C 0 km/h
1660 10-10-2009 00:00:00 13.34667 C 9.66 g/m*3 13.35 C 0 km/h
1661 11-10-2009 00:00:00 12.35042 C 8.83 g/m*3 12.35 C 0 km/h
1662 12-10-2009 00:00:00 10.9275 C 6.43 g/m*3 10.93 C 0 km/h
1663 13-10-2009 00:00:00 9.24333 C 6.35 g/m*3 9.24 C 0 km/h
1664 14-10-2009 00:00:00 4.27333 C 4.38 g/m*3 4.27 C 0 km/h
1665 15-10-2009 00:00:00 3.45583 C 4.18 g/m*3 3.46 C 0 km/h
1666 16-10-2009 00:00:00 6.41083 C 5.8 g/m*3 6.41 C 0 km/h
1667 17-10-2009 00:00:00 8.52083 C 5.63 g/m*3 8.52 C 0 km/h
1668 18-10-2009 00:00:00 7.3775 C 5.38 g/m*3 7.38 C 0 km/h
1669 19-10-2009 00:00:00 4.59 C 4.71 g/m*3 4.59 C 0 km/h
1670 20-10-2009 00:00:00 5.17083 C 4.82 g/m*3 5.17 C 0 km/h
1671 21-10-2009 00:00:00 8.07333 C 5.02 g/m*3 8.07 C 0 km/h
1672 22-10-2009 00:00:00 9.4 C 5.91 g/m*3 9.4 C 0 km/h
1673 23-10-2009 00:00:00 8.34 C 7.02 g/m*3 8.34 C 0 km/h
1674 24-10-2009 00:00:00 10.5084 C 7.81 g/m*3 10.51 C 0 km/h
1675 25-10-2009 00:00:00 12.6096 C 8.4 g/m*3 12.61 C 0 km/h
Sensor: Nr:Datum:Temp:Abs-Feuchte:Windchill:Wind:
Aussen-T/F 1676 26-10-2009 00:00:00 11.8875 C 7.56 g/m*3 11.89 C 0 km/h
1677 27-10-2009 00:00:00 11.82417 C 7.63 g/m*3 11.82 C 0 km/h
1678 28-10-2009 00:00:00 8.37917 C 7.06 g/m*3 8.38 C 0 km/h
1679 29-10-2009 00:00:00 8.69333 C 7.48 g/m*3 8.69 C 0 km/h
1680 30-10-2009 00:00:00 10.54083 C 7.59 g/m*3 10.54 C 0 km/h
1681 31-10-2009 00:00:00 7.03083 C 5.82 g/m*3 7.03 C 0 km/h
1682 01-11-2009 00:00:00 9.17333 C 6.74 g/m*3 9.17 C 0 km/h
1683 02-11-2009 00:00:00 10.32333 C 8.29 g/m*3 10.32 C 0 km/h
1684 03-11-2009 00:00:00 8.06167 C 6.19 g/m*3 8.06 C 0 km/h
1685 04-11-2009 00:00:00 8.75 C 7.01 g/m*3 8.75 C 0 km/h
1686 05-11-2009 00:00:00 9.29748 C 6.2 g/m*3 9.3 C 0 km/h
1687 06-11-2009 00:00:00 9.43333 C 6.28 g/m*3 9.43 C 0 km/h
1688 07-11-2009 00:00:00 8.11583 C 5.94 g/m*3 8.12 C 0 km/h
1689 08-11-2009 00:00:00 6.9 C 6.33 g/m*3 6.9 C 0 km/h
1690 09-11-2009 00:00:00 6.21167 C 6.26 g/m*3 6.21 C 0 km/h
1691 10-11-2009 00:00:00 6.03 C 6.79 g/m*3 6.03 C 0 km/h
1692 11-11-2009 00:00:00 6.2525 C 6.18 g/m*3 6.25 C 0 km/h
1693 12-11-2009 00:00:00 4.66 C 6.06 g/m*3 4.66 C 0 km/h
1694 13-11-2009 00:00:00 11.27583 C 8.27 g/m*3 11.28 C 0 km/h
1695 14-11-2009 00:00:00 11.7125 C 7.87 g/m*3 11.71 C 0 km/h
1696 15-11-2009 00:00:00 11.2125 C 6.89 g/m*3 11.21 C 0 km/h
1697 16-11-2009 00:00:00 10.92667 C 8.53 g/m*3 10.93 C 0 km/h
1698 17-11-2009 00:00:00 10.88235 C 8.48 g/m*3 10.88 C 0 km/h
1699 18-11-2009 00:00:00 10.245 C 6.24 g/m*3 10.25 C 0 km/h
1700 19-11-2009 00:00:00 9.77667 C 6.57 g/m*3 9.78 C 0 km/h
Sensor: Nr:Datum:Temp:Abs-Feuchte:Windchill:Wind:
Aussen-T/F 1701 20-11-2009 00:00:00 7.87917 C 6.83 g/m*3 7.88 C 0 km/h
1702 21-11-2009 00:00:00 11.67333 C 7.8 g/m*3 11.67 C 0 km/h
1703 22-11-2009 00:00:00 11.84167 C 6.48 g/m*3 11.84 C 0 km/h
1704 23-11-2009 00:00:00 10.33417 C 6.93 g/m*3 10.33 C 0 km/h
1705 24-11-2009 00:00:00 11.89833 C 7.31 g/m*3 11.9 C 0 km/h
1706 25-11-2009 00:00:00 12.0875 C 6.36 g/m*3 12.09 C 0 km/h
1707 26-11-2009 00:00:00 9.98917 C 5.73 g/m*3 9.99 C 0 km/h
1708 27-11-2009 00:00:00 9.0425 C 5.58 g/m*3 9.04 C 0 km/h
1709 28-11-2009 00:00:00 8.79 C 5.95 g/m*3 8.79 C 0 km/h
1710 29-11-2009 00:00:00 9.41597 C 6.1 g/m*3 9.42 C 0 km/h
1711 30-11-2009 00:00:00 6.46 C 6.32 g/m*3 6.46 C 0 km/h
1712 01-12-2009 00:00:00 5.65583 C 5.93 g/m*3 5.66 C 0 km/h
1713 02-12-2009 00:00:00 5.96 C 5.22 g/m*3 5.96 C 0 km/h
1714 03-12-2009 00:00:00 8.53667 C 6.07 g/m*3 8.54 C 0 km/h
1715 04-12-2009 00:00:00 4.73917 C 4.37 g/m*3 4.74 C 0 km/h
1716 05-12-2009 00:00:00 5.3975 C 5.13 g/m*3 5.4 C 0 km/h
1717 06-12-2009 00:00:00 9.83 C 7.53 g/m*3 9.83 C 0 km/h
1718 07-12-2009 00:00:00 5.59917 C 6.01 g/m*3 5.6 C 0 km/h
1719 08-12-2009 00:00:00 6.95833 C 6.27 g/m*3 6.96 C 0 km/h
1720 09-12-2009 00:00:00 7.2525 C 6.19 g/m*3 7.25 C 0 km/h
1721 10-12-2009 00:00:00 8.78583 C 6.99 g/m*3 8.79 C 0 km/h
1722 11-12-2009 00:00:00 6.665 C 6.16 g/m*3 6.67 C 0 km/h
1723 12-12-2009 00:00:00 3.47833 C 5.29 g/m*3 3.48 C 0 km/h
1724 13-12-2009 00:00:00 1.50924 C 3.54 g/m*3 1.51 C 0 km/h
1725 14-12-2009 00:00:00 -0.80667 C 2.67 g/m*3 -0.81 C 0 km/h
Sensor: Nr:Datum:Temp:Abs-Feuchte:Windchill:Wind:
Aussen-T/F 1726 15-12-2009 00:00:00 -0.50083 C 2.88 g/m*3 -0.5 C 0 km/h
1727 16-12-2009 00:00:00 -1.19917 C 2.79 g/m*3 -1.2 C 0 km/h
1728 17-12-2009 00:00:00 -4.445 C 2.62 g/m*3 -4.45 C 0 km/h
1729 18-12-2009 00:00:00 -5.04417 C 2.34 g/m*3 -5.04 C 0 km/h
1730 19-12-2009 00:00:00 -12.79 C 1.12 g/m*3 -12.79 C 0 km/h
1731 20-12-2009 00:00:00 -8.03917 C 1.87 g/m*3 -8.04 C 0 km/h
1732 21-12-2009 00:00:00 -2.18417 C 3.25 g/m*3 -2.18 C 0 km/h
1733 22-12-2009 00:00:00 2.7175 C 5.09 g/m*3 2.72 C 0 km/h
1734 23-12-2009 00:00:00 0.49333 C 4.68 g/m*3 0.49 C 0 km/h
1735 24-12-2009 00:00:00 2.31333 C 5.15 g/m*3 2.31 C 0 km/h
1736 25-12-2009 00:00:00 4.38824 C 5.08 g/m*3 4.39 C 0 km/h
1737 26-12-2009 00:00:00 2.04583 C 4.45 g/m*3 2.05 C 0 km/h
1738 27-12-2009 00:00:00 0.5475 C 4.38 g/m*3 0.55 C 0 km/h
1739 28-12-2009 00:00:00 3.1425 C 4.49 g/m*3 3.14 C 0 km/h
1740 29-12-2009 00:00:00 0.4625 C 4.61 g/m*3 0.46 C 0 km/h
1741 30-12-2009 00:00:00 7.05667 C 7.27 g/m*3 7.06 C 0 km/h
1742 31-12-2009 00:00:00 5.32667 C 6.59 g/m*3 5.33 C 0 km/h
1743 01-01-2010 00:00:00 -0.1725 C 4.38 g/m*3 -0.17 C 0 km/h
1744 02-01-2010 00:00:00 -1.51083 C 3.34 g/m*3 -1.51 C 0 km/h
1745 03-01-2010 00:00:00 -1.79667 C 3.45 g/m*3 -1.8 C 0 km/h
1746 04-01-2010 00:00:00 -5.24083 C 2.41 g/m*3 -5.24 C 0 km/h
1747 05-01-2010 00:00:00 -8.00083 C 2.22 g/m*3 -8 C 0 km/h
1748 06-01-2010 00:00:00 -6.88917 C 2.25 g/m*3 -6.89 C 0 km/h
1749 07-01-2010 00:00:00 -3.75966 C 2.79 g/m*3 -3.76 C 0 km/h
1750 08-01-2010 00:00:00 -4.82167 C 2.54 g/m*3 -4.82 C 0 km/h
Sensor: Nr:Datum:Temp:Abs-Feuchte:Windchill:Wind:
Aussen-T/F 1751 09-01-2010 00:00:00 -2.655 C 3.05 g/m*3 -2.66 C 0 km/h
1752 10-01-2010 00:00:00 -1.87083 C 3.27 g/m*3 -1.87 C 0 km/h
1753 11-01-2010 00:00:00 -1.42833 C 3.62 g/m*3 -1.43 C 0 km/h
1754 12-01-2010 00:00:00 -1.65833 C 3.4 g/m*3 -1.66 C 0 km/h
1755 13-01-2010 00:00:00 -2.2325 C 2.99 g/m*3 -2.23 C 0 km/h
1756 14-01-2010 00:00:00 0.35417 C 3.98 g/m*3 0.35 C 0 km/h
1757 15-01-2010 00:00:00 0.87333 C 4.07 g/m*3 0.87 C 0 km/h
1758 16-01-2010 00:00:00 -0.11833 C 3.75 g/m*3 -0.12 C 0 km/h
1759 17-01-2010 00:00:00 2.09667 C 5.1 g/m*3 2.1 C 0 km/h
1760 18-01-2010 00:00:00 3.38333 C 5.07 g/m*3 3.38 C 0 km/h
1761 19-01-2010 00:00:00 2.24583 C 5.1 g/m*3 2.25 C 0 km/h
1762 20-01-2010 00:00:00 1.97417 C 4.66 g/m*3 1.97 C 0 km/h
1763 21-01-2010 00:00:00 2.45126 C 4.02 g/m*3 2.45 C 0 km/h
1764 22-01-2010 00:00:00 2.93667 C 4.24 g/m*3 2.94 C 0 km/h
1765 23-01-2010 00:00:00 -0.41333 C 3.36 g/m*3 -0.41 C 0 km/h
1766 24-01-2010 00:00:00 0.27167 C 4.06 g/m*3 0.27 C 0 km/h
1767 25-01-2010 00:00:00 0.01667 C 4.19 g/m*3 0.02 C 0 km/h
1768 26-01-2010 00:00:00 -3.325 C 2.8 g/m*3 -3.33 C 0 km/h
1769 27-01-2010 00:00:00 -5.54083 C 2.18 g/m*3 -5.54 C 0 km/h
1770 28-01-2010 00:00:00 1.20667 C 4.04 g/m*3 1.21 C 0 km/h
1771 29-01-2010 00:00:00 1.39083 C 4.5 g/m*3 1.39 C 0 km/h
1772 30-01-2010 00:00:00 -1.54583 C 3.39 g/m*3 -1.55 C 0 km/h
1773 31-01-2010 00:00:00 -1.62333 C 3.2 g/m*3 -1.62 C 0 km/h
1774 01-02-2010 00:00:00 0.20167 C 3.69 g/m*3 0.2 C 0 km/h
1775 02-02-2010 00:00:00 0.69916 C 4 g/m*3 0.7 C 0 km/h
Sensor: Nr:Datum:Temp:Abs-Feuchte:Windchill:Wind:
Aussen-T/F 1776 03-02-2010 00:00:00 2.28899 C 5.05 g/m*3 2.29 C 0 km/h
1777 04-02-2010 00:00:00 4.17018 C 5.55 g/m*3 4.17 C 0 km/h
1778 05-02-2010 00:00:00 3.29649 C 4.9 g/m*3 3.3 C 0 km/h
1779 06-02-2010 00:00:00 4.55172 C 5.47 g/m*3 4.55 C 0 km/h
1780 07-02-2010 00:00:00 4.17018 C 5.02 g/m*3 4.17 C 0 km/h
1781 08-02-2010 00:00:00 -0.75 C 2.85 g/m*3 -0.75 C 0 km/h
1782 09-02-2010 00:00:00 -3.74483 C 2.17 g/m*3 -3.74 C 0 km/h
1783 10-02-2010 00:00:00 -4.8 C 2.32 g/m*3 -4.8 C 0 km/h
1784 11-02-2010 00:00:00 -3.79828 C 2.62 g/m*3 -3.8 C 0 km/h
1785 12-02-2010 00:00:00 -2.14737 C 2.95 g/m*3 -2.15 C 0 km/h
1786 13-02-2010 00:00:00 -2.57414 C 2.82 g/m*3 -2.57 C 0 km/h
1787 14-02-2010 00:00:00 -2.13621 C 3.1 g/m*3 -2.14 C 0 km/h
1788 15-02-2010 00:00:00 -1.12632 C 3.21 g/m*3 -1.13 C 0 km/h
1789 16-02-2010 00:00:00 -1.16379 C 3.02 g/m*3 -1.16 C 0 km/h
1790 17-02-2010 00:00:00 -1.61754 C 3.18 g/m*3 -1.62 C 0 km/h
1791 18-02-2010 00:00:00 3.2569 C 4.56 g/m*3 3.26 C 0 km/h
1792 19-02-2010 00:00:00 3.59375 C 4.12 g/m*3 3.59 C 0 km/h
1793 20-02-2010 00:00:00 1.69333 C 3.53 g/m*3 1.69 C 0 km/h
1794 21-02-2010 00:00:00 2.87833 C 4.25 g/m*3 2.88 C 0 km/h
1795 22-02-2010 00:00:00 6.76417 C 5.24 g/m*3 6.76 C 0 km/h
1796 23-02-2010 00:00:00 9.7875 C 7.07 g/m*3 9.79 C 0 km/h
1797 24-02-2010 00:00:00 9.55 C 6.5 g/m*3 9.55 C 0 km/h
1798 25-02-2010 00:00:00 9.58 C 5.92 g/m*3 9.58 C 0 km/h
1799 26-02-2010 00:00:00 8.62667 C 5.33 g/m*3 8.63 C 0 km/h
1800 27-02-2010 00:00:00 8.4025 C 4.07 g/m*3 8.4 C 0 km/h
Sensor: Nr:Datum:Temp:Abs-Feuchte:Windchill:Wind:
Aussen-T/F 1801 28-02-2010 00:00:00 8.30667 C 5.5 g/m*3 8.31 C 0 km/h
1802 01-03-2010 00:00:00 5.40917 C 3.85 g/m*3 5.41 C 0 km/h
1803 02-03-2010 00:00:00 3.135 C 3.87 g/m*3 3.14 C 0 km/h
1804 03-03-2010 00:00:00 2.9925 C 3.33 g/m*3 2.99 C 0 km/h
1805 04-03-2010 00:00:00 2.47395 C 2.67 g/m*3 2.47 C 0 km/h
1806 05-03-2010 00:00:00 0.77667 C 2.41 g/m*3 0.78 C 0 km/h
1807 06-03-2010 00:00:00 -0.47083 C 3.38 g/m*3 -0.47 C 0 km/h
1808 07-03-2010 00:00:00 -1.6825 C 2.27 g/m*3 -1.68 C 0 km/h
1809 08-03-2010 00:00:00 -1.21083 C 1.92 g/m*3 -1.21 C 0 km/h
1810 09-03-2010 00:00:00 -0.87167 C 1.76 g/m*3 -0.87 C 0 km/h
1811 10-03-2010 00:00:00 1.41667 C 1.75 g/m*3 1.42 C 0 km/h
1812 11-03-2010 00:00:00 0.40167 C 2.56 g/m*3 0.4 C 0 km/h
1813 12-03-2010 00:00:00 1.61167 C 3.86 g/m*3 1.61 C 0 km/h
1814 13-03-2010 00:00:00 4.36583 C 4.23 g/m*3 4.37 C 0 km/h
1815 14-03-2010 00:00:00 5.79833 C 4.06 g/m*3 5.8 C 0 km/h
1816 15-03-2010 00:00:00 6.445 C 5.04 g/m*3 6.45 C 0 km/h
1817 16-03-2010 00:00:00 6.08067 C 5.63 g/m*3 6.08 C 0 km/h
1818 17-03-2010 00:00:00 6.69417 C 4.48 g/m*3 6.69 C 0 km/h
1819 18-03-2010 00:00:00 10.12333 C 4.54 g/m*3 10.12 C 0 km/h
1820 19-03-2010 00:00:00 15.0225 C 4.66 g/m*3 15.02 C 0 km/h
1821 20-03-2010 00:00:00 14.37667 C 8.46 g/m*3 14.38 C 0 km/h
1822 21-03-2010 00:00:00 11.23667 C 8.65 g/m*3 11.24 C 0 km/h
1823 22-03-2010 00:00:00 9.7575 C 7.03 g/m*3 9.76 C 0 km/h

Maximal/Minimal-Werte vom 23.03.2005 - 22.03.2010

Sensor Min Max Avg
Temp
(Aussen-T/F)
-16.4 °C
20-12-2009  01:30:01
35.6 °C
19-07-2006  18:29:02
11.64 °C
Abs-Feuchte
(Aussen-T/F)
1.12 g/m*3
19-12-2009  00:00:00
14.67 g/m*3
28-07-2005  00:00:00
7.18 g/m*3
Windchill
(Aussen-T/F)
-12.79 C
19-12-2009  00:00:00
28.25 C
26-07-2006  00:00:00
11.62 C

Die Daten stammen von einer Davis Vantage Pro 2 Wetter-Station und werden unter Linux mit der Software wview2wettercgi und aufbereitet. Alle Angaben erfolgen ohne Gewähr für ihre Vollständigkeit oder Richtigkeit.
Kontakt: Rainer Krienke krienke@uni-koblenz.de . Meine Webseiten an der Uni Koblenz oder privat.
Version: $Revision: 0.78 $